<?xml version="1.0" encoding="UTF-8" standalone="no" ?>
<gpx xmlns="http://www.topografix.com/GPX/1/1" xmlns:xsi="http://www.w3.org/2001/XMLSchema-instance" xsi:schemaLocation="http://www.topografix.com/GPX/1/1 http://www.topografix.com/GPX/1/1/gpx.xsd" version="1.1" creator="VisuGPX - https://www.visugpx.com">
  <metadata>
    <name>Deux jours dans le champsaur</name>
    <desc><![CDATA[Deux jours dans le Champsaur (ou 3?)]]></desc>
  </metadata>
  <trk>
    <name><![CDATA[Deux jours dans le champsaur_1]]></name>
    <trkseg>
      <trkpt lat="44.64711" lon="6.2061">
        <ele>1266</ele>
        <time>2018-11-14T16:46:09Z</time>
      </trkpt>
      <trkpt lat="44.64711" lon="6.2061">
        <ele>1266</ele>
        <time>2018-11-14T16:46:09Z</time>
      </trkpt>
      <trkpt lat="44.64683" lon="6.20549">
        <ele>1266</ele>
        <time>2018-11-14T16:47:09Z</time>
      </trkpt>
      <trkpt lat="44.64672" lon="6.20535">
        <ele>1267</ele>
        <time>2018-11-14T16:48:09Z</time>
      </trkpt>
      <trkpt lat="44.64643" lon="6.20501">
        <ele>1269</ele>
        <time>2018-11-14T16:49:09Z</time>
      </trkpt>
      <trkpt lat="44.6461" lon="6.20438">
        <ele>1268</ele>
        <time>2018-11-14T16:50:09Z</time>
      </trkpt>
      <trkpt lat="44.64594" lon="6.20419">
        <ele>1269</ele>
        <time>2018-11-14T16:51:09Z</time>
      </trkpt>
      <trkpt lat="44.64556" lon="6.20386">
        <ele>1269</ele>
        <time>2018-11-14T16:52:09Z</time>
      </trkpt>
      <trkpt lat="44.64527" lon="6.20366">
        <ele>1271</ele>
        <time>2018-11-14T16:53:09Z</time>
      </trkpt>
      <trkpt lat="44.64502" lon="6.20323">
        <ele>1271</ele>
        <time>2018-11-14T16:54:09Z</time>
      </trkpt>
      <trkpt lat="44.64497" lon="6.20252">
        <ele>1266</ele>
        <time>2018-11-14T16:55:09Z</time>
      </trkpt>
      <trkpt lat="44.64483" lon="6.20162">
        <ele>1261</ele>
        <time>2018-11-14T16:56:09Z</time>
      </trkpt>
      <trkpt lat="44.64453" lon="6.20037">
        <ele>1255</ele>
        <time>2018-11-14T16:57:09Z</time>
      </trkpt>
      <trkpt lat="44.6443" lon="6.20003">
        <ele>1253</ele>
        <time>2018-11-14T16:58:09Z</time>
      </trkpt>
      <trkpt lat="44.64411" lon="6.20011">
        <ele>1255</ele>
        <time>2018-11-14T16:59:09Z</time>
      </trkpt>
      <trkpt lat="44.64408" lon="6.19978">
        <ele>1255</ele>
        <time>2018-11-14T17:00:09Z</time>
      </trkpt>
      <trkpt lat="44.64411" lon="6.19947">
        <ele>1254</ele>
        <time>2018-11-14T17:01:09Z</time>
      </trkpt>
      <trkpt lat="44.64401" lon="6.19896">
        <ele>1253</ele>
        <time>2018-11-14T17:02:09Z</time>
      </trkpt>
      <trkpt lat="44.64386" lon="6.1987">
        <ele>1255</ele>
        <time>2018-11-14T17:03:09Z</time>
      </trkpt>
      <trkpt lat="44.64353" lon="6.19757">
        <ele>1255</ele>
        <time>2018-11-14T17:04:09Z</time>
      </trkpt>
      <trkpt lat="44.64315" lon="6.19658">
        <ele>1261</ele>
        <time>2018-11-14T17:05:09Z</time>
      </trkpt>
      <trkpt lat="44.64246" lon="6.19557">
        <ele>1266</ele>
        <time>2018-11-14T17:06:09Z</time>
      </trkpt>
      <trkpt lat="44.64192" lon="6.1949">
        <ele>1266</ele>
        <time>2018-11-14T17:07:09Z</time>
      </trkpt>
      <trkpt lat="44.64161" lon="6.19461">
        <ele>1264</ele>
        <time>2018-11-14T17:08:09Z</time>
      </trkpt>
      <trkpt lat="44.64153" lon="6.19423">
        <ele>1263</ele>
        <time>2018-11-14T17:09:09Z</time>
      </trkpt>
      <trkpt lat="44.64145" lon="6.19396">
        <ele>1261</ele>
        <time>2018-11-14T17:10:09Z</time>
      </trkpt>
      <trkpt lat="44.64124" lon="6.19375">
        <ele>1261</ele>
        <time>2018-11-14T17:11:09Z</time>
      </trkpt>
      <trkpt lat="44.64081" lon="6.19347">
        <ele>1262</ele>
        <time>2018-11-14T17:12:09Z</time>
      </trkpt>
      <trkpt lat="44.64053" lon="6.19333">
        <ele>1270</ele>
        <time>2018-11-14T17:13:09Z</time>
      </trkpt>
      <trkpt lat="44.64053" lon="6.19333">
        <ele>1270</ele>
        <time>2018-11-14T17:14:09Z</time>
      </trkpt>
      <trkpt lat="44.64058" lon="6.19289">
        <ele>1264</ele>
        <time>2018-11-14T17:15:09Z</time>
      </trkpt>
      <trkpt lat="44.64037" lon="6.1922">
        <ele>1263</ele>
        <time>2018-11-14T17:16:09Z</time>
      </trkpt>
      <trkpt lat="44.64013" lon="6.19154">
        <ele>1261</ele>
        <time>2018-11-14T17:17:09Z</time>
      </trkpt>
      <trkpt lat="44.63991" lon="6.19064">
        <ele>1263</ele>
        <time>2018-11-14T17:18:09Z</time>
      </trkpt>
      <trkpt lat="44.63985" lon="6.18974">
        <ele>1259</ele>
        <time>2018-11-14T17:19:09Z</time>
      </trkpt>
      <trkpt lat="44.63973" lon="6.18945">
        <ele>1263</ele>
        <time>2018-11-14T17:20:09Z</time>
      </trkpt>
      <trkpt lat="44.63947" lon="6.18909">
        <ele>1271</ele>
        <time>2018-11-14T17:21:09Z</time>
      </trkpt>
      <trkpt lat="44.6393" lon="6.18853">
        <ele>1273</ele>
        <time>2018-11-14T17:22:09Z</time>
      </trkpt>
      <trkpt lat="44.63945" lon="6.18716">
        <ele>1258</ele>
        <time>2018-11-14T17:23:09Z</time>
      </trkpt>
      <trkpt lat="44.63952" lon="6.18675">
        <ele>1252</ele>
        <time>2018-11-14T17:24:09Z</time>
      </trkpt>
      <trkpt lat="44.63946" lon="6.18616">
        <ele>1248</ele>
        <time>2018-11-14T17:25:09Z</time>
      </trkpt>
      <trkpt lat="44.63946" lon="6.1859">
        <ele>1245</ele>
        <time>2018-11-14T17:26:09Z</time>
      </trkpt>
      <trkpt lat="44.63938" lon="6.18537">
        <ele>1243</ele>
        <time>2018-11-14T17:27:09Z</time>
      </trkpt>
      <trkpt lat="44.63942" lon="6.18461">
        <ele>1235</ele>
        <time>2018-11-14T17:28:09Z</time>
      </trkpt>
      <trkpt lat="44.63941" lon="6.18398">
        <ele>1229</ele>
        <time>2018-11-14T17:29:09Z</time>
      </trkpt>
      <trkpt lat="44.63972" lon="6.18353">
        <ele>1217</ele>
        <time>2018-11-14T17:30:09Z</time>
      </trkpt>
      <trkpt lat="44.6399" lon="6.1833">
        <ele>1209</ele>
        <time>2018-11-14T17:31:09Z</time>
      </trkpt>
      <trkpt lat="44.63988" lon="6.18311">
        <ele>1209</ele>
        <time>2018-11-14T17:32:09Z</time>
      </trkpt>
      <trkpt lat="44.63988" lon="6.18281">
        <ele>1207</ele>
        <time>2018-11-14T17:33:09Z</time>
      </trkpt>
      <trkpt lat="44.63991" lon="6.18221">
        <ele>1201</ele>
        <time>2018-11-14T17:34:09Z</time>
      </trkpt>
      <trkpt lat="44.64007" lon="6.1816">
        <ele>1190</ele>
        <time>2018-11-14T17:35:09Z</time>
      </trkpt>
      <trkpt lat="44.64019" lon="6.18129">
        <ele>1186</ele>
        <time>2018-11-14T17:36:09Z</time>
      </trkpt>
      <trkpt lat="44.64016" lon="6.18082">
        <ele>1182</ele>
        <time>2018-11-14T17:37:09Z</time>
      </trkpt>
      <trkpt lat="44.64021" lon="6.18037">
        <ele>1178</ele>
        <time>2018-11-14T17:38:09Z</time>
      </trkpt>
      <trkpt lat="44.64023" lon="6.17995">
        <ele>1175</ele>
        <time>2018-11-14T17:39:09Z</time>
      </trkpt>
      <trkpt lat="44.64021" lon="6.17958">
        <ele>1173</ele>
        <time>2018-11-14T17:40:09Z</time>
      </trkpt>
      <trkpt lat="44.63991" lon="6.17872">
        <ele>1175</ele>
        <time>2018-11-14T17:41:09Z</time>
      </trkpt>
      <trkpt lat="44.63985" lon="6.17819">
        <ele>1174</ele>
        <time>2018-11-14T17:42:09Z</time>
      </trkpt>
      <trkpt lat="44.63968" lon="6.17711">
        <ele>1175</ele>
        <time>2018-11-14T17:43:09Z</time>
      </trkpt>
      <trkpt lat="44.63935" lon="6.17662">
        <ele>1185</ele>
        <time>2018-11-14T17:44:09Z</time>
      </trkpt>
      <trkpt lat="44.6393" lon="6.17637">
        <ele>1183</ele>
        <time>2018-11-14T17:45:09Z</time>
      </trkpt>
      <trkpt lat="44.63936" lon="6.17564">
        <ele>1174</ele>
        <time>2018-11-14T17:46:09Z</time>
      </trkpt>
      <trkpt lat="44.63928" lon="6.17477">
        <ele>1173</ele>
        <time>2018-11-14T17:47:09Z</time>
      </trkpt>
      <trkpt lat="44.63883" lon="6.17253">
        <ele>1169</ele>
        <time>2018-11-14T17:48:09Z</time>
      </trkpt>
      <trkpt lat="44.63859" lon="6.1717">
        <ele>1170</ele>
        <time>2018-11-14T17:49:09Z</time>
      </trkpt>
      <trkpt lat="44.63827" lon="6.16984">
        <ele>1171</ele>
        <time>2018-11-14T17:50:09Z</time>
      </trkpt>
      <trkpt lat="44.63802" lon="6.16961">
        <ele>1175</ele>
        <time>2018-11-14T17:51:09Z</time>
      </trkpt>
      <trkpt lat="44.63761" lon="6.16942">
        <ele>1182</ele>
        <time>2018-11-14T17:52:09Z</time>
      </trkpt>
      <trkpt lat="44.63761" lon="6.16919">
        <ele>1182</ele>
        <time>2018-11-14T17:53:09Z</time>
      </trkpt>
      <trkpt lat="44.63772" lon="6.16868">
        <ele>1180</ele>
        <time>2018-11-14T17:54:09Z</time>
      </trkpt>
      <trkpt lat="44.63767" lon="6.16819">
        <ele>1182</ele>
        <time>2018-11-14T17:55:09Z</time>
      </trkpt>
      <trkpt lat="44.63748" lon="6.16773">
        <ele>1184</ele>
        <time>2018-11-14T17:56:09Z</time>
      </trkpt>
      <trkpt lat="44.63729" lon="6.16662">
        <ele>1177</ele>
        <time>2018-11-14T17:57:09Z</time>
      </trkpt>
      <trkpt lat="44.63702" lon="6.16593">
        <ele>1184</ele>
        <time>2018-11-14T17:58:09Z</time>
      </trkpt>
      <trkpt lat="44.63678" lon="6.16515">
        <ele>1186</ele>
        <time>2018-11-14T17:59:09Z</time>
      </trkpt>
      <trkpt lat="44.63675" lon="6.16434">
        <ele>1176</ele>
        <time>2018-11-14T18:00:09Z</time>
      </trkpt>
      <trkpt lat="44.6366" lon="6.16362">
        <ele>1173</ele>
        <time>2018-11-14T18:01:09Z</time>
      </trkpt>
      <trkpt lat="44.63643" lon="6.16304">
        <ele>1174</ele>
        <time>2018-11-14T18:02:09Z</time>
      </trkpt>
      <trkpt lat="44.63634" lon="6.16257">
        <ele>1173</ele>
        <time>2018-11-14T18:03:09Z</time>
      </trkpt>
      <trkpt lat="44.63616" lon="6.16228">
        <ele>1174</ele>
        <time>2018-11-14T18:04:09Z</time>
      </trkpt>
      <trkpt lat="44.63607" lon="6.16221">
        <ele>1176</ele>
        <time>2018-11-14T18:05:09Z</time>
      </trkpt>
      <trkpt lat="44.63585" lon="6.16178">
        <ele>1177</ele>
        <time>2018-11-14T18:06:09Z</time>
      </trkpt>
      <trkpt lat="44.63577" lon="6.16099">
        <ele>1176</ele>
        <time>2018-11-14T18:07:09Z</time>
      </trkpt>
      <trkpt lat="44.63565" lon="6.16051">
        <ele>1177</ele>
        <time>2018-11-14T18:08:09Z</time>
      </trkpt>
      <trkpt lat="44.63555" lon="6.15995">
        <ele>1178</ele>
        <time>2018-11-14T18:09:09Z</time>
      </trkpt>
      <trkpt lat="44.63542" lon="6.15906">
        <ele>1177</ele>
        <time>2018-11-14T18:10:09Z</time>
      </trkpt>
      <trkpt lat="44.63538" lon="6.15858">
        <ele>1177</ele>
        <time>2018-11-14T18:11:09Z</time>
      </trkpt>
      <trkpt lat="44.63525" lon="6.15801">
        <ele>1179</ele>
        <time>2018-11-14T18:12:09Z</time>
      </trkpt>
      <trkpt lat="44.63526" lon="6.15772">
        <ele>1178</ele>
        <time>2018-11-14T18:13:09Z</time>
      </trkpt>
      <trkpt lat="44.63524" lon="6.15734">
        <ele>1177</ele>
        <time>2018-11-14T18:14:09Z</time>
      </trkpt>
      <trkpt lat="44.63531" lon="6.15661">
        <ele>1173</ele>
        <time>2018-11-14T18:15:09Z</time>
      </trkpt>
      <trkpt lat="44.63561" lon="6.15579">
        <ele>1158</ele>
        <time>2018-11-14T18:16:09Z</time>
      </trkpt>
      <trkpt lat="44.63569" lon="6.15517">
        <ele>1154</ele>
        <time>2018-11-14T18:17:09Z</time>
      </trkpt>
      <trkpt lat="44.63615" lon="6.15377">
        <ele>1133</ele>
        <time>2018-11-14T18:18:09Z</time>
      </trkpt>
      <trkpt lat="44.63633" lon="6.1534">
        <ele>1127</ele>
        <time>2018-11-14T18:19:09Z</time>
      </trkpt>
      <trkpt lat="44.63647" lon="6.15329">
        <ele>1123</ele>
        <time>2018-11-14T18:20:09Z</time>
      </trkpt>
      <trkpt lat="44.63703" lon="6.15318">
        <ele>1111</ele>
        <time>2018-11-14T18:21:09Z</time>
      </trkpt>
      <trkpt lat="44.63733" lon="6.1533">
        <ele>1106</ele>
        <time>2018-11-14T18:22:09Z</time>
      </trkpt>
      <trkpt lat="44.63773" lon="6.14619">
        <ele>1098.8</ele>
        <time>2018-11-13T10:29:09Z</time>
      </trkpt>
      <trkpt lat="44.63846" lon="6.14569">
        <ele>1090.5</ele>
        <time>2018-11-13T10:30:09Z</time>
      </trkpt>
      <trkpt lat="44.63872" lon="6.14486">
        <ele>1087.5</ele>
        <time>2018-11-13T10:31:09Z</time>
      </trkpt>
      <trkpt lat="44.6384" lon="6.14387">
        <ele>1084.9</ele>
        <time>2018-11-13T10:32:09Z</time>
      </trkpt>
      <trkpt lat="44.63868" lon="6.14336">
        <ele>1082</ele>
        <time>2018-11-13T10:33:09Z</time>
      </trkpt>
      <trkpt lat="44.63961" lon="6.14486">
        <ele>1075.1</ele>
        <time>2018-11-13T10:34:09Z</time>
      </trkpt>
      <trkpt lat="44.63985" lon="6.14464">
        <ele>1074</ele>
        <time>2018-11-13T10:35:09Z</time>
      </trkpt>
      <trkpt lat="44.63997" lon="6.14418">
        <ele>1072.4</ele>
        <time>2018-11-13T10:36:09Z</time>
      </trkpt>
      <trkpt lat="44.64237" lon="6.14418">
        <ele>1062.2</ele>
        <time>2018-11-13T10:37:09Z</time>
      </trkpt>
      <trkpt lat="44.6445" lon="6.14662">
        <ele>1055.1</ele>
        <time>2018-11-13T10:38:09Z</time>
      </trkpt>
      <trkpt lat="44.64495" lon="6.14753">
        <ele>1054</ele>
        <time>2018-11-13T10:39:09Z</time>
      </trkpt>
      <trkpt lat="44.64525" lon="6.14738">
        <ele>1051.4</ele>
        <time>2018-11-13T10:40:09Z</time>
      </trkpt>
      <trkpt lat="44.64511" lon="6.14922">
        <ele>1045.7</ele>
        <time>2018-11-13T10:41:09Z</time>
      </trkpt>
      <trkpt lat="44.64581" lon="6.15044">
        <ele>1045.5</ele>
        <time>2018-11-13T10:42:09Z</time>
      </trkpt>
      <trkpt lat="44.64559" lon="6.15115">
        <ele>1044.5</ele>
        <time>2018-11-13T10:43:09Z</time>
      </trkpt>
      <trkpt lat="44.64613" lon="6.16182">
        <ele>1054.7</ele>
        <time>2018-11-13T10:44:09Z</time>
      </trkpt>
      <trkpt lat="44.64611" lon="6.16539">
        <ele>1058.9</ele>
        <time>2018-11-13T10:45:09Z</time>
      </trkpt>
      <trkpt lat="44.6469" lon="6.16987">
        <ele>1060.9</ele>
        <time>2018-11-13T10:46:09Z</time>
      </trkpt>
      <trkpt lat="44.64595" lon="6.17006">
        <ele>1060.8</ele>
        <time>2018-11-13T10:47:09Z</time>
      </trkpt>
      <trkpt lat="44.64698" lon="6.17346">
        <ele>1063.5</ele>
        <time>2018-11-13T10:48:09Z</time>
      </trkpt>
      <trkpt lat="44.6474" lon="6.17434">
        <ele>1064.5</ele>
        <time>2018-11-13T10:49:09Z</time>
      </trkpt>
      <trkpt lat="44.64768" lon="6.17412">
        <ele>1063.8</ele>
        <time>2018-11-13T10:50:09Z</time>
      </trkpt>
      <trkpt lat="44.64976" lon="6.17322">
        <ele>1062.2</ele>
        <time>2018-11-13T10:51:09Z</time>
      </trkpt>
      <trkpt lat="44.65112" lon="6.17313">
        <ele>1064</ele>
        <time>2018-11-13T10:52:09Z</time>
      </trkpt>
      <trkpt lat="44.65262" lon="6.17683">
        <ele>1068.7</ele>
        <time>2018-11-13T10:53:09Z</time>
      </trkpt>
      <trkpt lat="44.65346" lon="6.17702">
        <ele>1077</ele>
        <time>2018-11-13T10:54:09Z</time>
      </trkpt>
      <trkpt lat="44.65347" lon="6.17705">
        <ele>1077.2</ele>
        <time>2018-11-13T10:55:09Z</time>
      </trkpt>
      <trkpt lat="44.65351" lon="6.17741">
        <ele>1076.6</ele>
        <time>2018-11-13T10:56:09Z</time>
      </trkpt>
      <trkpt lat="44.65355" lon="6.17767">
        <ele>1078.1</ele>
        <time>2018-11-13T10:57:09Z</time>
      </trkpt>
      <trkpt lat="44.65337" lon="6.17854">
        <ele>1077</ele>
        <time>2018-11-13T10:58:09Z</time>
      </trkpt>
      <trkpt lat="44.65333" lon="6.17923">
        <ele>1077</ele>
        <time>2018-11-13T10:59:09Z</time>
      </trkpt>
      <trkpt lat="44.65353" lon="6.18032">
        <ele>1078</ele>
        <time>2018-11-13T11:00:09Z</time>
      </trkpt>
      <trkpt lat="44.65402" lon="6.1817">
        <ele>1078</ele>
        <time>2018-11-13T11:01:09Z</time>
      </trkpt>
      <trkpt lat="44.65503" lon="6.18596">
        <ele>1079</ele>
        <time>2018-11-13T11:02:09Z</time>
      </trkpt>
      <trkpt lat="44.65514" lon="6.18624">
        <ele>1080</ele>
        <time>2018-11-13T11:03:09Z</time>
      </trkpt>
      <trkpt lat="44.65564" lon="6.18672">
        <ele>1082</ele>
        <time>2018-11-13T11:04:09Z</time>
      </trkpt>
      <trkpt lat="44.65605" lon="6.18784">
        <ele>1084</ele>
        <time>2018-11-13T11:05:09Z</time>
      </trkpt>
      <trkpt lat="44.65652" lon="6.18835">
        <ele>1083</ele>
        <time>2018-11-13T11:06:09Z</time>
      </trkpt>
      <trkpt lat="44.6573" lon="6.1888">
        <ele>1087</ele>
        <time>2018-11-13T11:07:09Z</time>
      </trkpt>
      <trkpt lat="44.6582" lon="6.19064">
        <ele>1091</ele>
        <time>2018-11-13T11:08:09Z</time>
      </trkpt>
      <trkpt lat="44.65861" lon="6.19138">
        <ele>1094</ele>
        <time>2018-11-13T11:09:09Z</time>
      </trkpt>
      <trkpt lat="44.65908" lon="6.19183">
        <ele>1100</ele>
        <time>2018-11-13T11:10:09Z</time>
      </trkpt>
      <trkpt lat="44.65987" lon="6.19219">
        <ele>1114</ele>
        <time>2018-11-13T11:11:09Z</time>
      </trkpt>
      <trkpt lat="44.66029" lon="6.19209">
        <ele>1120</ele>
        <time>2018-11-13T11:12:09Z</time>
      </trkpt>
      <trkpt lat="44.66051" lon="6.19236">
        <ele>1121</ele>
        <time>2018-11-13T11:13:09Z</time>
      </trkpt>
      <trkpt lat="44.66078" lon="6.19232">
        <ele>1124</ele>
        <time>2018-11-13T11:14:09Z</time>
      </trkpt>
      <trkpt lat="44.66076" lon="6.19202">
        <ele>1126</ele>
        <time>2018-11-13T11:15:09Z</time>
      </trkpt>
      <trkpt lat="44.66099" lon="6.19206">
        <ele>1128</ele>
        <time>2018-11-13T11:16:09Z</time>
      </trkpt>
      <trkpt lat="44.66111" lon="6.19215">
        <ele>1128</ele>
        <time>2018-11-13T11:17:09Z</time>
      </trkpt>
      <trkpt lat="44.66129" lon="6.19206">
        <ele>1130</ele>
        <time>2018-11-13T11:18:09Z</time>
      </trkpt>
      <trkpt lat="44.66214" lon="6.19077">
        <ele>1148</ele>
        <time>2018-11-13T11:19:09Z</time>
      </trkpt>
      <trkpt lat="44.66241" lon="6.18987">
        <ele>1158</ele>
        <time>2018-11-13T11:20:09Z</time>
      </trkpt>
      <trkpt lat="44.66278" lon="6.18922">
        <ele>1165</ele>
        <time>2018-11-13T11:21:09Z</time>
      </trkpt>
      <trkpt lat="44.66282" lon="6.18785">
        <ele>1176</ele>
        <time>2018-11-13T11:22:09Z</time>
      </trkpt>
      <trkpt lat="44.66292" lon="6.18729">
        <ele>1183</ele>
        <time>2018-11-13T11:23:09Z</time>
      </trkpt>
      <trkpt lat="44.663" lon="6.1874">
        <ele>1183</ele>
        <time>2018-11-13T11:24:09Z</time>
      </trkpt>
      <trkpt lat="44.6631" lon="6.18781">
        <ele>1179</ele>
        <time>2018-11-13T11:25:09Z</time>
      </trkpt>
      <trkpt lat="44.66319" lon="6.18795">
        <ele>1178</ele>
        <time>2018-11-13T11:26:09Z</time>
      </trkpt>
      <trkpt lat="44.66329" lon="6.18783">
        <ele>1180</ele>
        <time>2018-11-13T11:27:09Z</time>
      </trkpt>
      <trkpt lat="44.66346" lon="6.1872">
        <ele>1189</ele>
        <time>2018-11-13T11:28:09Z</time>
      </trkpt>
      <trkpt lat="44.66361" lon="6.18702">
        <ele>1191</ele>
        <time>2018-11-13T11:29:09Z</time>
      </trkpt>
      <trkpt lat="44.6636" lon="6.18672">
        <ele>1195</ele>
        <time>2018-11-13T11:30:09Z</time>
      </trkpt>
      <trkpt lat="44.66349" lon="6.18625">
        <ele>1204</ele>
        <time>2018-11-13T11:31:09Z</time>
      </trkpt>
      <trkpt lat="44.66328" lon="6.1859">
        <ele>1210</ele>
        <time>2018-11-13T11:32:09Z</time>
      </trkpt>
      <trkpt lat="44.66338" lon="6.18581">
        <ele>1213</ele>
        <time>2018-11-13T11:33:09Z</time>
      </trkpt>
      <trkpt lat="44.66363" lon="6.18588">
        <ele>1212</ele>
        <time>2018-11-13T11:34:09Z</time>
      </trkpt>
      <trkpt lat="44.66384" lon="6.1858">
        <ele>1213</ele>
        <time>2018-11-13T11:35:09Z</time>
      </trkpt>
      <trkpt lat="44.66398" lon="6.18563">
        <ele>1216</ele>
        <time>2018-11-13T11:36:09Z</time>
      </trkpt>
      <trkpt lat="44.66407" lon="6.18543">
        <ele>1219</ele>
        <time>2018-11-13T11:37:09Z</time>
      </trkpt>
      <trkpt lat="44.66416" lon="6.18507">
        <ele>1225</ele>
        <time>2018-11-13T11:38:09Z</time>
      </trkpt>
      <trkpt lat="44.6642" lon="6.18464">
        <ele>1229</ele>
        <time>2018-11-13T11:39:09Z</time>
      </trkpt>
      <trkpt lat="44.66449" lon="6.18424">
        <ele>1231</ele>
        <time>2018-11-13T11:40:09Z</time>
      </trkpt>
      <trkpt lat="44.66495" lon="6.18392">
        <ele>1231</ele>
        <time>2018-11-13T11:41:09Z</time>
      </trkpt>
      <trkpt lat="44.66509" lon="6.18367">
        <ele>1233</ele>
        <time>2018-11-13T11:42:09Z</time>
      </trkpt>
      <trkpt lat="44.66526" lon="6.18344">
        <ele>1236</ele>
        <time>2018-11-13T11:43:09Z</time>
      </trkpt>
      <trkpt lat="44.66529" lon="6.18306">
        <ele>1239</ele>
        <time>2018-11-13T11:44:09Z</time>
      </trkpt>
      <trkpt lat="44.66528" lon="6.18258">
        <ele>1242</ele>
        <time>2018-11-13T11:45:09Z</time>
      </trkpt>
      <trkpt lat="44.66553" lon="6.18175">
        <ele>1248</ele>
        <time>2018-11-13T11:46:09Z</time>
      </trkpt>
      <trkpt lat="44.66552" lon="6.18149">
        <ele>1249</ele>
        <time>2018-11-13T11:47:09Z</time>
      </trkpt>
      <trkpt lat="44.66567" lon="6.18126">
        <ele>1254</ele>
        <time>2018-11-13T11:48:09Z</time>
      </trkpt>
      <trkpt lat="44.66568" lon="6.18086">
        <ele>1258</ele>
        <time>2018-11-13T11:49:09Z</time>
      </trkpt>
      <trkpt lat="44.66587" lon="6.1801">
        <ele>1267</ele>
        <time>2018-11-13T11:50:09Z</time>
      </trkpt>
      <trkpt lat="44.666" lon="6.17977">
        <ele>1271</ele>
        <time>2018-11-13T11:51:09Z</time>
      </trkpt>
      <trkpt lat="44.66604" lon="6.17936">
        <ele>1273</ele>
        <time>2018-11-13T11:52:09Z</time>
      </trkpt>
      <trkpt lat="44.66602" lon="6.17896">
        <ele>1275</ele>
        <time>2018-11-13T11:53:09Z</time>
      </trkpt>
      <trkpt lat="44.66616" lon="6.17863">
        <ele>1278</ele>
        <time>2018-11-13T11:54:09Z</time>
      </trkpt>
      <trkpt lat="44.66625" lon="6.17823">
        <ele>1282</ele>
        <time>2018-11-13T11:55:09Z</time>
      </trkpt>
      <trkpt lat="44.66637" lon="6.17808">
        <ele>1286</ele>
        <time>2018-11-13T11:56:09Z</time>
      </trkpt>
      <trkpt lat="44.66676" lon="6.17783">
        <ele>1295</ele>
        <time>2018-11-13T11:57:09Z</time>
      </trkpt>
      <trkpt lat="44.66718" lon="6.17731">
        <ele>1307</ele>
        <time>2018-11-13T11:58:09Z</time>
      </trkpt>
      <trkpt lat="44.66751" lon="6.17702">
        <ele>1317</ele>
        <time>2018-11-13T11:59:09Z</time>
      </trkpt>
      <trkpt lat="44.66772" lon="6.17718">
        <ele>1319</ele>
        <time>2018-11-13T12:00:09Z</time>
      </trkpt>
      <trkpt lat="44.66772" lon="6.17688">
        <ele>1322</ele>
        <time>2018-11-13T12:01:09Z</time>
      </trkpt>
      <trkpt lat="44.66796" lon="6.17629">
        <ele>1337</ele>
        <time>2018-11-13T12:02:09Z</time>
      </trkpt>
      <trkpt lat="44.66801" lon="6.17603">
        <ele>1343</ele>
        <time>2018-11-13T12:03:09Z</time>
      </trkpt>
      <trkpt lat="44.66785" lon="6.17575">
        <ele>1346</ele>
        <time>2018-11-13T12:04:09Z</time>
      </trkpt>
      <trkpt lat="44.66791" lon="6.17562">
        <ele>1350</ele>
        <time>2018-11-13T12:05:09Z</time>
      </trkpt>
      <trkpt lat="44.66807" lon="6.17564">
        <ele>1352</ele>
        <time>2018-11-13T12:06:09Z</time>
      </trkpt>
      <trkpt lat="44.66834" lon="6.17597">
        <ele>1351</ele>
        <time>2018-11-13T12:07:09Z</time>
      </trkpt>
      <trkpt lat="44.66842" lon="6.17597">
        <ele>1353</ele>
        <time>2018-11-13T12:08:09Z</time>
      </trkpt>
      <trkpt lat="44.66831" lon="6.17566">
        <ele>1356</ele>
        <time>2018-11-13T12:09:09Z</time>
      </trkpt>
      <trkpt lat="44.66824" lon="6.17516">
        <ele>1364</ele>
        <time>2018-11-13T12:10:09Z</time>
      </trkpt>
      <trkpt lat="44.66833" lon="6.17481">
        <ele>1367</ele>
        <time>2018-11-13T12:11:09Z</time>
      </trkpt>
      <trkpt lat="44.66846" lon="6.17447">
        <ele>1368</ele>
        <time>2018-11-13T12:12:09Z</time>
      </trkpt>
      <trkpt lat="44.66881" lon="6.17403">
        <ele>1369</ele>
        <time>2018-11-13T12:13:09Z</time>
      </trkpt>
      <trkpt lat="44.66906" lon="6.17365">
        <ele>1368</ele>
        <time>2018-11-13T12:14:09Z</time>
      </trkpt>
      <trkpt lat="44.66937" lon="6.17335">
        <ele>1370</ele>
        <time>2018-11-13T12:15:09Z</time>
      </trkpt>
      <trkpt lat="44.66981" lon="6.17267">
        <ele>1367</ele>
        <time>2018-11-13T12:16:09Z</time>
      </trkpt>
      <trkpt lat="44.67001" lon="6.17248">
        <ele>1367</ele>
        <time>2018-11-13T12:17:09Z</time>
      </trkpt>
      <trkpt lat="44.67021" lon="6.17187">
        <ele>1366</ele>
        <time>2018-11-13T12:18:09Z</time>
      </trkpt>
      <trkpt lat="44.67037" lon="6.17144">
        <ele>1365</ele>
        <time>2018-11-13T12:19:09Z</time>
      </trkpt>
      <trkpt lat="44.67073" lon="6.17113">
        <ele>1366</ele>
        <time>2018-11-13T12:20:09Z</time>
      </trkpt>
      <trkpt lat="44.6711" lon="6.17093">
        <ele>1367</ele>
        <time>2018-11-13T12:21:09Z</time>
      </trkpt>
      <trkpt lat="44.67122" lon="6.17087">
        <ele>1367</ele>
        <time>2018-11-13T12:22:09Z</time>
      </trkpt>
      <trkpt lat="44.67134" lon="6.17093">
        <ele>1368</ele>
        <time>2018-11-13T12:23:09Z</time>
      </trkpt>
      <trkpt lat="44.67134" lon="6.1711">
        <ele>1369</ele>
        <time>2018-11-13T12:24:09Z</time>
      </trkpt>
      <trkpt lat="44.67114" lon="6.17124">
        <ele>1370</ele>
        <time>2018-11-13T12:25:09Z</time>
      </trkpt>
      <trkpt lat="44.67094" lon="6.17162">
        <ele>1373</ele>
        <time>2018-11-13T12:26:09Z</time>
      </trkpt>
      <trkpt lat="44.67084" lon="6.17211">
        <ele>1374</ele>
        <time>2018-11-13T12:27:09Z</time>
      </trkpt>
      <trkpt lat="44.67061" lon="6.1722">
        <ele>1372</ele>
        <time>2018-11-13T12:28:09Z</time>
      </trkpt>
      <trkpt lat="44.67058" lon="6.17259">
        <ele>1373</ele>
        <time>2018-11-13T12:29:09Z</time>
      </trkpt>
      <trkpt lat="44.67063" lon="6.17308">
        <ele>1376</ele>
        <time>2018-11-13T12:30:09Z</time>
      </trkpt>
      <trkpt lat="44.67057" lon="6.17362">
        <ele>1381</ele>
        <time>2018-11-13T12:31:09Z</time>
      </trkpt>
      <trkpt lat="44.67024" lon="6.17446">
        <ele>1389</ele>
        <time>2018-11-13T12:32:09Z</time>
      </trkpt>
      <trkpt lat="44.66996" lon="6.17608">
        <ele>1388</ele>
        <time>2018-11-13T12:33:09Z</time>
      </trkpt>
      <trkpt lat="44.67017" lon="6.17686">
        <ele>1385</ele>
        <time>2018-11-13T12:34:09Z</time>
      </trkpt>
      <trkpt lat="44.67074" lon="6.1771">
        <ele>1394</ele>
        <time>2018-11-13T12:35:09Z</time>
      </trkpt>
      <trkpt lat="44.671" lon="6.17705">
        <ele>1399</ele>
        <time>2018-11-13T12:36:09Z</time>
      </trkpt>
      <trkpt lat="44.67135" lon="6.17672">
        <ele>1412</ele>
        <time>2018-11-13T12:37:09Z</time>
      </trkpt>
      <trkpt lat="44.67177" lon="6.17649">
        <ele>1420</ele>
        <time>2018-11-13T12:38:09Z</time>
      </trkpt>
      <trkpt lat="44.67231" lon="6.17649">
        <ele>1429</ele>
        <time>2018-11-13T12:39:09Z</time>
      </trkpt>
      <trkpt lat="44.67264" lon="6.17661">
        <ele>1434</ele>
        <time>2018-11-13T12:40:09Z</time>
      </trkpt>
      <trkpt lat="44.67337" lon="6.17624">
        <ele>1445</ele>
        <time>2018-11-13T12:41:09Z</time>
      </trkpt>
      <trkpt lat="44.67392" lon="6.17639">
        <ele>1453</ele>
        <time>2018-11-13T12:42:09Z</time>
      </trkpt>
      <trkpt lat="44.67439" lon="6.17642">
        <ele>1459</ele>
        <time>2018-11-13T12:43:09Z</time>
      </trkpt>
      <trkpt lat="44.67508" lon="6.17634">
        <ele>1466</ele>
        <time>2018-11-13T12:44:09Z</time>
      </trkpt>
      <trkpt lat="44.67531" lon="6.17581">
        <ele>1467</ele>
        <time>2018-11-13T12:45:09Z</time>
      </trkpt>
      <trkpt lat="44.67575" lon="6.17517">
        <ele>1462</ele>
        <time>2018-11-13T12:46:09Z</time>
      </trkpt>
      <trkpt lat="44.6765" lon="6.17429">
        <ele>1454</ele>
        <time>2018-11-13T12:47:09Z</time>
      </trkpt>
      <trkpt lat="44.67753" lon="6.17324">
        <ele>1441</ele>
        <time>2018-11-13T12:48:09Z</time>
      </trkpt>
      <trkpt lat="44.67765" lon="6.17301">
        <ele>1438</ele>
        <time>2018-11-13T12:49:09Z</time>
      </trkpt>
      <trkpt lat="44.67802" lon="6.17272">
        <ele>1436</ele>
        <time>2018-11-13T12:50:09Z</time>
      </trkpt>
      <trkpt lat="44.67838" lon="6.172">
        <ele>1434</ele>
        <time>2018-11-13T12:51:09Z</time>
      </trkpt>
      <trkpt lat="44.67832" lon="6.17189">
        <ele>1432</ele>
        <time>2018-11-13T12:52:09Z</time>
      </trkpt>
      <trkpt lat="44.6784" lon="6.17151">
        <ele>1431</ele>
        <time>2018-11-13T12:53:09Z</time>
      </trkpt>
      <trkpt lat="44.6786" lon="6.17114">
        <ele>1432</ele>
        <time>2018-11-13T12:54:09Z</time>
      </trkpt>
      <trkpt lat="44.67858" lon="6.17107">
        <ele>1431</ele>
        <time>2018-11-13T12:55:09Z</time>
      </trkpt>
      <trkpt lat="44.67845" lon="6.17129">
        <ele>1431</ele>
        <time>2018-11-13T12:56:09Z</time>
      </trkpt>
      <trkpt lat="44.67835" lon="6.17152">
        <ele>1430</ele>
        <time>2018-11-13T12:57:09Z</time>
      </trkpt>
      <trkpt lat="44.67832" lon="6.1717">
        <ele>1431</ele>
        <time>2018-11-13T12:58:09Z</time>
      </trkpt>
      <trkpt lat="44.67829" lon="6.17192">
        <ele>1432</ele>
        <time>2018-11-13T12:59:09Z</time>
      </trkpt>
      <trkpt lat="44.67848" lon="6.17212">
        <ele>1435</ele>
        <time>2018-11-13T13:00:09Z</time>
      </trkpt>
      <trkpt lat="44.67861" lon="6.17238">
        <ele>1438</ele>
        <time>2018-11-13T13:01:09Z</time>
      </trkpt>
      <trkpt lat="44.67907" lon="6.17292">
        <ele>1446</ele>
        <time>2018-11-13T13:02:09Z</time>
      </trkpt>
      <trkpt lat="44.67957" lon="6.17353">
        <ele>1456</ele>
        <time>2018-11-13T13:03:09Z</time>
      </trkpt>
      <trkpt lat="44.67966" lon="6.17406">
        <ele>1463</ele>
        <time>2018-11-13T13:04:09Z</time>
      </trkpt>
      <trkpt lat="44.68041" lon="6.1756">
        <ele>1486</ele>
        <time>2018-11-13T13:05:09Z</time>
      </trkpt>
      <trkpt lat="44.68079" lon="6.17604">
        <ele>1490</ele>
        <time>2018-11-13T13:06:09Z</time>
      </trkpt>
      <trkpt lat="44.68093" lon="6.1766">
        <ele>1501</ele>
        <time>2018-11-13T13:07:09Z</time>
      </trkpt>
      <trkpt lat="44.68126" lon="6.17711">
        <ele>1504</ele>
        <time>2018-11-13T13:08:09Z</time>
      </trkpt>
      <trkpt lat="44.68155" lon="6.17783">
        <ele>1514</ele>
        <time>2018-11-13T13:09:09Z</time>
      </trkpt>
      <trkpt lat="44.68174" lon="6.17808">
        <ele>1517</ele>
        <time>2018-11-13T13:10:09Z</time>
      </trkpt>
      <trkpt lat="44.68179" lon="6.17846">
        <ele>1523</ele>
        <time>2018-11-13T13:11:09Z</time>
      </trkpt>
      <trkpt lat="44.68204" lon="6.17897">
        <ele>1528</ele>
        <time>2018-11-13T13:12:09Z</time>
      </trkpt>
      <trkpt lat="44.68231" lon="6.17983">
        <ele>1539</ele>
        <time>2018-11-13T13:13:09Z</time>
      </trkpt>
      <trkpt lat="44.68231" lon="6.1805">
        <ele>1547</ele>
        <time>2018-11-13T13:14:09Z</time>
      </trkpt>
      <trkpt lat="44.68275" lon="6.18241">
        <ele>1567</ele>
        <time>2018-11-13T13:15:09Z</time>
      </trkpt>
      <trkpt lat="44.68289" lon="6.18249">
        <ele>1569</ele>
        <time>2018-11-13T13:16:09Z</time>
      </trkpt>
      <trkpt lat="44.68387" lon="6.18264">
        <ele>1577</ele>
        <time>2018-11-13T13:17:09Z</time>
      </trkpt>
      <trkpt lat="44.6841" lon="6.18302">
        <ele>1582</ele>
        <time>2018-11-13T13:18:09Z</time>
      </trkpt>
      <trkpt lat="44.68411" lon="6.18342">
        <ele>1583</ele>
        <time>2018-11-13T13:19:09Z</time>
      </trkpt>
      <trkpt lat="44.6844" lon="6.1844">
        <ele>1595</ele>
        <time>2018-11-13T13:20:09Z</time>
      </trkpt>
      <trkpt lat="44.68428" lon="6.18477">
        <ele>1589</ele>
        <time>2018-11-13T13:21:09Z</time>
      </trkpt>
      <trkpt lat="44.68396" lon="6.18543">
        <ele>1574</ele>
        <time>2018-11-13T13:22:09Z</time>
      </trkpt>
      <trkpt lat="44.68362" lon="6.18576">
        <ele>1563</ele>
        <time>2018-11-13T13:23:09Z</time>
      </trkpt>
      <trkpt lat="44.68336" lon="6.18625">
        <ele>1555</ele>
        <time>2018-11-13T13:24:09Z</time>
      </trkpt>
      <trkpt lat="44.68291" lon="6.18616">
        <ele>1543</ele>
        <time>2018-11-13T13:25:09Z</time>
      </trkpt>
      <trkpt lat="44.68275" lon="6.18625">
        <ele>1540</ele>
        <time>2018-11-13T13:26:09Z</time>
      </trkpt>
      <trkpt lat="44.683" lon="6.18705">
        <ele>1542</ele>
        <time>2018-11-13T13:27:09Z</time>
      </trkpt>
      <trkpt lat="44.68322" lon="6.18733">
        <ele>1541</ele>
        <time>2018-11-13T13:28:09Z</time>
      </trkpt>
      <trkpt lat="44.68366" lon="6.18845">
        <ele>1535</ele>
        <time>2018-11-13T13:29:09Z</time>
      </trkpt>
      <trkpt lat="44.68341" lon="6.18891">
        <ele>1524</ele>
        <time>2018-11-13T13:30:09Z</time>
      </trkpt>
      <trkpt lat="44.68341" lon="6.18955">
        <ele>1519</ele>
        <time>2018-11-13T13:31:09Z</time>
      </trkpt>
      <trkpt lat="44.68345" lon="6.1897">
        <ele>1519</ele>
        <time>2018-11-13T13:32:09Z</time>
      </trkpt>
      <trkpt lat="44.68374" lon="6.19011">
        <ele>1525</ele>
        <time>2018-11-13T13:33:09Z</time>
      </trkpt>
      <trkpt lat="44.68382" lon="6.1908">
        <ele>1518</ele>
        <time>2018-11-13T13:34:09Z</time>
      </trkpt>
      <trkpt lat="44.68395" lon="6.19106">
        <ele>1523</ele>
        <time>2018-11-13T13:35:09Z</time>
      </trkpt>
      <trkpt lat="44.68368" lon="6.19111">
        <ele>1516</ele>
        <time>2018-11-13T13:36:09Z</time>
      </trkpt>
      <trkpt lat="44.6832" lon="6.19081">
        <ele>1503</ele>
        <time>2018-11-13T13:37:09Z</time>
      </trkpt>
      <trkpt lat="44.68311" lon="6.19068">
        <ele>1502</ele>
        <time>2018-11-13T13:38:09Z</time>
      </trkpt>
      <trkpt lat="44.68277" lon="6.19074">
        <ele>1495</ele>
        <time>2018-11-13T13:39:09Z</time>
      </trkpt>
      <trkpt lat="44.68269" lon="6.19082">
        <ele>1493</ele>
        <time>2018-11-13T13:40:09Z</time>
      </trkpt>
      <trkpt lat="44.68262" lon="6.19131">
        <ele>1492</ele>
        <time>2018-11-13T13:41:09Z</time>
      </trkpt>
      <trkpt lat="44.68233" lon="6.19155">
        <ele>1488</ele>
        <time>2018-11-13T13:42:09Z</time>
      </trkpt>
      <trkpt lat="44.68212" lon="6.1916">
        <ele>1485</ele>
        <time>2018-11-13T13:43:09Z</time>
      </trkpt>
      <trkpt lat="44.68189" lon="6.19196">
        <ele>1487</ele>
        <time>2018-11-13T13:44:09Z</time>
      </trkpt>
      <trkpt lat="44.68153" lon="6.19208">
        <ele>1483</ele>
        <time>2018-11-13T13:45:09Z</time>
      </trkpt>
      <trkpt lat="44.68113" lon="6.19246">
        <ele>1480</ele>
        <time>2018-11-13T13:46:09Z</time>
      </trkpt>
      <trkpt lat="44.68052" lon="6.19245">
        <ele>1467</ele>
        <time>2018-11-13T13:47:09Z</time>
      </trkpt>
      <trkpt lat="44.68043" lon="6.19265">
        <ele>1466</ele>
        <time>2018-11-13T13:48:09Z</time>
      </trkpt>
      <trkpt lat="44.68043" lon="6.19301">
        <ele>1466</ele>
        <time>2018-11-13T13:49:09Z</time>
      </trkpt>
      <trkpt lat="44.68033" lon="6.19317">
        <ele>1463</ele>
        <time>2018-11-13T13:50:09Z</time>
      </trkpt>
      <trkpt lat="44.68011" lon="6.19321">
        <ele>1458</ele>
        <time>2018-11-13T13:51:09Z</time>
      </trkpt>
      <trkpt lat="44.68001" lon="6.19333">
        <ele>1455</ele>
        <time>2018-11-13T13:52:09Z</time>
      </trkpt>
      <trkpt lat="44.67986" lon="6.19332">
        <ele>1452</ele>
        <time>2018-11-13T13:53:09Z</time>
      </trkpt>
      <trkpt lat="44.6794" lon="6.1935">
        <ele>1440</ele>
        <time>2018-11-13T13:54:09Z</time>
      </trkpt>
      <trkpt lat="44.67958" lon="6.19362">
        <ele>1440</ele>
        <time>2018-11-13T13:55:09Z</time>
      </trkpt>
      <trkpt lat="44.67976" lon="6.19362">
        <ele>1444</ele>
        <time>2018-11-13T13:56:09Z</time>
      </trkpt>
      <trkpt lat="44.67996" lon="6.19379">
        <ele>1443</ele>
        <time>2018-11-13T13:57:09Z</time>
      </trkpt>
      <trkpt lat="44.68004" lon="6.19403">
        <ele>1440</ele>
        <time>2018-11-13T13:58:09Z</time>
      </trkpt>
      <trkpt lat="44.67995" lon="6.19427">
        <ele>1433</ele>
        <time>2018-11-13T13:59:09Z</time>
      </trkpt>
      <trkpt lat="44.67999" lon="6.19468">
        <ele>1427</ele>
        <time>2018-11-13T14:00:09Z</time>
      </trkpt>
      <trkpt lat="44.68021" lon="6.19507">
        <ele>1429</ele>
        <time>2018-11-13T14:01:09Z</time>
      </trkpt>
      <trkpt lat="44.68039" lon="6.19516">
        <ele>1433</ele>
        <time>2018-11-13T14:02:09Z</time>
      </trkpt>
      <trkpt lat="44.68055" lon="6.19544">
        <ele>1431</ele>
        <time>2018-11-13T14:03:09Z</time>
      </trkpt>
      <trkpt lat="44.6808" lon="6.19557">
        <ele>1437</ele>
        <time>2018-11-13T14:04:09Z</time>
      </trkpt>
      <trkpt lat="44.68109" lon="6.19624">
        <ele>1430</ele>
        <time>2018-11-13T14:05:09Z</time>
      </trkpt>
      <trkpt lat="44.68114" lon="6.19676">
        <ele>1422</ele>
        <time>2018-11-13T14:06:09Z</time>
      </trkpt>
      <trkpt lat="44.68135" lon="6.1976">
        <ele>1419</ele>
        <time>2018-11-13T14:07:09Z</time>
      </trkpt>
      <trkpt lat="44.68182" lon="6.19769">
        <ele>1429</ele>
        <time>2018-11-13T14:08:09Z</time>
      </trkpt>
      <trkpt lat="44.68197" lon="6.19785">
        <ele>1430</ele>
        <time>2018-11-13T14:09:09Z</time>
      </trkpt>
      <trkpt lat="44.68216" lon="6.19885">
        <ele>1433</ele>
        <time>2018-11-13T14:10:09Z</time>
      </trkpt>
      <trkpt lat="44.68262" lon="6.1995">
        <ele>1441</ele>
        <time>2018-11-13T14:11:09Z</time>
      </trkpt>
      <trkpt lat="44.68303" lon="6.1998">
        <ele>1444</ele>
        <time>2018-11-13T14:12:09Z</time>
      </trkpt>
      <trkpt lat="44.68333" lon="6.1998">
        <ele>1449</ele>
        <time>2018-11-13T14:13:09Z</time>
      </trkpt>
      <trkpt lat="44.68337" lon="6.19988">
        <ele>1449</ele>
        <time>2018-11-13T14:14:09Z</time>
      </trkpt>
      <trkpt lat="44.68332" lon="6.20023">
        <ele>1450</ele>
        <time>2018-11-13T14:15:09Z</time>
      </trkpt>
      <trkpt lat="44.68286" lon="6.20067">
        <ele>1447</ele>
        <time>2018-11-13T14:16:09Z</time>
      </trkpt>
      <trkpt lat="44.6828" lon="6.20086">
        <ele>1448</ele>
        <time>2018-11-13T14:17:09Z</time>
      </trkpt>
      <trkpt lat="44.68286" lon="6.20124">
        <ele>1456</ele>
        <time>2018-11-13T14:18:09Z</time>
      </trkpt>
      <trkpt lat="44.6827" lon="6.202">
        <ele>1464</ele>
        <time>2018-11-13T14:19:09Z</time>
      </trkpt>
      <trkpt lat="44.68248" lon="6.20268">
        <ele>1466</ele>
        <time>2018-11-13T14:20:09Z</time>
      </trkpt>
      <trkpt lat="44.68244" lon="6.20347">
        <ele>1471</ele>
        <time>2018-11-13T14:21:09Z</time>
      </trkpt>
      <trkpt lat="44.68238" lon="6.20423">
        <ele>1471</ele>
        <time>2018-11-13T14:22:09Z</time>
      </trkpt>
      <trkpt lat="44.68247" lon="6.20508">
        <ele>1474</ele>
        <time>2018-11-13T14:23:09Z</time>
      </trkpt>
      <trkpt lat="44.68236" lon="6.20517">
        <ele>1472</ele>
        <time>2018-11-13T14:24:09Z</time>
      </trkpt>
      <trkpt lat="44.68233" lon="6.2054">
        <ele>1471</ele>
        <time>2018-11-13T14:25:09Z</time>
      </trkpt>
      <trkpt lat="44.68208" lon="6.20534">
        <ele>1467</ele>
        <time>2018-11-13T14:26:09Z</time>
      </trkpt>
      <trkpt lat="44.68184" lon="6.20539">
        <ele>1463</ele>
        <time>2018-11-13T14:27:09Z</time>
      </trkpt>
      <trkpt lat="44.68146" lon="6.20576">
        <ele>1459</ele>
        <time>2018-11-13T14:28:09Z</time>
      </trkpt>
      <trkpt lat="44.6811" lon="6.2062">
        <ele>1455</ele>
        <time>2018-11-13T14:29:09Z</time>
      </trkpt>
      <trkpt lat="44.68098" lon="6.20647">
        <ele>1452</ele>
        <time>2018-11-13T14:30:09Z</time>
      </trkpt>
      <trkpt lat="44.68089" lon="6.20676">
        <ele>1448</ele>
        <time>2018-11-13T14:31:09Z</time>
      </trkpt>
      <trkpt lat="44.68093" lon="6.20707">
        <ele>1445</ele>
        <time>2018-11-13T14:32:09Z</time>
      </trkpt>
      <trkpt lat="44.68082" lon="6.20734">
        <ele>1440</ele>
        <time>2018-11-13T14:33:09Z</time>
      </trkpt>
      <trkpt lat="44.68073" lon="6.20765">
        <ele>1435</ele>
        <time>2018-11-13T14:34:09Z</time>
      </trkpt>
      <trkpt lat="44.68073" lon="6.20829">
        <ele>1425</ele>
        <time>2018-11-13T14:35:09Z</time>
      </trkpt>
      <trkpt lat="44.68043" lon="6.20914">
        <ele>1414</ele>
        <time>2018-11-13T14:36:09Z</time>
      </trkpt>
      <trkpt lat="44.68052" lon="6.20945">
        <ele>1415</ele>
        <time>2018-11-13T14:37:09Z</time>
      </trkpt>
      <trkpt lat="44.68042" lon="6.20953">
        <ele>1413</ele>
        <time>2018-11-13T14:38:09Z</time>
      </trkpt>
      <trkpt lat="44.68019" lon="6.20958">
        <ele>1410</ele>
        <time>2018-11-13T14:39:09Z</time>
      </trkpt>
      <trkpt lat="44.68001" lon="6.20938">
        <ele>1408</ele>
        <time>2018-11-13T14:40:09Z</time>
      </trkpt>
      <trkpt lat="44.67955" lon="6.20935">
        <ele>1397</ele>
        <time>2018-11-13T14:41:09Z</time>
      </trkpt>
      <trkpt lat="44.67933" lon="6.20927">
        <ele>1391</ele>
        <time>2018-11-13T14:42:09Z</time>
      </trkpt>
      <trkpt lat="44.6791" lon="6.20923">
        <ele>1385</ele>
        <time>2018-11-13T14:43:09Z</time>
      </trkpt>
      <trkpt lat="44.67887" lon="6.20929">
        <ele>1378</ele>
        <time>2018-11-13T14:44:09Z</time>
      </trkpt>
      <trkpt lat="44.67865" lon="6.20932">
        <ele>1372</ele>
        <time>2018-11-13T14:45:09Z</time>
      </trkpt>
      <trkpt lat="44.67843" lon="6.20943">
        <ele>1364</ele>
        <time>2018-11-13T14:46:09Z</time>
      </trkpt>
      <trkpt lat="44.6782" lon="6.20939">
        <ele>1358</ele>
        <time>2018-11-13T14:47:09Z</time>
      </trkpt>
      <trkpt lat="44.67807" lon="6.20966">
        <ele>1351</ele>
        <time>2018-11-13T14:48:09Z</time>
      </trkpt>
      <trkpt lat="44.67788" lon="6.20985">
        <ele>1343</ele>
        <time>2018-11-13T14:49:09Z</time>
      </trkpt>
      <trkpt lat="44.67745" lon="6.21006">
        <ele>1327</ele>
        <time>2018-11-13T14:50:09Z</time>
      </trkpt>
      <trkpt lat="44.67722" lon="6.21014">
        <ele>1322</ele>
        <time>2018-11-13T14:51:09Z</time>
      </trkpt>
      <trkpt lat="44.677" lon="6.21013">
        <ele>1318</ele>
        <time>2018-11-13T14:52:09Z</time>
      </trkpt>
      <trkpt lat="44.67683" lon="6.21035">
        <ele>1313</ele>
        <time>2018-11-13T14:53:09Z</time>
      </trkpt>
      <trkpt lat="44.67634" lon="6.21069">
        <ele>1305</ele>
        <time>2018-11-13T14:54:09Z</time>
      </trkpt>
      <trkpt lat="44.67594" lon="6.21121">
        <ele>1299</ele>
        <time>2018-11-13T14:55:09Z</time>
      </trkpt>
      <trkpt lat="44.67573" lon="6.212">
        <ele>1294</ele>
        <time>2018-11-13T14:56:09Z</time>
      </trkpt>
      <trkpt lat="44.67572" lon="6.21268">
        <ele>1289</ele>
        <time>2018-11-13T14:57:09Z</time>
      </trkpt>
      <trkpt lat="44.67581" lon="6.21313">
        <ele>1286</ele>
        <time>2018-11-13T14:58:09Z</time>
      </trkpt>
      <trkpt lat="44.67571" lon="6.21329">
        <ele>1283</ele>
        <time>2018-11-13T14:59:09Z</time>
      </trkpt>
      <trkpt lat="44.67558" lon="6.21317">
        <ele>1281</ele>
        <time>2018-11-13T15:00:09Z</time>
      </trkpt>
      <trkpt lat="44.6755" lon="6.2127">
        <ele>1284</ele>
        <time>2018-11-13T15:01:09Z</time>
      </trkpt>
      <trkpt lat="44.67528" lon="6.21235">
        <ele>1282</ele>
        <time>2018-11-13T15:02:09Z</time>
      </trkpt>
      <trkpt lat="44.67499" lon="6.21231">
        <ele>1277</ele>
        <time>2018-11-13T15:03:09Z</time>
      </trkpt>
      <trkpt lat="44.6747" lon="6.21223">
        <ele>1270.9</ele>
        <time>2018-11-13T15:04:09Z</time>
      </trkpt>
      <trkpt lat="44.67456" lon="6.21203">
        <ele>1269.9</ele>
        <time>2018-11-13T15:05:09Z</time>
      </trkpt>
      <trkpt lat="44.67457" lon="6.21141">
        <ele>1272.8</ele>
        <time>2018-11-13T15:06:09Z</time>
      </trkpt>
      <trkpt lat="44.67448" lon="6.21132">
        <ele>1271.5</ele>
        <time>2018-11-13T15:07:09Z</time>
      </trkpt>
      <trkpt lat="44.67439" lon="6.21142">
        <ele>1269.7</ele>
        <time>2018-11-13T15:08:09Z</time>
      </trkpt>
      <trkpt lat="44.67437" lon="6.21182">
        <ele>1266.9</ele>
        <time>2018-11-13T15:09:09Z</time>
      </trkpt>
      <trkpt lat="44.67421" lon="6.21256">
        <ele>1260.9</ele>
        <time>2018-11-13T15:10:09Z</time>
      </trkpt>
      <trkpt lat="44.67424" lon="6.21288">
        <ele>1258</ele>
        <time>2018-11-13T15:11:09Z</time>
      </trkpt>
      <trkpt lat="44.67454" lon="6.2134">
        <ele>1258</ele>
        <time>2018-11-13T15:12:09Z</time>
      </trkpt>
      <trkpt lat="44.67505" lon="6.21444">
        <ele>1249</ele>
        <time>2018-11-13T15:13:09Z</time>
      </trkpt>
      <trkpt lat="44.67522" lon="6.2148">
        <ele>1246</ele>
        <time>2018-11-13T15:14:09Z</time>
      </trkpt>
      <trkpt lat="44.67517" lon="6.215">
        <ele>1243</ele>
        <time>2018-11-13T15:15:09Z</time>
      </trkpt>
      <trkpt lat="44.67514" lon="6.21518">
        <ele>1242</ele>
        <time>2018-11-13T15:16:09Z</time>
      </trkpt>
      <trkpt lat="44.67514" lon="6.21518">
        <ele>1242</ele>
        <time>2018-11-13T15:17:09Z</time>
      </trkpt>
      <trkpt lat="44.6753" lon="6.21544">
        <ele>1243</ele>
        <time>2018-11-13T15:18:09Z</time>
      </trkpt>
      <trkpt lat="44.67584" lon="6.21548">
        <ele>1249</ele>
        <time>2018-11-13T15:19:09Z</time>
      </trkpt>
      <trkpt lat="44.67596" lon="6.21559">
        <ele>1250</ele>
        <time>2018-11-13T15:20:09Z</time>
      </trkpt>
      <trkpt lat="44.67595" lon="6.21597">
        <ele>1250</ele>
        <time>2018-11-13T15:21:09Z</time>
      </trkpt>
      <trkpt lat="44.67594" lon="6.21621">
        <ele>1251</ele>
        <time>2018-11-13T15:22:09Z</time>
      </trkpt>
      <trkpt lat="44.676" lon="6.21644">
        <ele>1253</ele>
        <time>2018-11-13T15:23:09Z</time>
      </trkpt>
      <trkpt lat="44.67612" lon="6.21663">
        <ele>1255</ele>
        <time>2018-11-13T15:24:09Z</time>
      </trkpt>
      <trkpt lat="44.6765" lon="6.21716">
        <ele>1258</ele>
        <time>2018-11-13T15:25:09Z</time>
      </trkpt>
      <trkpt lat="44.67658" lon="6.21743">
        <ele>1259</ele>
        <time>2018-11-13T15:26:09Z</time>
      </trkpt>
      <trkpt lat="44.67662" lon="6.21799">
        <ele>1258</ele>
        <time>2018-11-13T15:27:09Z</time>
      </trkpt>
      <trkpt lat="44.67679" lon="6.21829">
        <ele>1259</ele>
        <time>2018-11-13T15:28:09Z</time>
      </trkpt>
      <trkpt lat="44.67689" lon="6.21844">
        <ele>1259</ele>
        <time>2018-11-13T15:29:09Z</time>
      </trkpt>
      <trkpt lat="44.67713" lon="6.21868">
        <ele>1261</ele>
        <time>2018-11-13T15:30:09Z</time>
      </trkpt>
      <trkpt lat="44.67746" lon="6.21866">
        <ele>1266</ele>
        <time>2018-11-13T15:31:09Z</time>
      </trkpt>
      <trkpt lat="44.67764" lon="6.21872">
        <ele>1270</ele>
        <time>2018-11-13T15:32:09Z</time>
      </trkpt>
      <trkpt lat="44.67781" lon="6.21884">
        <ele>1272</ele>
        <time>2018-11-13T15:33:09Z</time>
      </trkpt>
      <trkpt lat="44.67793" lon="6.21896">
        <ele>1274</ele>
        <time>2018-11-13T15:34:09Z</time>
      </trkpt>
      <trkpt lat="44.67817" lon="6.21947">
        <ele>1277</ele>
        <time>2018-11-13T15:35:09Z</time>
      </trkpt>
      <trkpt lat="44.67829" lon="6.21961">
        <ele>1280</ele>
        <time>2018-11-13T15:36:09Z</time>
      </trkpt>
      <trkpt lat="44.67845" lon="6.22015">
        <ele>1288</ele>
        <time>2018-11-13T15:37:09Z</time>
      </trkpt>
      <trkpt lat="44.67849" lon="6.22036">
        <ele>1293</ele>
        <time>2018-11-13T15:38:09Z</time>
      </trkpt>
      <trkpt lat="44.67846" lon="6.22052">
        <ele>1294</ele>
        <time>2018-11-13T15:39:09Z</time>
      </trkpt>
      <trkpt lat="44.67849" lon="6.22089">
        <ele>1301</ele>
        <time>2018-11-13T15:40:09Z</time>
      </trkpt>
      <trkpt lat="44.67839" lon="6.22125">
        <ele>1303</ele>
        <time>2018-11-13T15:41:09Z</time>
      </trkpt>
      <trkpt lat="44.67834" lon="6.22168">
        <ele>1309</ele>
        <time>2018-11-13T15:42:09Z</time>
      </trkpt>
      <trkpt lat="44.67831" lon="6.22174">
        <ele>1308</ele>
        <time>2018-11-13T15:43:09Z</time>
      </trkpt>
      <trkpt lat="44.67829" lon="6.22193">
        <ele>1309</ele>
        <time>2018-11-13T15:44:09Z</time>
      </trkpt>
      <trkpt lat="44.6782" lon="6.22217">
        <ele>1307</ele>
        <time>2018-11-13T15:45:09Z</time>
      </trkpt>
      <trkpt lat="44.67829" lon="6.22217">
        <ele>1311</ele>
        <time>2018-11-13T15:46:09Z</time>
      </trkpt>
      <trkpt lat="44.67835" lon="6.2221">
        <ele>1314</ele>
        <time>2018-11-13T15:47:09Z</time>
      </trkpt>
      <trkpt lat="44.67841" lon="6.22218">
        <ele>1319</ele>
        <time>2018-11-13T15:48:09Z</time>
      </trkpt>
      <trkpt lat="44.67829" lon="6.22259">
        <ele>1316</ele>
        <time>2018-11-13T15:49:09Z</time>
      </trkpt>
      <trkpt lat="44.67833" lon="6.22285">
        <ele>1319</ele>
        <time>2018-11-13T15:50:09Z</time>
      </trkpt>
      <trkpt lat="44.67841" lon="6.22299">
        <ele>1326</ele>
        <time>2018-11-13T15:51:09Z</time>
      </trkpt>
      <trkpt lat="44.67858" lon="6.22317">
        <ele>1340</ele>
        <time>2018-11-13T15:52:09Z</time>
      </trkpt>
      <trkpt lat="44.67867" lon="6.22324">
        <ele>1348</ele>
        <time>2018-11-13T15:53:09Z</time>
      </trkpt>
      <trkpt lat="44.67871" lon="6.22347">
        <ele>1350</ele>
        <time>2018-11-13T15:54:09Z</time>
      </trkpt>
      <trkpt lat="44.67868" lon="6.22358">
        <ele>1345</ele>
        <time>2018-11-13T15:55:09Z</time>
      </trkpt>
      <trkpt lat="44.67869" lon="6.22386">
        <ele>1342</ele>
        <time>2018-11-13T15:56:09Z</time>
      </trkpt>
      <trkpt lat="44.67883" lon="6.22402">
        <ele>1352</ele>
        <time>2018-11-13T15:57:09Z</time>
      </trkpt>
      <trkpt lat="44.67881" lon="6.22438">
        <ele>1344</ele>
        <time>2018-11-13T15:58:09Z</time>
      </trkpt>
      <trkpt lat="44.67891" lon="6.22467">
        <ele>1346</ele>
        <time>2018-11-13T15:59:09Z</time>
      </trkpt>
      <trkpt lat="44.67906" lon="6.22501">
        <ele>1350</ele>
        <time>2018-11-13T16:00:09Z</time>
      </trkpt>
      <trkpt lat="44.6791" lon="6.22519">
        <ele>1350</ele>
        <time>2018-11-13T16:01:09Z</time>
      </trkpt>
      <trkpt lat="44.67914" lon="6.22534">
        <ele>1351</ele>
        <time>2018-11-13T16:02:09Z</time>
      </trkpt>
      <trkpt lat="44.67935" lon="6.22554">
        <ele>1360</ele>
        <time>2018-11-13T16:03:09Z</time>
      </trkpt>
      <trkpt lat="44.67954" lon="6.22563">
        <ele>1369</ele>
        <time>2018-11-13T16:04:09Z</time>
      </trkpt>
      <trkpt lat="44.67965" lon="6.22574">
        <ele>1373</ele>
        <time>2018-11-13T16:05:09Z</time>
      </trkpt>
      <trkpt lat="44.67982" lon="6.22586">
        <ele>1379</ele>
        <time>2018-11-13T16:06:09Z</time>
      </trkpt>
      <trkpt lat="44.67985" lon="6.22595">
        <ele>1379</ele>
        <time>2018-11-13T16:07:09Z</time>
      </trkpt>
      <trkpt lat="44.67982" lon="6.22605">
        <ele>1377</ele>
        <time>2018-11-13T16:08:09Z</time>
      </trkpt>
      <trkpt lat="44.67983" lon="6.2262">
        <ele>1375</ele>
        <time>2018-11-13T16:09:09Z</time>
      </trkpt>
      <trkpt lat="44.67991" lon="6.22636">
        <ele>1376</ele>
        <time>2018-11-13T16:10:09Z</time>
      </trkpt>
      <trkpt lat="44.68003" lon="6.22645">
        <ele>1379</ele>
        <time>2018-11-13T16:11:09Z</time>
      </trkpt>
      <trkpt lat="44.68013" lon="6.22698">
        <ele>1380</ele>
        <time>2018-11-13T16:12:09Z</time>
      </trkpt>
      <trkpt lat="44.68034" lon="6.22708">
        <ele>1389</ele>
        <time>2018-11-13T16:13:09Z</time>
      </trkpt>
      <trkpt lat="44.68044" lon="6.22716">
        <ele>1391</ele>
        <time>2018-11-13T16:14:09Z</time>
      </trkpt>
      <trkpt lat="44.68049" lon="6.22723">
        <ele>1392</ele>
        <time>2018-11-13T16:15:09Z</time>
      </trkpt>
      <trkpt lat="44.68083" lon="6.22743">
        <ele>1395</ele>
        <time>2018-11-13T16:16:09Z</time>
      </trkpt>
      <trkpt lat="44.68119" lon="6.22739">
        <ele>1405</ele>
        <time>2018-11-13T16:17:09Z</time>
      </trkpt>
      <trkpt lat="44.68125" lon="6.22739">
        <ele>1406</ele>
        <time>2018-11-13T16:18:09Z</time>
      </trkpt>
      <trkpt lat="44.68138" lon="6.22744">
        <ele>1407</ele>
        <time>2018-11-13T16:19:09Z</time>
      </trkpt>
      <trkpt lat="44.68149" lon="6.22755">
        <ele>1407</ele>
        <time>2018-11-13T16:20:09Z</time>
      </trkpt>
      <trkpt lat="44.6817" lon="6.22769">
        <ele>1411</ele>
        <time>2018-11-13T16:21:09Z</time>
      </trkpt>
      <trkpt lat="44.68174" lon="6.22766">
        <ele>1413</ele>
        <time>2018-11-13T16:22:09Z</time>
      </trkpt>
      <trkpt lat="44.68167" lon="6.22744">
        <ele>1414</ele>
        <time>2018-11-13T16:23:09Z</time>
      </trkpt>
      <trkpt lat="44.68166" lon="6.22732">
        <ele>1418</ele>
        <time>2018-11-13T16:24:09Z</time>
      </trkpt>
      <trkpt lat="44.68172" lon="6.22738">
        <ele>1417</ele>
        <time>2018-11-13T16:25:09Z</time>
      </trkpt>
      <trkpt lat="44.68181" lon="6.22729">
        <ele>1424</ele>
        <time>2018-11-13T16:26:09Z</time>
      </trkpt>
      <trkpt lat="44.68193" lon="6.22725">
        <ele>1429</ele>
        <time>2018-11-13T16:27:09Z</time>
      </trkpt>
      <trkpt lat="44.68217" lon="6.22736">
        <ele>1431</ele>
        <time>2018-11-13T16:28:09Z</time>
      </trkpt>
      <trkpt lat="44.68226" lon="6.2275">
        <ele>1428</ele>
        <time>2018-11-13T16:29:09Z</time>
      </trkpt>
      <trkpt lat="44.68243" lon="6.22763">
        <ele>1432</ele>
        <time>2018-11-13T16:30:09Z</time>
      </trkpt>
      <trkpt lat="44.68257" lon="6.22783">
        <ele>1436</ele>
        <time>2018-11-13T16:31:09Z</time>
      </trkpt>
      <trkpt lat="44.68264" lon="6.22796">
        <ele>1438</ele>
        <time>2018-11-13T16:32:09Z</time>
      </trkpt>
      <trkpt lat="44.68273" lon="6.22778">
        <ele>1443</ele>
        <time>2018-11-13T16:33:09Z</time>
      </trkpt>
      <trkpt lat="44.68277" lon="6.22786">
        <ele>1444</ele>
        <time>2018-11-13T16:34:09Z</time>
      </trkpt>
      <trkpt lat="44.683" lon="6.22806">
        <ele>1450</ele>
        <time>2018-11-13T16:35:09Z</time>
      </trkpt>
      <trkpt lat="44.68322" lon="6.2284">
        <ele>1455</ele>
        <time>2018-11-13T16:36:09Z</time>
      </trkpt>
      <trkpt lat="44.68322" lon="6.22843">
        <ele>1456</ele>
        <time>2018-11-13T16:37:09Z</time>
      </trkpt>
      <trkpt lat="44.68324" lon="6.22839">
        <ele>1455</ele>
        <time>2018-11-13T16:38:09Z</time>
      </trkpt>
      <trkpt lat="44.68325" lon="6.22811">
        <ele>1459</ele>
        <time>2018-11-13T16:39:09Z</time>
      </trkpt>
      <trkpt lat="44.68319" lon="6.22799">
        <ele>1459</ele>
        <time>2018-11-13T16:40:09Z</time>
      </trkpt>
      <trkpt lat="44.68317" lon="6.22782">
        <ele>1461</ele>
        <time>2018-11-13T16:41:09Z</time>
      </trkpt>
      <trkpt lat="44.68325" lon="6.22788">
        <ele>1463</ele>
        <time>2018-11-13T16:42:09Z</time>
      </trkpt>
      <trkpt lat="44.68331" lon="6.22802">
        <ele>1463</ele>
        <time>2018-11-13T16:43:09Z</time>
      </trkpt>
      <trkpt lat="44.68343" lon="6.22813">
        <ele>1466</ele>
        <time>2018-11-13T16:44:09Z</time>
      </trkpt>
      <trkpt lat="44.68348" lon="6.22825">
        <ele>1465</ele>
        <time>2018-11-13T16:45:09Z</time>
      </trkpt>
      <trkpt lat="44.68353" lon="6.22831">
        <ele>1466</ele>
        <time>2018-11-13T16:46:09Z</time>
      </trkpt>
      <trkpt lat="44.68365" lon="6.22867">
        <ele>1475</ele>
        <time>2018-11-13T16:47:09Z</time>
      </trkpt>
      <trkpt lat="44.68365" lon="6.22873">
        <ele>1476</ele>
        <time>2018-11-13T16:48:09Z</time>
      </trkpt>
      <trkpt lat="44.68361" lon="6.22885">
        <ele>1477</ele>
        <time>2018-11-13T16:49:09Z</time>
      </trkpt>
      <trkpt lat="44.68356" lon="6.22891">
        <ele>1476</ele>
        <time>2018-11-13T16:50:09Z</time>
      </trkpt>
      <trkpt lat="44.68346" lon="6.22897">
        <ele>1475</ele>
        <time>2018-11-13T16:51:09Z</time>
      </trkpt>
      <trkpt lat="44.6832" lon="6.22921">
        <ele>1478</ele>
        <time>2018-11-13T16:52:09Z</time>
      </trkpt>
      <trkpt lat="44.68308" lon="6.22927">
        <ele>1479</ele>
        <time>2018-11-13T16:53:09Z</time>
      </trkpt>
      <trkpt lat="44.68304" lon="6.22925">
        <ele>1478</ele>
        <time>2018-11-13T16:54:09Z</time>
      </trkpt>
      <trkpt lat="44.68295" lon="6.22932">
        <ele>1480</ele>
        <time>2018-11-13T16:55:09Z</time>
      </trkpt>
      <trkpt lat="44.68319" lon="6.22941">
        <ele>1486</ele>
        <time>2018-11-13T16:56:09Z</time>
      </trkpt>
      <trkpt lat="44.68332" lon="6.2294">
        <ele>1487</ele>
        <time>2018-11-13T16:57:09Z</time>
      </trkpt>
      <trkpt lat="44.68357" lon="6.22955">
        <ele>1497</ele>
        <time>2018-11-13T16:58:09Z</time>
      </trkpt>
      <trkpt lat="44.68372" lon="6.22956">
        <ele>1498</ele>
        <time>2018-11-13T16:59:09Z</time>
      </trkpt>
      <trkpt lat="44.68397" lon="6.2297">
        <ele>1505</ele>
        <time>2018-11-13T17:00:09Z</time>
      </trkpt>
      <trkpt lat="44.68396" lon="6.22972">
        <ele>1506</ele>
        <time>2018-11-13T17:01:09Z</time>
      </trkpt>
      <trkpt lat="44.68381" lon="6.2297">
        <ele>1504</ele>
        <time>2018-11-13T17:02:09Z</time>
      </trkpt>
      <trkpt lat="44.68374" lon="6.22977">
        <ele>1507</ele>
        <time>2018-11-13T17:03:09Z</time>
      </trkpt>
      <trkpt lat="44.6835" lon="6.2299">
        <ele>1511</ele>
        <time>2018-11-13T17:04:09Z</time>
      </trkpt>
      <trkpt lat="44.68343" lon="6.22986">
        <ele>1509</ele>
        <time>2018-11-13T17:05:09Z</time>
      </trkpt>
      <trkpt lat="44.68332" lon="6.22989">
        <ele>1510</ele>
        <time>2018-11-13T17:06:09Z</time>
      </trkpt>
      <trkpt lat="44.68324" lon="6.22997">
        <ele>1513</ele>
        <time>2018-11-13T17:07:09Z</time>
      </trkpt>
      <trkpt lat="44.68316" lon="6.23002">
        <ele>1514</ele>
        <time>2018-11-13T17:08:09Z</time>
      </trkpt>
      <trkpt lat="44.68325" lon="6.23006">
        <ele>1517</ele>
        <time>2018-11-13T17:09:09Z</time>
      </trkpt>
      <trkpt lat="44.68335" lon="6.23017">
        <ele>1524</ele>
        <time>2018-11-13T17:10:09Z</time>
      </trkpt>
      <trkpt lat="44.68317" lon="6.2304">
        <ele>1532</ele>
        <time>2018-11-13T17:11:09Z</time>
      </trkpt>
      <trkpt lat="44.68308" lon="6.23026">
        <ele>1524</ele>
        <time>2018-11-13T17:12:09Z</time>
      </trkpt>
      <trkpt lat="44.68289" lon="6.23058">
        <ele>1535</ele>
        <time>2018-11-13T17:13:09Z</time>
      </trkpt>
      <trkpt lat="44.68282" lon="6.23063">
        <ele>1535</ele>
        <time>2018-11-13T17:14:09Z</time>
      </trkpt>
      <trkpt lat="44.68273" lon="6.23064">
        <ele>1534</ele>
        <time>2018-11-13T17:15:09Z</time>
      </trkpt>
      <trkpt lat="44.68268" lon="6.23059">
        <ele>1531</ele>
        <time>2018-11-13T17:16:09Z</time>
      </trkpt>
      <trkpt lat="44.6825" lon="6.23055">
        <ele>1525</ele>
        <time>2018-11-13T17:17:09Z</time>
      </trkpt>
      <trkpt lat="44.68247" lon="6.23052">
        <ele>1524</ele>
        <time>2018-11-13T17:18:09Z</time>
      </trkpt>
      <trkpt lat="44.68231" lon="6.23058">
        <ele>1524</ele>
        <time>2018-11-13T17:19:09Z</time>
      </trkpt>
      <trkpt lat="44.6821" lon="6.23061">
        <ele>1523</ele>
        <time>2018-11-13T17:20:09Z</time>
      </trkpt>
      <trkpt lat="44.68189" lon="6.23056">
        <ele>1519</ele>
        <time>2018-11-13T17:21:09Z</time>
      </trkpt>
      <trkpt lat="44.68195" lon="6.23069">
        <ele>1524</ele>
        <time>2018-11-13T17:22:09Z</time>
      </trkpt>
      <trkpt lat="44.6819" lon="6.23103">
        <ele>1531</ele>
        <time>2018-11-13T17:23:09Z</time>
      </trkpt>
      <trkpt lat="44.68187" lon="6.23107">
        <ele>1532</ele>
        <time>2018-11-13T17:24:09Z</time>
      </trkpt>
      <trkpt lat="44.68179" lon="6.23096">
        <ele>1529</ele>
        <time>2018-11-13T17:25:09Z</time>
      </trkpt>
      <trkpt lat="44.68168" lon="6.23092">
        <ele>1528</ele>
        <time>2018-11-13T17:26:09Z</time>
      </trkpt>
      <trkpt lat="44.68152" lon="6.2308">
        <ele>1523</ele>
        <time>2018-11-13T17:27:09Z</time>
      </trkpt>
      <trkpt lat="44.68132" lon="6.23075">
        <ele>1518</ele>
        <time>2018-11-13T17:28:09Z</time>
      </trkpt>
      <trkpt lat="44.68106" lon="6.23088">
        <ele>1517</ele>
        <time>2018-11-13T17:29:09Z</time>
      </trkpt>
      <trkpt lat="44.68086" lon="6.23102">
        <ele>1517</ele>
        <time>2018-11-13T17:30:09Z</time>
      </trkpt>
      <trkpt lat="44.68081" lon="6.23108">
        <ele>1516</ele>
        <time>2018-11-13T17:31:09Z</time>
      </trkpt>
      <trkpt lat="44.68076" lon="6.2313">
        <ele>1518</ele>
        <time>2018-11-13T17:32:09Z</time>
      </trkpt>
      <trkpt lat="44.68081" lon="6.23161">
        <ele>1526</ele>
        <time>2018-11-13T17:33:09Z</time>
      </trkpt>
      <trkpt lat="44.68094" lon="6.23187">
        <ele>1528</ele>
        <time>2018-11-13T17:34:09Z</time>
      </trkpt>
      <trkpt lat="44.68099" lon="6.2319">
        <ele>1529</ele>
        <time>2018-11-13T17:35:09Z</time>
      </trkpt>
      <trkpt lat="44.68107" lon="6.23212">
        <ele>1529</ele>
        <time>2018-11-13T17:36:09Z</time>
      </trkpt>
      <trkpt lat="44.68118" lon="6.23223">
        <ele>1529</ele>
        <time>2018-11-13T17:37:09Z</time>
      </trkpt>
      <trkpt lat="44.68129" lon="6.23228">
        <ele>1530</ele>
        <time>2018-11-13T17:38:09Z</time>
      </trkpt>
      <trkpt lat="44.68158" lon="6.23226">
        <ele>1535</ele>
        <time>2018-11-13T17:39:09Z</time>
      </trkpt>
      <trkpt lat="44.6819" lon="6.23238">
        <ele>1536</ele>
        <time>2018-11-13T17:40:09Z</time>
      </trkpt>
      <trkpt lat="44.68214" lon="6.23252">
        <ele>1535</ele>
        <time>2018-11-13T17:41:09Z</time>
      </trkpt>
      <trkpt lat="44.68239" lon="6.2326">
        <ele>1535</ele>
        <time>2018-11-13T17:42:09Z</time>
      </trkpt>
      <trkpt lat="44.68266" lon="6.23269">
        <ele>1536</ele>
        <time>2018-11-13T17:43:09Z</time>
      </trkpt>
      <trkpt lat="44.68305" lon="6.23288">
        <ele>1540</ele>
        <time>2018-11-13T17:44:09Z</time>
      </trkpt>
      <trkpt lat="44.68329" lon="6.2331">
        <ele>1542</ele>
        <time>2018-11-13T17:45:09Z</time>
      </trkpt>
      <trkpt lat="44.68375" lon="6.23399">
        <ele>1541</ele>
        <time>2018-11-13T17:46:09Z</time>
      </trkpt>
      <trkpt lat="44.68399" lon="6.23421">
        <ele>1546</ele>
        <time>2018-11-13T17:47:09Z</time>
      </trkpt>
      <trkpt lat="44.68424" lon="6.23437">
        <ele>1550</ele>
        <time>2018-11-13T17:48:09Z</time>
      </trkpt>
      <trkpt lat="44.68438" lon="6.23476">
        <ele>1551</ele>
        <time>2018-11-13T17:49:09Z</time>
      </trkpt>
      <trkpt lat="44.68455" lon="6.23497">
        <ele>1555</ele>
        <time>2018-11-13T17:50:09Z</time>
      </trkpt>
      <trkpt lat="44.68476" lon="6.23512">
        <ele>1562</ele>
        <time>2018-11-13T17:51:09Z</time>
      </trkpt>
      <trkpt lat="44.68479" lon="6.23524">
        <ele>1564</ele>
        <time>2018-11-13T17:52:09Z</time>
      </trkpt>
      <trkpt lat="44.68435" lon="6.23592">
        <ele>1554</ele>
        <time>2018-11-13T17:53:09Z</time>
      </trkpt>
      <trkpt lat="44.68427" lon="6.23618">
        <ele>1554</ele>
        <time>2018-11-13T17:54:09Z</time>
      </trkpt>
      <trkpt lat="44.68429" lon="6.23647">
        <ele>1558</ele>
        <time>2018-11-13T17:55:09Z</time>
      </trkpt>
      <trkpt lat="44.68431" lon="6.23667">
        <ele>1561</ele>
        <time>2018-11-13T17:56:09Z</time>
      </trkpt>
      <trkpt lat="44.68423" lon="6.23677">
        <ele>1560</ele>
        <time>2018-11-13T17:57:09Z</time>
      </trkpt>
      <trkpt lat="44.6841" lon="6.23731">
        <ele>1564</ele>
        <time>2018-11-13T17:58:09Z</time>
      </trkpt>
      <trkpt lat="44.68401" lon="6.23787">
        <ele>1570</ele>
        <time>2018-11-13T17:59:09Z</time>
      </trkpt>
      <trkpt lat="44.68371" lon="6.23809">
        <ele>1562</ele>
        <time>2018-11-13T18:00:09Z</time>
      </trkpt>
      <trkpt lat="44.68365" lon="6.2382">
        <ele>1561</ele>
        <time>2018-11-13T18:01:09Z</time>
      </trkpt>
      <trkpt lat="44.68349" lon="6.23885">
        <ele>1563</ele>
        <time>2018-11-13T18:02:09Z</time>
      </trkpt>
      <trkpt lat="44.68332" lon="6.23908">
        <ele>1560</ele>
        <time>2018-11-13T18:03:09Z</time>
      </trkpt>
      <trkpt lat="44.68311" lon="6.23965">
        <ele>1557</ele>
        <time>2018-11-13T18:04:09Z</time>
      </trkpt>
      <trkpt lat="44.68291" lon="6.23996">
        <ele>1553</ele>
        <time>2018-11-13T18:05:09Z</time>
      </trkpt>
      <trkpt lat="44.68283" lon="6.24019">
        <ele>1552</ele>
        <time>2018-11-13T18:06:09Z</time>
      </trkpt>
      <trkpt lat="44.68252" lon="6.24051">
        <ele>1543</ele>
        <time>2018-11-13T18:07:09Z</time>
      </trkpt>
      <trkpt lat="44.68225" lon="6.24085">
        <ele>1534</ele>
        <time>2018-11-13T18:08:09Z</time>
      </trkpt>
      <trkpt lat="44.68207" lon="6.24093">
        <ele>1527</ele>
        <time>2018-11-13T18:09:09Z</time>
      </trkpt>
      <trkpt lat="44.68201" lon="6.24117">
        <ele>1525</ele>
        <time>2018-11-13T18:10:09Z</time>
      </trkpt>
      <trkpt lat="44.68201" lon="6.24144">
        <ele>1524</ele>
        <time>2018-11-13T18:11:09Z</time>
      </trkpt>
      <trkpt lat="44.68206" lon="6.24156">
        <ele>1526</ele>
        <time>2018-11-13T18:12:09Z</time>
      </trkpt>
      <trkpt lat="44.68204" lon="6.24168">
        <ele>1525</ele>
        <time>2018-11-13T18:13:09Z</time>
      </trkpt>
      <trkpt lat="44.6821" lon="6.24217">
        <ele>1518</ele>
        <time>2018-11-13T18:14:09Z</time>
      </trkpt>
      <trkpt lat="44.68247" lon="6.24285">
        <ele>1516</ele>
        <time>2018-11-13T18:15:09Z</time>
      </trkpt>
      <trkpt lat="44.6826" lon="6.24306">
        <ele>1515</ele>
        <time>2018-11-13T18:16:09Z</time>
      </trkpt>
      <trkpt lat="44.68283" lon="6.24337">
        <ele>1516</ele>
        <time>2018-11-13T18:17:09Z</time>
      </trkpt>
      <trkpt lat="44.68299" lon="6.24377">
        <ele>1518</ele>
        <time>2018-11-13T18:18:09Z</time>
      </trkpt>
      <trkpt lat="44.68303" lon="6.24411">
        <ele>1516</ele>
        <time>2018-11-13T18:19:09Z</time>
      </trkpt>
      <trkpt lat="44.68311" lon="6.24447">
        <ele>1518</ele>
        <time>2018-11-13T18:20:09Z</time>
      </trkpt>
      <trkpt lat="44.68313" lon="6.24459">
        <ele>1518</ele>
        <time>2018-11-13T18:21:09Z</time>
      </trkpt>
      <trkpt lat="44.6831" lon="6.24474">
        <ele>1517</ele>
        <time>2018-11-13T18:22:09Z</time>
      </trkpt>
      <trkpt lat="44.68278" lon="6.24477">
        <ele>1509</ele>
        <time>2018-11-13T18:23:09Z</time>
      </trkpt>
      <trkpt lat="44.68271" lon="6.24493">
        <ele>1507</ele>
        <time>2018-11-13T18:24:09Z</time>
      </trkpt>
      <trkpt lat="44.6828" lon="6.24535">
        <ele>1512</ele>
        <time>2018-11-13T18:25:09Z</time>
      </trkpt>
      <trkpt lat="44.68284" lon="6.24561">
        <ele>1514</ele>
        <time>2018-11-13T18:26:09Z</time>
      </trkpt>
      <trkpt lat="44.68285" lon="6.24616">
        <ele>1515</ele>
        <time>2018-11-13T18:27:09Z</time>
      </trkpt>
      <trkpt lat="44.68281" lon="6.24674">
        <ele>1514</ele>
        <time>2018-11-13T18:28:09Z</time>
      </trkpt>
      <trkpt lat="44.68283" lon="6.24732">
        <ele>1515</ele>
        <time>2018-11-13T18:29:09Z</time>
      </trkpt>
      <trkpt lat="44.68314" lon="6.24816">
        <ele>1517</ele>
        <time>2018-11-13T18:30:09Z</time>
      </trkpt>
      <trkpt lat="44.68347" lon="6.24893">
        <ele>1520</ele>
        <time>2018-11-13T18:31:09Z</time>
      </trkpt>
      <trkpt lat="44.68391" lon="6.25">
        <ele>1522</ele>
        <time>2018-11-13T18:32:09Z</time>
      </trkpt>
      <trkpt lat="44.68395" lon="6.25015">
        <ele>1522</ele>
        <time>2018-11-13T18:33:09Z</time>
      </trkpt>
      <trkpt lat="44.68406" lon="6.25044">
        <ele>1523</ele>
        <time>2018-11-13T18:34:09Z</time>
      </trkpt>
      <trkpt lat="44.68422" lon="6.25058">
        <ele>1524</ele>
        <time>2018-11-13T18:35:09Z</time>
      </trkpt>
      <trkpt lat="44.68425" lon="6.25066">
        <ele>1524</ele>
        <time>2018-11-13T18:36:09Z</time>
      </trkpt>
      <trkpt lat="44.68425" lon="6.25066">
        <ele>1524</ele>
        <time>2018-11-13T18:37:09Z</time>
      </trkpt>
      <trkpt lat="44.68435" lon="6.25072">
        <ele>1524</ele>
        <time>2018-11-13T18:38:09Z</time>
      </trkpt>
      <trkpt lat="44.68458" lon="6.25103">
        <ele>1524</ele>
        <time>2018-11-13T18:39:09Z</time>
      </trkpt>
      <trkpt lat="44.68499" lon="6.25129">
        <ele>1525</ele>
        <time>2018-11-13T18:40:09Z</time>
      </trkpt>
      <trkpt lat="44.68518" lon="6.2516">
        <ele>1524</ele>
        <time>2018-11-13T18:41:09Z</time>
      </trkpt>
      <trkpt lat="44.68546" lon="6.25187">
        <ele>1523</ele>
        <time>2018-11-13T18:42:09Z</time>
      </trkpt>
      <trkpt lat="44.68566" lon="6.25208">
        <ele>1524</ele>
        <time>2018-11-13T18:43:09Z</time>
      </trkpt>
      <trkpt lat="44.68578" lon="6.25229">
        <ele>1524</ele>
        <time>2018-11-13T18:44:09Z</time>
      </trkpt>
      <trkpt lat="44.6864" lon="6.25279">
        <ele>1522</ele>
        <time>2018-11-13T18:45:09Z</time>
      </trkpt>
      <trkpt lat="44.68668" lon="6.25267">
        <ele>1522</ele>
        <time>2018-11-13T18:46:09Z</time>
      </trkpt>
      <trkpt lat="44.68689" lon="6.25305">
        <ele>1522</ele>
        <time>2018-11-13T18:47:09Z</time>
      </trkpt>
      <trkpt lat="44.6871" lon="6.25337">
        <ele>1519</ele>
        <time>2018-11-13T18:48:09Z</time>
      </trkpt>
      <trkpt lat="44.68753" lon="6.2538">
        <ele>1515</ele>
        <time>2018-11-13T18:49:09Z</time>
      </trkpt>
      <trkpt lat="44.6879" lon="6.25439">
        <ele>1513</ele>
        <time>2018-11-13T18:50:09Z</time>
      </trkpt>
      <trkpt lat="44.6881" lon="6.25456">
        <ele>1512</ele>
        <time>2018-11-13T18:51:09Z</time>
      </trkpt>
      <trkpt lat="44.68829" lon="6.25473">
        <ele>1511</ele>
        <time>2018-11-13T18:52:09Z</time>
      </trkpt>
      <trkpt lat="44.68832" lon="6.25501">
        <ele>1509</ele>
        <time>2018-11-13T18:53:09Z</time>
      </trkpt>
      <trkpt lat="44.68845" lon="6.25543">
        <ele>1502</ele>
        <time>2018-11-13T18:54:09Z</time>
      </trkpt>
      <trkpt lat="44.68853" lon="6.25575">
        <ele>1496</ele>
        <time>2018-11-13T18:55:09Z</time>
      </trkpt>
      <trkpt lat="44.68848" lon="6.25602">
        <ele>1494</ele>
        <time>2018-11-13T18:56:09Z</time>
      </trkpt>
      <trkpt lat="44.68851" lon="6.25619">
        <ele>1492</ele>
        <time>2018-11-13T18:57:09Z</time>
      </trkpt>
      <trkpt lat="44.68857" lon="6.25626">
        <ele>1492</ele>
        <time>2018-11-13T18:58:09Z</time>
      </trkpt>
      <trkpt lat="44.68864" lon="6.25612">
        <ele>1493</ele>
        <time>2018-11-13T18:59:09Z</time>
      </trkpt>
      <trkpt lat="44.68863" lon="6.25592">
        <ele>1494</ele>
        <time>2018-11-13T19:00:09Z</time>
      </trkpt>
      <trkpt lat="44.68853" lon="6.25575">
        <ele>1496</ele>
        <time>2018-11-13T19:01:09Z</time>
      </trkpt>
      <trkpt lat="44.68845" lon="6.25543">
        <ele>1502</ele>
        <time>2018-11-13T19:02:09Z</time>
      </trkpt>
      <trkpt lat="44.68832" lon="6.25501">
        <ele>1509</ele>
        <time>2018-11-13T19:03:09Z</time>
      </trkpt>
      <trkpt lat="44.68829" lon="6.25473">
        <ele>1511</ele>
        <time>2018-11-13T19:04:09Z</time>
      </trkpt>
      <trkpt lat="44.6881" lon="6.25456">
        <ele>1512</ele>
        <time>2018-11-13T19:05:09Z</time>
      </trkpt>
      <trkpt lat="44.6879" lon="6.25439">
        <ele>1513</ele>
        <time>2018-11-13T19:42:09Z</time>
      </trkpt>
      <trkpt lat="44.68753" lon="6.2538">
        <ele>1515</ele>
        <time>2018-11-13T19:43:09Z</time>
      </trkpt>
      <trkpt lat="44.6871" lon="6.25337">
        <ele>1519</ele>
        <time>2018-11-13T19:44:09Z</time>
      </trkpt>
      <trkpt lat="44.68689" lon="6.25305">
        <ele>1522</ele>
        <time>2018-11-13T19:45:09Z</time>
      </trkpt>
      <trkpt lat="44.68668" lon="6.25267">
        <ele>1522</ele>
        <time>2018-11-13T19:46:09Z</time>
      </trkpt>
      <trkpt lat="44.6864" lon="6.25279">
        <ele>1522</ele>
        <time>2018-11-13T19:47:09Z</time>
      </trkpt>
      <trkpt lat="44.68578" lon="6.25229">
        <ele>1524</ele>
        <time>2018-11-13T19:48:09Z</time>
      </trkpt>
      <trkpt lat="44.68566" lon="6.25208">
        <ele>1524</ele>
        <time>2018-11-13T19:49:09Z</time>
      </trkpt>
      <trkpt lat="44.68546" lon="6.25187">
        <ele>1523</ele>
        <time>2018-11-13T19:50:09Z</time>
      </trkpt>
      <trkpt lat="44.68518" lon="6.2516">
        <ele>1524</ele>
        <time>2018-11-13T19:51:09Z</time>
      </trkpt>
      <trkpt lat="44.68499" lon="6.25129">
        <ele>1525</ele>
        <time>2018-11-13T19:52:09Z</time>
      </trkpt>
      <trkpt lat="44.68458" lon="6.25103">
        <ele>1524</ele>
        <time>2018-11-13T19:53:09Z</time>
      </trkpt>
      <trkpt lat="44.68435" lon="6.25072">
        <ele>1524</ele>
        <time>2018-11-13T19:54:09Z</time>
      </trkpt>
      <trkpt lat="44.68431" lon="6.25063">
        <ele>1524</ele>
        <time>2018-11-13T19:55:09Z</time>
      </trkpt>
      <trkpt lat="44.68432" lon="6.25057">
        <ele>1524</ele>
        <time>2018-11-13T19:56:09Z</time>
      </trkpt>
      <trkpt lat="44.68451" lon="6.25055">
        <ele>1525</ele>
        <time>2018-11-13T19:57:09Z</time>
      </trkpt>
      <trkpt lat="44.68465" lon="6.25053">
        <ele>1526</ele>
        <time>2018-11-13T19:58:09Z</time>
      </trkpt>
      <trkpt lat="44.68482" lon="6.25063">
        <ele>1526</ele>
        <time>2018-11-13T19:59:09Z</time>
      </trkpt>
      <trkpt lat="44.68496" lon="6.25063">
        <ele>1527</ele>
        <time>2018-11-13T20:00:09Z</time>
      </trkpt>
      <trkpt lat="44.6851" lon="6.25062">
        <ele>1528</ele>
        <time>2018-11-13T20:01:09Z</time>
      </trkpt>
      <trkpt lat="44.68522" lon="6.25059">
        <ele>1528</ele>
        <time>2018-11-13T20:02:09Z</time>
      </trkpt>
      <trkpt lat="44.68564" lon="6.25056">
        <ele>1531</ele>
        <time>2018-11-13T20:03:09Z</time>
      </trkpt>
      <trkpt lat="44.68579" lon="6.25054">
        <ele>1532</ele>
        <time>2018-11-13T20:04:09Z</time>
      </trkpt>
      <trkpt lat="44.68599" lon="6.2506">
        <ele>1533</ele>
        <time>2018-11-13T20:05:09Z</time>
      </trkpt>
      <trkpt lat="44.68615" lon="6.25063">
        <ele>1534</ele>
        <time>2018-11-13T20:06:09Z</time>
      </trkpt>
      <trkpt lat="44.68637" lon="6.25068">
        <ele>1536</ele>
        <time>2018-11-13T20:07:09Z</time>
      </trkpt>
      <trkpt lat="44.68655" lon="6.25073">
        <ele>1536</ele>
        <time>2018-11-13T20:08:09Z</time>
      </trkpt>
      <trkpt lat="44.68669" lon="6.25072">
        <ele>1538</ele>
        <time>2018-11-13T20:09:09Z</time>
      </trkpt>
      <trkpt lat="44.68702" lon="6.25072">
        <ele>1542</ele>
        <time>2018-11-13T20:10:09Z</time>
      </trkpt>
      <trkpt lat="44.68718" lon="6.25077">
        <ele>1544</ele>
        <time>2018-11-13T20:11:09Z</time>
      </trkpt>
      <trkpt lat="44.68736" lon="6.25083">
        <ele>1545</ele>
        <time>2018-11-13T20:12:09Z</time>
      </trkpt>
      <trkpt lat="44.68754" lon="6.25089">
        <ele>1547</ele>
        <time>2018-11-13T20:13:09Z</time>
      </trkpt>
      <trkpt lat="44.68768" lon="6.25088">
        <ele>1547</ele>
        <time>2018-11-13T20:14:09Z</time>
      </trkpt>
      <trkpt lat="44.68768" lon="6.25088">
        <ele>1547</ele>
        <time>2018-11-13T20:15:09Z</time>
      </trkpt>
      <trkpt lat="44.68834" lon="6.25153">
        <ele>1549</ele>
        <time>2018-11-13T20:16:09Z</time>
      </trkpt>
      <trkpt lat="44.68849" lon="6.25171">
        <ele>1549</ele>
        <time>2018-11-13T20:17:09Z</time>
      </trkpt>
      <trkpt lat="44.68871" lon="6.2519">
        <ele>1549</ele>
        <time>2018-11-13T20:18:09Z</time>
      </trkpt>
      <trkpt lat="44.68898" lon="6.25214">
        <ele>1550</ele>
        <time>2018-11-13T20:19:09Z</time>
      </trkpt>
      <trkpt lat="44.68922" lon="6.25234">
        <ele>1551</ele>
        <time>2018-11-13T20:20:09Z</time>
      </trkpt>
      <trkpt lat="44.68938" lon="6.25255">
        <ele>1547</ele>
        <time>2018-11-13T20:21:09Z</time>
      </trkpt>
      <trkpt lat="44.68959" lon="6.25268">
        <ele>1543</ele>
        <time>2018-11-13T20:22:09Z</time>
      </trkpt>
      <trkpt lat="44.68971" lon="6.25265">
        <ele>1541</ele>
        <time>2018-11-13T20:23:09Z</time>
      </trkpt>
      <trkpt lat="44.68987" lon="6.25267">
        <ele>1539</ele>
        <time>2018-11-13T20:24:09Z</time>
      </trkpt>
      <trkpt lat="44.68997" lon="6.25282">
        <ele>1537</ele>
        <time>2018-11-13T20:25:09Z</time>
      </trkpt>
      <trkpt lat="44.69006" lon="6.25292">
        <ele>1535</ele>
        <time>2018-11-13T20:26:09Z</time>
      </trkpt>
      <trkpt lat="44.69019" lon="6.25293">
        <ele>1533</ele>
        <time>2018-11-13T20:27:09Z</time>
      </trkpt>
      <trkpt lat="44.69037" lon="6.25289">
        <ele>1531</ele>
        <time>2018-11-13T20:28:09Z</time>
      </trkpt>
      <trkpt lat="44.69048" lon="6.25284">
        <ele>1530</ele>
        <time>2018-11-13T20:29:09Z</time>
      </trkpt>
      <trkpt lat="44.69058" lon="6.25281">
        <ele>1530</ele>
        <time>2018-11-13T20:30:09Z</time>
      </trkpt>
      <trkpt lat="44.69061" lon="6.25291">
        <ele>1527</ele>
        <time>2018-11-13T20:31:09Z</time>
      </trkpt>
      <trkpt lat="44.69059" lon="6.253">
        <ele>1526</ele>
        <time>2018-11-13T20:32:09Z</time>
      </trkpt>
      <trkpt lat="44.69058" lon="6.25307">
        <ele>1525</ele>
        <time>2018-11-13T20:33:09Z</time>
      </trkpt>
      <trkpt lat="44.69054" lon="6.25315">
        <ele>1524</ele>
        <time>2018-11-13T20:34:09Z</time>
      </trkpt>
      <trkpt lat="44.69057" lon="6.25319">
        <ele>1522</ele>
        <time>2018-11-13T20:35:09Z</time>
      </trkpt>
      <trkpt lat="44.69066" lon="6.25327">
        <ele>1519</ele>
        <time>2018-11-13T20:36:09Z</time>
      </trkpt>
      <trkpt lat="44.69072" lon="6.25325">
        <ele>1518</ele>
        <time>2018-11-13T20:37:09Z</time>
      </trkpt>
      <trkpt lat="44.69078" lon="6.25324">
        <ele>1517</ele>
        <time>2018-11-13T20:38:09Z</time>
      </trkpt>
      <trkpt lat="44.69083" lon="6.25319">
        <ele>1518</ele>
        <time>2018-11-13T20:39:09Z</time>
      </trkpt>
      <trkpt lat="44.69099" lon="6.25307">
        <ele>1517</ele>
        <time>2018-11-13T20:40:09Z</time>
      </trkpt>
      <trkpt lat="44.6912" lon="6.25274">
        <ele>1519</ele>
        <time>2018-11-13T20:41:09Z</time>
      </trkpt>
      <trkpt lat="44.69128" lon="6.25263">
        <ele>1520</ele>
        <time>2018-11-13T20:42:09Z</time>
      </trkpt>
      <trkpt lat="44.69128" lon="6.25263">
        <ele>1520</ele>
        <time>2018-11-13T20:43:09Z</time>
      </trkpt>
      <trkpt lat="44.69143" lon="6.25245">
        <ele>1520</ele>
        <time>2018-11-13T20:44:09Z</time>
      </trkpt>
      <trkpt lat="44.69156" lon="6.25235">
        <ele>1519</ele>
        <time>2018-11-13T20:45:09Z</time>
      </trkpt>
      <trkpt lat="44.69168" lon="6.25225">
        <ele>1519</ele>
        <time>2018-11-13T20:46:09Z</time>
      </trkpt>
      <trkpt lat="44.69184" lon="6.25217">
        <ele>1518</ele>
        <time>2018-11-13T20:47:09Z</time>
      </trkpt>
      <trkpt lat="44.69214" lon="6.25207">
        <ele>1513</ele>
        <time>2018-11-13T20:48:09Z</time>
      </trkpt>
      <trkpt lat="44.69229" lon="6.25204">
        <ele>1509</ele>
        <time>2018-11-13T20:49:09Z</time>
      </trkpt>
      <trkpt lat="44.69254" lon="6.25213">
        <ele>1500</ele>
        <time>2018-11-13T20:50:09Z</time>
      </trkpt>
      <trkpt lat="44.6928" lon="6.25221">
        <ele>1490</ele>
        <time>2018-11-13T20:51:09Z</time>
      </trkpt>
      <trkpt lat="44.69289" lon="6.2522">
        <ele>1487</ele>
        <time>2018-11-13T20:52:09Z</time>
      </trkpt>
      <trkpt lat="44.69308" lon="6.25211">
        <ele>1484</ele>
        <time>2018-11-13T20:53:09Z</time>
      </trkpt>
      <trkpt lat="44.69328" lon="6.25191">
        <ele>1483</ele>
        <time>2018-11-13T20:54:09Z</time>
      </trkpt>
      <trkpt lat="44.69346" lon="6.25163">
        <ele>1486</ele>
        <time>2018-11-13T20:55:09Z</time>
      </trkpt>
      <trkpt lat="44.69346" lon="6.25156">
        <ele>1488</ele>
        <time>2018-11-13T20:56:09Z</time>
      </trkpt>
      <trkpt lat="44.69364" lon="6.2514">
        <ele>1488</ele>
        <time>2018-11-13T20:57:09Z</time>
      </trkpt>
      <trkpt lat="44.69387" lon="6.25128">
        <ele>1485</ele>
        <time>2018-11-13T20:58:09Z</time>
      </trkpt>
      <trkpt lat="44.69398" lon="6.25106">
        <ele>1490</ele>
        <time>2018-11-13T20:59:09Z</time>
      </trkpt>
      <trkpt lat="44.69402" lon="6.25098">
        <ele>1492</ele>
        <time>2018-11-13T21:00:09Z</time>
      </trkpt>
      <trkpt lat="44.69414" lon="6.25111">
        <ele>1483</ele>
        <time>2018-11-13T21:01:09Z</time>
      </trkpt>
      <trkpt lat="44.69414" lon="6.2512">
        <ele>1479</ele>
        <time>2018-11-13T21:02:09Z</time>
      </trkpt>
      <trkpt lat="44.69415" lon="6.25121">
        <ele>1478</ele>
        <time>2018-11-13T21:03:09Z</time>
      </trkpt>
      <trkpt lat="44.69419" lon="6.2513">
        <ele>1474</ele>
        <time>2018-11-13T21:04:09Z</time>
      </trkpt>
      <trkpt lat="44.69426" lon="6.25161">
        <ele>1461</ele>
        <time>2018-11-13T21:05:09Z</time>
      </trkpt>
      <trkpt lat="44.69428" lon="6.25174">
        <ele>1456</ele>
        <time>2018-11-13T21:06:09Z</time>
      </trkpt>
      <trkpt lat="44.69437" lon="6.25187">
        <ele>1452</ele>
        <time>2018-11-13T21:07:09Z</time>
      </trkpt>
      <trkpt lat="44.69452" lon="6.25201">
        <ele>1448</ele>
        <time>2018-11-13T21:08:09Z</time>
      </trkpt>
      <trkpt lat="44.69466" lon="6.25205">
        <ele>1447</ele>
        <time>2018-11-13T21:09:09Z</time>
      </trkpt>
      <trkpt lat="44.69474" lon="6.25202">
        <ele>1449</ele>
        <time>2018-11-13T21:10:09Z</time>
      </trkpt>
      <trkpt lat="44.69483" lon="6.25191">
        <ele>1452</ele>
        <time>2018-11-13T21:11:09Z</time>
      </trkpt>
      <trkpt lat="44.69493" lon="6.25182">
        <ele>1455</ele>
        <time>2018-11-13T21:12:09Z</time>
      </trkpt>
      <trkpt lat="44.69501" lon="6.25176">
        <ele>1456</ele>
        <time>2018-11-13T21:13:09Z</time>
      </trkpt>
      <trkpt lat="44.69518" lon="6.25169">
        <ele>1456</ele>
        <time>2018-11-13T21:14:09Z</time>
      </trkpt>
      <trkpt lat="44.69526" lon="6.25166">
        <ele>1455</ele>
        <time>2018-11-13T21:15:09Z</time>
      </trkpt>
      <trkpt lat="44.69541" lon="6.25162">
        <ele>1454</ele>
        <time>2018-11-13T21:16:09Z</time>
      </trkpt>
      <trkpt lat="44.69547" lon="6.25165">
        <ele>1452</ele>
        <time>2018-11-13T21:17:09Z</time>
      </trkpt>
      <trkpt lat="44.69548" lon="6.25174">
        <ele>1450</ele>
        <time>2018-11-13T21:18:09Z</time>
      </trkpt>
      <trkpt lat="44.69535" lon="6.25183">
        <ele>1449</ele>
        <time>2018-11-13T21:19:09Z</time>
      </trkpt>
      <trkpt lat="44.69528" lon="6.25195">
        <ele>1447</ele>
        <time>2018-11-13T21:20:09Z</time>
      </trkpt>
      <trkpt lat="44.69518" lon="6.25207">
        <ele>1445</ele>
        <time>2018-11-13T21:21:09Z</time>
      </trkpt>
      <trkpt lat="44.69496" lon="6.25228">
        <ele>1442</ele>
        <time>2018-11-13T21:22:09Z</time>
      </trkpt>
      <trkpt lat="44.69485" lon="6.25243">
        <ele>1437</ele>
        <time>2018-11-13T21:23:09Z</time>
      </trkpt>
      <trkpt lat="44.6947" lon="6.25255">
        <ele>1433</ele>
        <time>2018-11-13T21:24:09Z</time>
      </trkpt>
      <trkpt lat="44.69455" lon="6.25265">
        <ele>1430</ele>
        <time>2018-11-13T21:25:09Z</time>
      </trkpt>
      <trkpt lat="44.69424" lon="6.25286">
        <ele>1423</ele>
        <time>2018-11-13T21:26:09Z</time>
      </trkpt>
      <trkpt lat="44.69418" lon="6.25293">
        <ele>1421</ele>
        <time>2018-11-13T21:27:09Z</time>
      </trkpt>
      <trkpt lat="44.6942" lon="6.25312">
        <ele>1416</ele>
        <time>2018-11-13T21:28:09Z</time>
      </trkpt>
      <trkpt lat="44.69427" lon="6.25314">
        <ele>1416</ele>
        <time>2018-11-13T21:29:09Z</time>
      </trkpt>
      <trkpt lat="44.69444" lon="6.25312">
        <ele>1416</ele>
        <time>2018-11-13T21:30:09Z</time>
      </trkpt>
      <trkpt lat="44.69457" lon="6.25305">
        <ele>1418</ele>
        <time>2018-11-13T21:31:09Z</time>
      </trkpt>
      <trkpt lat="44.69464" lon="6.25302">
        <ele>1419</ele>
        <time>2018-11-13T21:32:09Z</time>
      </trkpt>
      <trkpt lat="44.69473" lon="6.25307">
        <ele>1418</ele>
        <time>2018-11-13T21:33:09Z</time>
      </trkpt>
      <trkpt lat="44.69484" lon="6.25313">
        <ele>1416</ele>
        <time>2018-11-13T21:34:09Z</time>
      </trkpt>
      <trkpt lat="44.69491" lon="6.25315">
        <ele>1415</ele>
        <time>2018-11-13T21:35:09Z</time>
      </trkpt>
      <trkpt lat="44.69498" lon="6.2532">
        <ele>1413</ele>
        <time>2018-11-13T21:36:09Z</time>
      </trkpt>
      <trkpt lat="44.69503" lon="6.25333">
        <ele>1409</ele>
        <time>2018-11-13T21:37:09Z</time>
      </trkpt>
      <trkpt lat="44.69495" lon="6.25345">
        <ele>1406</ele>
        <time>2018-11-13T21:38:09Z</time>
      </trkpt>
      <trkpt lat="44.69499" lon="6.25351">
        <ele>1404</ele>
        <time>2018-11-13T21:39:09Z</time>
      </trkpt>
      <trkpt lat="44.69513" lon="6.25357">
        <ele>1401</ele>
        <time>2018-11-13T21:40:09Z</time>
      </trkpt>
      <trkpt lat="44.69514" lon="6.2538">
        <ele>1394</ele>
        <time>2018-11-13T21:41:09Z</time>
      </trkpt>
      <trkpt lat="44.69516" lon="6.25392">
        <ele>1391</ele>
        <time>2018-11-13T21:42:09Z</time>
      </trkpt>
      <trkpt lat="44.69529" lon="6.25411">
        <ele>1385</ele>
        <time>2018-11-13T21:43:09Z</time>
      </trkpt>
      <trkpt lat="44.69533" lon="6.25422">
        <ele>1382</ele>
        <time>2018-11-13T21:44:09Z</time>
      </trkpt>
      <trkpt lat="44.69526" lon="6.25505">
        <ele>1363</ele>
        <time>2018-11-13T21:45:09Z</time>
      </trkpt>
      <trkpt lat="44.69522" lon="6.25528">
        <ele>1359</ele>
        <time>2018-11-13T21:46:09Z</time>
      </trkpt>
      <trkpt lat="44.69525" lon="6.25538">
        <ele>1357</ele>
        <time>2018-11-13T21:47:09Z</time>
      </trkpt>
      <trkpt lat="44.69524" lon="6.25569">
        <ele>1351</ele>
        <time>2018-11-13T21:48:09Z</time>
      </trkpt>
      <trkpt lat="44.69523" lon="6.25572">
        <ele>1350</ele>
        <time>2018-11-13T21:49:09Z</time>
      </trkpt>
      <trkpt lat="44.69521" lon="6.25582">
        <ele>1348</ele>
        <time>2018-11-13T21:50:09Z</time>
      </trkpt>
      <trkpt lat="44.69516" lon="6.25585">
        <ele>1349</ele>
        <time>2018-11-13T21:51:09Z</time>
      </trkpt>
      <trkpt lat="44.69507" lon="6.25587">
        <ele>1347.5</ele>
        <time>2018-11-13T21:52:09Z</time>
      </trkpt>
      <trkpt lat="44.69481" lon="6.25551">
        <ele>1361.4</ele>
        <time>2018-11-13T21:53:09Z</time>
      </trkpt>
      <trkpt lat="44.69471" lon="6.2555">
        <ele>1362.2</ele>
        <time>2018-11-13T21:54:09Z</time>
      </trkpt>
      <trkpt lat="44.69468" lon="6.25573">
        <ele>1360.3</ele>
        <time>2018-11-13T21:55:09Z</time>
      </trkpt>
      <trkpt lat="44.69466" lon="6.25604">
        <ele>1348.4</ele>
        <time>2018-11-13T21:56:09Z</time>
      </trkpt>
      <trkpt lat="44.6946" lon="6.2561">
        <ele>1347.9</ele>
        <time>2018-11-13T21:57:09Z</time>
      </trkpt>
      <trkpt lat="44.69457" lon="6.25607">
        <ele>1348.4</ele>
        <time>2018-11-13T21:58:09Z</time>
      </trkpt>
      <trkpt lat="44.69434" lon="6.2561">
        <ele>1349.5</ele>
        <time>2018-11-13T21:59:09Z</time>
      </trkpt>
      <trkpt lat="44.69389" lon="6.2564">
        <ele>1353.6</ele>
        <time>2018-11-13T22:00:09Z</time>
      </trkpt>
      <trkpt lat="44.69363" lon="6.2565">
        <ele>1354.6</ele>
        <time>2018-11-13T22:01:09Z</time>
      </trkpt>
      <trkpt lat="44.6934" lon="6.25674">
        <ele>1345.9</ele>
        <time>2018-11-13T22:02:09Z</time>
      </trkpt>
      <trkpt lat="44.6934" lon="6.25687">
        <ele>1342.9</ele>
        <time>2018-11-13T22:03:09Z</time>
      </trkpt>
      <trkpt lat="44.69359" lon="6.25679">
        <ele>1341.6</ele>
        <time>2018-11-13T22:04:09Z</time>
      </trkpt>
      <trkpt lat="44.69397" lon="6.25677">
        <ele>1338.6</ele>
        <time>2018-11-13T22:05:09Z</time>
      </trkpt>
      <trkpt lat="44.69394" lon="6.2569">
        <ele>1337.7</ele>
        <time>2018-11-13T22:06:09Z</time>
      </trkpt>
      <trkpt lat="44.69364" lon="6.25707">
        <ele>1338.3</ele>
        <time>2018-11-13T22:07:09Z</time>
      </trkpt>
      <trkpt lat="44.69345" lon="6.25711">
        <ele>1339.1</ele>
        <time>2018-11-13T22:08:09Z</time>
      </trkpt>
      <trkpt lat="44.69392" lon="6.25746">
        <ele>1331.2</ele>
        <time>2018-11-13T22:09:09Z</time>
      </trkpt>
      <trkpt lat="44.69412" lon="6.2574">
        <ele>1326.8</ele>
        <time>2018-11-13T22:10:09Z</time>
      </trkpt>
      <trkpt lat="44.69441" lon="6.25773">
        <ele>1307.8</ele>
        <time>2018-11-13T22:11:09Z</time>
      </trkpt>
      <trkpt lat="44.69417" lon="6.25793">
        <ele>1316</ele>
        <time>2018-11-13T22:12:09Z</time>
      </trkpt>
      <trkpt lat="44.69428" lon="6.25809">
        <ele>1302.8</ele>
        <time>2018-11-13T22:13:09Z</time>
      </trkpt>
      <trkpt lat="44.69445" lon="6.25809">
        <ele>1302.2</ele>
        <time>2018-11-13T22:14:09Z</time>
      </trkpt>
      <trkpt lat="44.69461" lon="6.25797">
        <ele>1302.5</ele>
        <time>2018-11-13T22:15:09Z</time>
      </trkpt>
      <trkpt lat="44.69462" lon="6.25807">
        <ele>1301.2</ele>
        <time>2018-11-13T22:16:09Z</time>
      </trkpt>
      <trkpt lat="44.69451" lon="6.25841">
        <ele>1287.5</ele>
        <time>2018-11-13T22:17:09Z</time>
      </trkpt>
      <trkpt lat="44.69434" lon="6.25852">
        <ele>1289</ele>
        <time>2018-11-13T22:18:09Z</time>
      </trkpt>
      <trkpt lat="44.69408" lon="6.25843">
        <ele>1300.4</ele>
        <time>2018-11-13T22:19:09Z</time>
      </trkpt>
      <trkpt lat="44.69394" lon="6.25832">
        <ele>1311.6</ele>
        <time>2018-11-13T22:20:09Z</time>
      </trkpt>
      <trkpt lat="44.69386" lon="6.25844">
        <ele>1303.3</ele>
        <time>2018-11-13T22:21:09Z</time>
      </trkpt>
      <trkpt lat="44.69386" lon="6.25885">
        <ele>1300</ele>
        <time>2018-11-13T22:22:09Z</time>
      </trkpt>
      <trkpt lat="44.69349" lon="6.2597">
        <ele>1284.3</ele>
        <time>2018-11-13T22:23:09Z</time>
      </trkpt>
      <trkpt lat="44.69351" lon="6.25978">
        <ele>1283</ele>
        <time>2018-11-13T22:24:09Z</time>
      </trkpt>
      <trkpt lat="44.69385" lon="6.25971">
        <ele>1279.5</ele>
        <time>2018-11-13T22:25:09Z</time>
      </trkpt>
      <trkpt lat="44.69408" lon="6.25932">
        <ele>1281.7</ele>
        <time>2018-11-13T22:26:09Z</time>
      </trkpt>
      <trkpt lat="44.69415" lon="6.25934">
        <ele>1281.2</ele>
        <time>2018-11-13T22:27:09Z</time>
      </trkpt>
      <trkpt lat="44.69435" lon="6.25959">
        <ele>1266.8</ele>
        <time>2018-11-13T22:28:09Z</time>
      </trkpt>
      <trkpt lat="44.69461" lon="6.25966">
        <ele>1264.8</ele>
        <time>2018-11-13T22:29:09Z</time>
      </trkpt>
      <trkpt lat="44.69482" lon="6.25992">
        <ele>1260.1</ele>
        <time>2018-11-13T22:30:09Z</time>
      </trkpt>
      <trkpt lat="44.69512" lon="6.25989">
        <ele>1254.5</ele>
        <time>2018-11-13T22:31:09Z</time>
      </trkpt>
      <trkpt lat="44.69538" lon="6.25972">
        <ele>1254.2</ele>
        <time>2018-11-13T22:32:09Z</time>
      </trkpt>
      <trkpt lat="44.6954" lon="6.25907">
        <ele>1268.8</ele>
        <time>2018-11-13T22:33:09Z</time>
      </trkpt>
      <trkpt lat="44.69544" lon="6.25905">
        <ele>1268.6</ele>
        <time>2018-11-13T22:34:09Z</time>
      </trkpt>
      <trkpt lat="44.69586" lon="6.26021">
        <ele>1234.9</ele>
        <time>2018-11-13T22:35:09Z</time>
      </trkpt>
      <trkpt lat="44.69621" lon="6.26037">
        <ele>1232.2</ele>
        <time>2018-11-13T22:36:09Z</time>
      </trkpt>
      <trkpt lat="44.69634" lon="6.26045">
        <ele>1231.5</ele>
        <time>2018-11-13T22:37:09Z</time>
      </trkpt>
      <trkpt lat="44.69672" lon="6.26041">
        <ele>1231.8</ele>
        <time>2018-11-13T22:38:09Z</time>
      </trkpt>
      <trkpt lat="44.69685" lon="6.26053">
        <ele>1230.5</ele>
        <time>2018-11-13T22:39:09Z</time>
      </trkpt>
      <trkpt lat="44.69691" lon="6.26061">
        <ele>1229</ele>
        <time>2018-11-13T22:40:09Z</time>
      </trkpt>
      <trkpt lat="44.69703" lon="6.26061">
        <ele>1228</ele>
        <time>2018-11-13T22:41:09Z</time>
      </trkpt>
      <trkpt lat="44.69715" lon="6.26052">
        <ele>1230</ele>
        <time>2018-11-13T22:42:09Z</time>
      </trkpt>
      <trkpt lat="44.69717" lon="6.26053">
        <ele>1229</ele>
        <time>2018-11-13T22:43:09Z</time>
      </trkpt>
      <trkpt lat="44.69723" lon="6.26061">
        <ele>1228</ele>
        <time>2018-11-13T22:44:09Z</time>
      </trkpt>
      <trkpt lat="44.69738" lon="6.26079">
        <ele>1225</ele>
        <time>2018-11-13T22:45:09Z</time>
      </trkpt>
      <trkpt lat="44.69758" lon="6.26109">
        <ele>1219</ele>
        <time>2018-11-13T22:46:09Z</time>
      </trkpt>
      <trkpt lat="44.69769" lon="6.26131">
        <ele>1214</ele>
        <time>2018-11-13T22:47:09Z</time>
      </trkpt>
      <trkpt lat="44.69783" lon="6.26141">
        <ele>1211</ele>
        <time>2018-11-13T22:48:09Z</time>
      </trkpt>
      <trkpt lat="44.69789" lon="6.26152">
        <ele>1210</ele>
        <time>2018-11-13T22:49:09Z</time>
      </trkpt>
      <trkpt lat="44.69785" lon="6.26163">
        <ele>1208</ele>
        <time>2018-11-13T22:50:09Z</time>
      </trkpt>
      <trkpt lat="44.69789" lon="6.26173">
        <ele>1208</ele>
        <time>2018-11-13T22:51:09Z</time>
      </trkpt>
      <trkpt lat="44.69805" lon="6.26201">
        <ele>1207</ele>
        <time>2018-11-13T22:52:09Z</time>
      </trkpt>
      <trkpt lat="44.69822" lon="6.26216">
        <ele>1206</ele>
        <time>2018-11-13T22:53:09Z</time>
      </trkpt>
      <trkpt lat="44.69824" lon="6.2624">
        <ele>1207</ele>
        <time>2018-11-13T22:54:09Z</time>
      </trkpt>
      <trkpt lat="44.69837" lon="6.26255">
        <ele>1207</ele>
        <time>2018-11-13T22:55:09Z</time>
      </trkpt>
      <trkpt lat="44.6985" lon="6.26268">
        <ele>1207</ele>
        <time>2018-11-13T22:56:09Z</time>
      </trkpt>
      <trkpt lat="44.69864" lon="6.26278">
        <ele>1207</ele>
        <time>2018-11-13T22:57:09Z</time>
      </trkpt>
      <trkpt lat="44.69886" lon="6.26284">
        <ele>1207</ele>
        <time>2018-11-13T22:58:09Z</time>
      </trkpt>
      <trkpt lat="44.69886" lon="6.26284">
        <ele>1207</ele>
        <time>2018-11-13T22:58:09Z</time>
      </trkpt>
      <trkpt lat="44.69893" lon="6.26283">
        <ele>1206</ele>
        <time>2018-11-13T22:59:09Z</time>
      </trkpt>
      <trkpt lat="44.69894" lon="6.26284">
        <ele>1206</ele>
        <time>2018-11-13T23:00:09Z</time>
      </trkpt>
      <trkpt lat="44.6984" lon="6.26599">
        <ele>1216</ele>
        <time>2018-11-14T05:00:09Z</time>
      </trkpt>
      <trkpt lat="44.69663" lon="6.26571">
        <ele>1207</ele>
        <time>2018-11-14T05:01:09Z</time>
      </trkpt>
      <trkpt lat="44.696" lon="6.26592">
        <ele>1206</ele>
        <time>2018-11-14T05:02:09Z</time>
      </trkpt>
      <trkpt lat="44.69541" lon="6.26595">
        <ele>1203</ele>
        <time>2018-11-14T05:03:09Z</time>
      </trkpt>
      <trkpt lat="44.69533" lon="6.266">
        <ele>1204</ele>
        <time>2018-11-14T05:04:09Z</time>
      </trkpt>
      <trkpt lat="44.69532" lon="6.26619">
        <ele>1207</ele>
        <time>2018-11-14T05:05:09Z</time>
      </trkpt>
      <trkpt lat="44.69527" lon="6.26642">
        <ele>1210</ele>
        <time>2018-11-14T05:06:09Z</time>
      </trkpt>
      <trkpt lat="44.69505" lon="6.26657">
        <ele>1210</ele>
        <time>2018-11-14T05:07:09Z</time>
      </trkpt>
      <trkpt lat="44.69472" lon="6.26665">
        <ele>1208</ele>
        <time>2018-11-14T05:08:09Z</time>
      </trkpt>
      <trkpt lat="44.69457" lon="6.26674">
        <ele>1207</ele>
        <time>2018-11-14T05:09:09Z</time>
      </trkpt>
      <trkpt lat="44.69438" lon="6.26696">
        <ele>1208</ele>
        <time>2018-11-14T05:10:09Z</time>
      </trkpt>
      <trkpt lat="44.69405" lon="6.26735">
        <ele>1208</ele>
        <time>2018-11-14T05:11:09Z</time>
      </trkpt>
      <trkpt lat="44.69407" lon="6.26745">
        <ele>1210</ele>
        <time>2018-11-14T05:12:09Z</time>
      </trkpt>
      <trkpt lat="44.69405" lon="6.26754">
        <ele>1210</ele>
        <time>2018-11-14T05:13:09Z</time>
      </trkpt>
      <trkpt lat="44.69388" lon="6.26778">
        <ele>1211</ele>
        <time>2018-11-14T05:14:09Z</time>
      </trkpt>
      <trkpt lat="44.69368" lon="6.268">
        <ele>1211</ele>
        <time>2018-11-14T05:15:09Z</time>
      </trkpt>
      <trkpt lat="44.69351" lon="6.26811">
        <ele>1210</ele>
        <time>2018-11-14T05:16:09Z</time>
      </trkpt>
      <trkpt lat="44.69317" lon="6.26819">
        <ele>1209</ele>
        <time>2018-11-14T05:17:09Z</time>
      </trkpt>
      <trkpt lat="44.69287" lon="6.26823">
        <ele>1211</ele>
        <time>2018-11-14T05:18:09Z</time>
      </trkpt>
      <trkpt lat="44.69263" lon="6.26822">
        <ele>1211</ele>
        <time>2018-11-14T05:19:09Z</time>
      </trkpt>
      <trkpt lat="44.69249" lon="6.26823">
        <ele>1212</ele>
        <time>2018-11-14T05:20:09Z</time>
      </trkpt>
      <trkpt lat="44.6923" lon="6.2683">
        <ele>1211</ele>
        <time>2018-11-14T05:21:09Z</time>
      </trkpt>
      <trkpt lat="44.69208" lon="6.26832">
        <ele>1210</ele>
        <time>2018-11-14T05:22:09Z</time>
      </trkpt>
      <trkpt lat="44.69183" lon="6.26844">
        <ele>1210</ele>
        <time>2018-11-14T05:23:09Z</time>
      </trkpt>
      <trkpt lat="44.69174" lon="6.26844">
        <ele>1209</ele>
        <time>2018-11-14T05:24:09Z</time>
      </trkpt>
      <trkpt lat="44.69159" lon="6.26849">
        <ele>1208</ele>
        <time>2018-11-14T05:25:09Z</time>
      </trkpt>
      <trkpt lat="44.69139" lon="6.26867">
        <ele>1207</ele>
        <time>2018-11-14T05:26:09Z</time>
      </trkpt>
      <trkpt lat="44.69128" lon="6.26869">
        <ele>1205</ele>
        <time>2018-11-14T05:27:09Z</time>
      </trkpt>
      <trkpt lat="44.69127" lon="6.26869">
        <ele>1205</ele>
        <time>2018-11-14T05:28:09Z</time>
      </trkpt>
      <trkpt lat="44.69111" lon="6.26881">
        <ele>1203</ele>
        <time>2018-11-14T05:29:09Z</time>
      </trkpt>
      <trkpt lat="44.69093" lon="6.26899">
        <ele>1201</ele>
        <time>2018-11-14T05:30:09Z</time>
      </trkpt>
      <trkpt lat="44.69072" lon="6.26915">
        <ele>1199</ele>
        <time>2018-11-14T05:31:09Z</time>
      </trkpt>
      <trkpt lat="44.69042" lon="6.26932">
        <ele>1197</ele>
        <time>2018-11-14T05:32:09Z</time>
      </trkpt>
      <trkpt lat="44.69033" lon="6.26943">
        <ele>1197</ele>
        <time>2018-11-14T05:33:09Z</time>
      </trkpt>
      <trkpt lat="44.69021" lon="6.26949">
        <ele>1195</ele>
        <time>2018-11-14T05:34:09Z</time>
      </trkpt>
      <trkpt lat="44.69002" lon="6.26965">
        <ele>1193</ele>
        <time>2018-11-14T05:35:09Z</time>
      </trkpt>
      <trkpt lat="44.68982" lon="6.26972">
        <ele>1191</ele>
        <time>2018-11-14T05:36:09Z</time>
      </trkpt>
      <trkpt lat="44.68971" lon="6.26974">
        <ele>1189</ele>
        <time>2018-11-14T05:37:09Z</time>
      </trkpt>
      <trkpt lat="44.6896" lon="6.2698">
        <ele>1189</ele>
        <time>2018-11-14T05:38:09Z</time>
      </trkpt>
      <trkpt lat="44.68947" lon="6.26994">
        <ele>1188</ele>
        <time>2018-11-14T05:39:09Z</time>
      </trkpt>
      <trkpt lat="44.68928" lon="6.27015">
        <ele>1188</ele>
        <time>2018-11-14T05:40:09Z</time>
      </trkpt>
      <trkpt lat="44.68908" lon="6.27029">
        <ele>1189</ele>
        <time>2018-11-14T05:41:09Z</time>
      </trkpt>
      <trkpt lat="44.68895" lon="6.27044">
        <ele>1191</ele>
        <time>2018-11-14T05:42:09Z</time>
      </trkpt>
      <trkpt lat="44.68875" lon="6.27076">
        <ele>1193</ele>
        <time>2018-11-14T05:43:09Z</time>
      </trkpt>
      <trkpt lat="44.68868" lon="6.271">
        <ele>1194</ele>
        <time>2018-11-14T05:44:09Z</time>
      </trkpt>
      <trkpt lat="44.68866" lon="6.27113">
        <ele>1196</ele>
        <time>2018-11-14T05:45:09Z</time>
      </trkpt>
      <trkpt lat="44.68856" lon="6.2713">
        <ele>1196</ele>
        <time>2018-11-14T05:46:09Z</time>
      </trkpt>
      <trkpt lat="44.68826" lon="6.27148">
        <ele>1193</ele>
        <time>2018-11-14T05:47:09Z</time>
      </trkpt>
      <trkpt lat="44.68803" lon="6.27145">
        <ele>1192</ele>
        <time>2018-11-14T05:48:09Z</time>
      </trkpt>
      <trkpt lat="44.68792" lon="6.27149">
        <ele>1192</ele>
        <time>2018-11-14T05:49:09Z</time>
      </trkpt>
      <trkpt lat="44.68782" lon="6.27143">
        <ele>1191</ele>
        <time>2018-11-14T05:50:09Z</time>
      </trkpt>
      <trkpt lat="44.68776" lon="6.27148">
        <ele>1191</ele>
        <time>2018-11-14T05:51:09Z</time>
      </trkpt>
      <trkpt lat="44.68751" lon="6.27195">
        <ele>1191</ele>
        <time>2018-11-14T05:52:09Z</time>
      </trkpt>
      <trkpt lat="44.68719" lon="6.27255">
        <ele>1194</ele>
        <time>2018-11-14T05:53:09Z</time>
      </trkpt>
      <trkpt lat="44.68696" lon="6.27279">
        <ele>1196</ele>
        <time>2018-11-14T05:54:09Z</time>
      </trkpt>
      <trkpt lat="44.68663" lon="6.27319">
        <ele>1197</ele>
        <time>2018-11-14T05:55:09Z</time>
      </trkpt>
      <trkpt lat="44.68644" lon="6.27338">
        <ele>1197</ele>
        <time>2018-11-14T05:56:09Z</time>
      </trkpt>
      <trkpt lat="44.68625" lon="6.27382">
        <ele>1199</ele>
        <time>2018-11-14T05:57:09Z</time>
      </trkpt>
      <trkpt lat="44.68605" lon="6.27401">
        <ele>1199</ele>
        <time>2018-11-14T05:58:09Z</time>
      </trkpt>
      <trkpt lat="44.68602" lon="6.27441">
        <ele>1200</ele>
        <time>2018-11-14T05:59:09Z</time>
      </trkpt>
      <trkpt lat="44.68609" lon="6.27489">
        <ele>1203</ele>
        <time>2018-11-14T06:00:09Z</time>
      </trkpt>
      <trkpt lat="44.68602" lon="6.2756">
        <ele>1203</ele>
        <time>2018-11-14T06:01:09Z</time>
      </trkpt>
      <trkpt lat="44.68566" lon="6.27629">
        <ele>1204</ele>
        <time>2018-11-14T06:02:09Z</time>
      </trkpt>
      <trkpt lat="44.68541" lon="6.27659">
        <ele>1206</ele>
        <time>2018-11-14T06:03:09Z</time>
      </trkpt>
      <trkpt lat="44.68521" lon="6.27714">
        <ele>1208</ele>
        <time>2018-11-14T06:04:09Z</time>
      </trkpt>
      <trkpt lat="44.68514" lon="6.27749">
        <ele>1209</ele>
        <time>2018-11-14T06:05:09Z</time>
      </trkpt>
      <trkpt lat="44.6851" lon="6.27782">
        <ele>1210</ele>
        <time>2018-11-14T06:06:09Z</time>
      </trkpt>
      <trkpt lat="44.68506" lon="6.27784">
        <ele>1210</ele>
        <time>2018-11-14T06:07:09Z</time>
      </trkpt>
      <trkpt lat="44.68488" lon="6.27791">
        <ele>1210</ele>
        <time>2018-11-14T06:08:09Z</time>
      </trkpt>
      <trkpt lat="44.68459" lon="6.27826">
        <ele>1209</ele>
        <time>2018-11-14T06:09:09Z</time>
      </trkpt>
      <trkpt lat="44.68433" lon="6.27841">
        <ele>1209</ele>
        <time>2018-11-14T06:10:09Z</time>
      </trkpt>
      <trkpt lat="44.68394" lon="6.27907">
        <ele>1212</ele>
        <time>2018-11-14T06:11:09Z</time>
      </trkpt>
      <trkpt lat="44.68409" lon="6.27971">
        <ele>1215</ele>
        <time>2018-11-14T06:12:09Z</time>
      </trkpt>
      <trkpt lat="44.68388" lon="6.28015">
        <ele>1217</ele>
        <time>2018-11-14T06:13:09Z</time>
      </trkpt>
      <trkpt lat="44.68364" lon="6.28228">
        <ele>1227</ele>
        <time>2018-11-14T06:14:09Z</time>
      </trkpt>
      <trkpt lat="44.68373" lon="6.28279">
        <ele>1230</ele>
        <time>2018-11-14T06:15:09Z</time>
      </trkpt>
      <trkpt lat="44.68352" lon="6.28365">
        <ele>1230</ele>
        <time>2018-11-14T06:16:09Z</time>
      </trkpt>
      <trkpt lat="44.68288" lon="6.28416">
        <ele>1231</ele>
        <time>2018-11-14T06:17:09Z</time>
      </trkpt>
      <trkpt lat="44.68228" lon="6.28416">
        <ele>1235</ele>
        <time>2018-11-14T06:18:09Z</time>
      </trkpt>
      <trkpt lat="44.68193" lon="6.28492">
        <ele>1238</ele>
        <time>2018-11-14T06:19:09Z</time>
      </trkpt>
      <trkpt lat="44.68144" lon="6.28538">
        <ele>1254</ele>
        <time>2018-11-14T06:20:09Z</time>
      </trkpt>
      <trkpt lat="44.68125" lon="6.28644">
        <ele>1260</ele>
        <time>2018-11-14T06:21:09Z</time>
      </trkpt>
      <trkpt lat="44.6812" lon="6.28699">
        <ele>1260</ele>
        <time>2018-11-14T06:22:09Z</time>
      </trkpt>
      <trkpt lat="44.68148" lon="6.28775">
        <ele>1258</ele>
        <time>2018-11-14T06:23:09Z</time>
      </trkpt>
      <trkpt lat="44.68163" lon="6.28799">
        <ele>1259</ele>
        <time>2018-11-14T06:24:09Z</time>
      </trkpt>
      <trkpt lat="44.68128" lon="6.2881">
        <ele>1257</ele>
        <time>2018-11-14T06:25:09Z</time>
      </trkpt>
      <trkpt lat="44.68106" lon="6.28886">
        <ele>1255</ele>
        <time>2018-11-14T06:26:09Z</time>
      </trkpt>
      <trkpt lat="44.68095" lon="6.29035">
        <ele>1254</ele>
        <time>2018-11-14T06:27:09Z</time>
      </trkpt>
      <trkpt lat="44.68108" lon="6.29182">
        <ele>1255</ele>
        <time>2018-11-14T06:28:09Z</time>
      </trkpt>
      <trkpt lat="44.68154" lon="6.29288">
        <ele>1255</ele>
        <time>2018-11-14T06:29:09Z</time>
      </trkpt>
      <trkpt lat="44.68163" lon="6.29336">
        <ele>1255</ele>
        <time>2018-11-14T06:30:09Z</time>
      </trkpt>
      <trkpt lat="44.68189" lon="6.29402">
        <ele>1260</ele>
        <time>2018-11-14T06:31:09Z</time>
      </trkpt>
      <trkpt lat="44.68166" lon="6.29429">
        <ele>1260</ele>
        <time>2018-11-14T06:32:09Z</time>
      </trkpt>
      <trkpt lat="44.6815" lon="6.29473">
        <ele>1261</ele>
        <time>2018-11-14T06:33:09Z</time>
      </trkpt>
      <trkpt lat="44.68126" lon="6.29525">
        <ele>1260</ele>
        <time>2018-11-14T06:34:09Z</time>
      </trkpt>
      <trkpt lat="44.68135" lon="6.29571">
        <ele>1262</ele>
        <time>2018-11-14T06:35:09Z</time>
      </trkpt>
      <trkpt lat="44.68135" lon="6.29649">
        <ele>1262</ele>
        <time>2018-11-14T06:36:09Z</time>
      </trkpt>
      <trkpt lat="44.68139" lon="6.29694">
        <ele>1263</ele>
        <time>2018-11-14T06:37:09Z</time>
      </trkpt>
      <trkpt lat="44.6815" lon="6.29713">
        <ele>1264</ele>
        <time>2018-11-14T06:38:09Z</time>
      </trkpt>
      <trkpt lat="44.68153" lon="6.29771">
        <ele>1264</ele>
        <time>2018-11-14T06:39:09Z</time>
      </trkpt>
      <trkpt lat="44.6817" lon="6.29819">
        <ele>1264</ele>
        <time>2018-11-14T06:40:09Z</time>
      </trkpt>
      <trkpt lat="44.6816" lon="6.29904">
        <ele>1262</ele>
        <time>2018-11-14T06:41:09Z</time>
      </trkpt>
      <trkpt lat="44.68156" lon="6.29914">
        <ele>1262</ele>
        <time>2018-11-14T06:42:09Z</time>
      </trkpt>
      <trkpt lat="44.68158" lon="6.2994">
        <ele>1262</ele>
        <time>2018-11-14T06:43:09Z</time>
      </trkpt>
      <trkpt lat="44.68142" lon="6.30016">
        <ele>1263</ele>
        <time>2018-11-14T06:44:09Z</time>
      </trkpt>
      <trkpt lat="44.68159" lon="6.30128">
        <ele>1267</ele>
        <time>2018-11-14T06:45:09Z</time>
      </trkpt>
      <trkpt lat="44.68155" lon="6.30157">
        <ele>1267</ele>
        <time>2018-11-14T06:46:09Z</time>
      </trkpt>
      <trkpt lat="44.68126" lon="6.30238">
        <ele>1268</ele>
        <time>2018-11-14T06:47:09Z</time>
      </trkpt>
      <trkpt lat="44.68129" lon="6.3027">
        <ele>1269</ele>
        <time>2018-11-14T06:48:09Z</time>
      </trkpt>
      <trkpt lat="44.68126" lon="6.30317">
        <ele>1269</ele>
        <time>2018-11-14T06:49:09Z</time>
      </trkpt>
      <trkpt lat="44.68129" lon="6.30372">
        <ele>1269</ele>
        <time>2018-11-14T06:50:09Z</time>
      </trkpt>
      <trkpt lat="44.68114" lon="6.30425">
        <ele>1270</ele>
        <time>2018-11-14T06:51:09Z</time>
      </trkpt>
      <trkpt lat="44.68116" lon="6.30448">
        <ele>1270</ele>
        <time>2018-11-14T06:52:09Z</time>
      </trkpt>
      <trkpt lat="44.68124" lon="6.3049">
        <ele>1271</ele>
        <time>2018-11-14T06:53:09Z</time>
      </trkpt>
      <trkpt lat="44.68117" lon="6.30547">
        <ele>1272</ele>
        <time>2018-11-14T06:54:09Z</time>
      </trkpt>
      <trkpt lat="44.681" lon="6.30555">
        <ele>1271</ele>
        <time>2018-11-14T06:55:09Z</time>
      </trkpt>
      <trkpt lat="44.68057" lon="6.3055">
        <ele>1271</ele>
        <time>2018-11-14T06:56:09Z</time>
      </trkpt>
      <trkpt lat="44.68044" lon="6.30553">
        <ele>1271</ele>
        <time>2018-11-14T06:57:09Z</time>
      </trkpt>
      <trkpt lat="44.68034" lon="6.30624">
        <ele>1273</ele>
        <time>2018-11-14T06:58:09Z</time>
      </trkpt>
      <trkpt lat="44.68022" lon="6.30692">
        <ele>1275</ele>
        <time>2018-11-14T06:59:09Z</time>
      </trkpt>
      <trkpt lat="44.68013" lon="6.30713">
        <ele>1276</ele>
        <time>2018-11-14T07:00:09Z</time>
      </trkpt>
      <trkpt lat="44.68018" lon="6.30757">
        <ele>1277</ele>
        <time>2018-11-14T07:01:09Z</time>
      </trkpt>
      <trkpt lat="44.68019" lon="6.30782">
        <ele>1278</ele>
        <time>2018-11-14T07:02:09Z</time>
      </trkpt>
      <trkpt lat="44.6801" lon="6.30815">
        <ele>1278</ele>
        <time>2018-11-14T07:03:09Z</time>
      </trkpt>
      <trkpt lat="44.6799" lon="6.30834">
        <ele>1278</ele>
        <time>2018-11-14T07:04:09Z</time>
      </trkpt>
      <trkpt lat="44.6797" lon="6.30865">
        <ele>1278</ele>
        <time>2018-11-14T07:05:09Z</time>
      </trkpt>
      <trkpt lat="44.67931" lon="6.30917">
        <ele>1280</ele>
        <time>2018-11-14T07:06:09Z</time>
      </trkpt>
      <trkpt lat="44.67928" lon="6.30937">
        <ele>1281</ele>
        <time>2018-11-14T07:07:09Z</time>
      </trkpt>
      <trkpt lat="44.6792" lon="6.30952">
        <ele>1281</ele>
        <time>2018-11-14T07:08:09Z</time>
      </trkpt>
      <trkpt lat="44.67914" lon="6.30994">
        <ele>1282</ele>
        <time>2018-11-14T07:09:09Z</time>
      </trkpt>
      <trkpt lat="44.67864" lon="6.31247">
        <ele>1284</ele>
        <time>2018-11-14T07:10:09Z</time>
      </trkpt>
      <trkpt lat="44.67844" lon="6.3137">
        <ele>1287</ele>
        <time>2018-11-14T07:11:09Z</time>
      </trkpt>
      <trkpt lat="44.6782" lon="6.31498">
        <ele>1290</ele>
        <time>2018-11-14T07:12:09Z</time>
      </trkpt>
      <trkpt lat="44.67815" lon="6.31717">
        <ele>1296</ele>
        <time>2018-11-14T07:13:09Z</time>
      </trkpt>
      <trkpt lat="44.67831" lon="6.31814">
        <ele>1297</ele>
        <time>2018-11-14T07:14:09Z</time>
      </trkpt>
      <trkpt lat="44.67848" lon="6.31881">
        <ele>1298</ele>
        <time>2018-11-14T07:15:09Z</time>
      </trkpt>
      <trkpt lat="44.67871" lon="6.31957">
        <ele>1300</ele>
        <time>2018-11-14T07:16:09Z</time>
      </trkpt>
      <trkpt lat="44.67914" lon="6.32041">
        <ele>1304</ele>
        <time>2018-11-14T07:17:09Z</time>
      </trkpt>
      <trkpt lat="44.67932" lon="6.32069">
        <ele>1306</ele>
        <time>2018-11-14T07:18:09Z</time>
      </trkpt>
      <trkpt lat="44.6796" lon="6.32088">
        <ele>1309</ele>
        <time>2018-11-14T07:19:09Z</time>
      </trkpt>
      <trkpt lat="44.67902" lon="6.32186">
        <ele>1313</ele>
        <time>2018-11-14T07:20:09Z</time>
      </trkpt>
      <trkpt lat="44.67896" lon="6.32193">
        <ele>1315</ele>
        <time>2018-11-14T07:21:09Z</time>
      </trkpt>
      <trkpt lat="44.67887" lon="6.32179">
        <ele>1315</ele>
        <time>2018-11-14T07:22:09Z</time>
      </trkpt>
      <trkpt lat="44.67877" lon="6.32168">
        <ele>1314</ele>
        <time>2018-11-14T07:23:09Z</time>
      </trkpt>
      <trkpt lat="44.6787" lon="6.32146">
        <ele>1313</ele>
        <time>2018-11-14T07:24:09Z</time>
      </trkpt>
      <trkpt lat="44.67861" lon="6.3213">
        <ele>1313</ele>
        <time>2018-11-14T07:25:09Z</time>
      </trkpt>
      <trkpt lat="44.67842" lon="6.3211">
        <ele>1312</ele>
        <time>2018-11-14T07:26:09Z</time>
      </trkpt>
      <trkpt lat="44.67817" lon="6.32091">
        <ele>1312</ele>
        <time>2018-11-14T07:27:09Z</time>
      </trkpt>
      <trkpt lat="44.67803" lon="6.32072">
        <ele>1311</ele>
        <time>2018-11-14T07:28:09Z</time>
      </trkpt>
      <trkpt lat="44.67796" lon="6.32057">
        <ele>1310</ele>
        <time>2018-11-14T07:29:09Z</time>
      </trkpt>
      <trkpt lat="44.67779" lon="6.32023">
        <ele>1309</ele>
        <time>2018-11-14T07:30:09Z</time>
      </trkpt>
      <trkpt lat="44.67758" lon="6.3195">
        <ele>1305</ele>
        <time>2018-11-14T07:31:09Z</time>
      </trkpt>
      <trkpt lat="44.6775" lon="6.31935">
        <ele>1305</ele>
        <time>2018-11-14T07:32:09Z</time>
      </trkpt>
      <trkpt lat="44.67747" lon="6.31922">
        <ele>1305</ele>
        <time>2018-11-14T07:33:09Z</time>
      </trkpt>
      <trkpt lat="44.6774" lon="6.31899">
        <ele>1305</ele>
        <time>2018-11-14T07:34:09Z</time>
      </trkpt>
      <trkpt lat="44.67736" lon="6.31866">
        <ele>1306</ele>
        <time>2018-11-14T07:35:09Z</time>
      </trkpt>
      <trkpt lat="44.67729" lon="6.31853">
        <ele>1308</ele>
        <time>2018-11-14T07:36:09Z</time>
      </trkpt>
      <trkpt lat="44.67724" lon="6.31845">
        <ele>1310</ele>
        <time>2018-11-14T07:37:09Z</time>
      </trkpt>
      <trkpt lat="44.67717" lon="6.31856">
        <ele>1312</ele>
        <time>2018-11-14T07:38:09Z</time>
      </trkpt>
      <trkpt lat="44.67711" lon="6.31883">
        <ele>1313</ele>
        <time>2018-11-14T07:39:09Z</time>
      </trkpt>
      <trkpt lat="44.67707" lon="6.31896">
        <ele>1314</ele>
        <time>2018-11-14T07:40:09Z</time>
      </trkpt>
      <trkpt lat="44.67702" lon="6.31904">
        <ele>1315</ele>
        <time>2018-11-14T07:41:09Z</time>
      </trkpt>
      <trkpt lat="44.67697" lon="6.31911">
        <ele>1315</ele>
        <time>2018-11-14T07:42:09Z</time>
      </trkpt>
      <trkpt lat="44.67674" lon="6.31911">
        <ele>1320</ele>
        <time>2018-11-14T07:43:09Z</time>
      </trkpt>
      <trkpt lat="44.67668" lon="6.31913">
        <ele>1321</ele>
        <time>2018-11-14T07:44:09Z</time>
      </trkpt>
      <trkpt lat="44.67662" lon="6.319">
        <ele>1325</ele>
        <time>2018-11-14T07:45:09Z</time>
      </trkpt>
      <trkpt lat="44.67655" lon="6.31891">
        <ele>1330</ele>
        <time>2018-11-14T07:46:09Z</time>
      </trkpt>
      <trkpt lat="44.67652" lon="6.31883">
        <ele>1332</ele>
        <time>2018-11-14T07:47:09Z</time>
      </trkpt>
      <trkpt lat="44.67651" lon="6.31872">
        <ele>1334</ele>
        <time>2018-11-14T07:48:09Z</time>
      </trkpt>
      <trkpt lat="44.67644" lon="6.31859">
        <ele>1340</ele>
        <time>2018-11-14T07:49:09Z</time>
      </trkpt>
      <trkpt lat="44.67644" lon="6.31859">
        <ele>1340</ele>
        <time>2018-11-14T07:50:09Z</time>
      </trkpt>
      <trkpt lat="44.67639" lon="6.3187">
        <ele>1340</ele>
        <time>2018-11-14T07:51:09Z</time>
      </trkpt>
      <trkpt lat="44.67637" lon="6.3188">
        <ele>1339</ele>
        <time>2018-11-14T07:52:09Z</time>
      </trkpt>
      <trkpt lat="44.67633" lon="6.31886">
        <ele>1340</ele>
        <time>2018-11-14T07:53:09Z</time>
      </trkpt>
      <trkpt lat="44.67624" lon="6.31882">
        <ele>1345</ele>
        <time>2018-11-14T07:54:09Z</time>
      </trkpt>
      <trkpt lat="44.67623" lon="6.31869">
        <ele>1347</ele>
        <time>2018-11-14T07:55:09Z</time>
      </trkpt>
      <trkpt lat="44.67618" lon="6.31857">
        <ele>1352</ele>
        <time>2018-11-14T07:56:09Z</time>
      </trkpt>
      <trkpt lat="44.67613" lon="6.31842">
        <ele>1357</ele>
        <time>2018-11-14T07:57:09Z</time>
      </trkpt>
      <trkpt lat="44.67599" lon="6.31844">
        <ele>1363</ele>
        <time>2018-11-14T07:58:09Z</time>
      </trkpt>
      <trkpt lat="44.67591" lon="6.31852">
        <ele>1365</ele>
        <time>2018-11-14T07:59:09Z</time>
      </trkpt>
      <trkpt lat="44.67588" lon="6.31845">
        <ele>1368</ele>
        <time>2018-11-14T08:00:09Z</time>
      </trkpt>
      <trkpt lat="44.67594" lon="6.31832">
        <ele>1368</ele>
        <time>2018-11-14T08:01:09Z</time>
      </trkpt>
      <trkpt lat="44.67595" lon="6.3182">
        <ele>1369</ele>
        <time>2018-11-14T08:02:09Z</time>
      </trkpt>
      <trkpt lat="44.67592" lon="6.31812">
        <ele>1372</ele>
        <time>2018-11-14T08:03:09Z</time>
      </trkpt>
      <trkpt lat="44.67585" lon="6.31784">
        <ele>1380</ele>
        <time>2018-11-14T08:04:09Z</time>
      </trkpt>
      <trkpt lat="44.6758" lon="6.31768">
        <ele>1385</ele>
        <time>2018-11-14T08:05:09Z</time>
      </trkpt>
      <trkpt lat="44.67568" lon="6.31748">
        <ele>1394</ele>
        <time>2018-11-14T08:06:09Z</time>
      </trkpt>
      <trkpt lat="44.67557" lon="6.31723">
        <ele>1400</ele>
        <time>2018-11-14T08:07:09Z</time>
      </trkpt>
      <trkpt lat="44.67553" lon="6.31706">
        <ele>1402</ele>
        <time>2018-11-14T08:08:09Z</time>
      </trkpt>
      <trkpt lat="44.67544" lon="6.31686">
        <ele>1408</ele>
        <time>2018-11-14T08:09:09Z</time>
      </trkpt>
      <trkpt lat="44.6754" lon="6.31665">
        <ele>1411</ele>
        <time>2018-11-14T08:10:09Z</time>
      </trkpt>
      <trkpt lat="44.67536" lon="6.31647">
        <ele>1413</ele>
        <time>2018-11-14T08:11:09Z</time>
      </trkpt>
      <trkpt lat="44.67537" lon="6.31632">
        <ele>1412</ele>
        <time>2018-11-14T08:12:09Z</time>
      </trkpt>
      <trkpt lat="44.67531" lon="6.31605">
        <ele>1415</ele>
        <time>2018-11-14T08:13:09Z</time>
      </trkpt>
      <trkpt lat="44.67525" lon="6.3159">
        <ele>1418</ele>
        <time>2018-11-14T08:14:09Z</time>
      </trkpt>
      <trkpt lat="44.67516" lon="6.31591">
        <ele>1424</ele>
        <time>2018-11-14T08:15:09Z</time>
      </trkpt>
      <trkpt lat="44.67509" lon="6.31584">
        <ele>1429</ele>
        <time>2018-11-14T08:16:09Z</time>
      </trkpt>
      <trkpt lat="44.67495" lon="6.31565">
        <ele>1438</ele>
        <time>2018-11-14T08:17:09Z</time>
      </trkpt>
      <trkpt lat="44.67491" lon="6.31557">
        <ele>1440</ele>
        <time>2018-11-14T08:18:09Z</time>
      </trkpt>
      <trkpt lat="44.67489" lon="6.31584">
        <ele>1443</ele>
        <time>2018-11-14T08:19:09Z</time>
      </trkpt>
      <trkpt lat="44.67487" lon="6.31589">
        <ele>1444</ele>
        <time>2018-11-14T08:20:09Z</time>
      </trkpt>
      <trkpt lat="44.67482" lon="6.31578">
        <ele>1448</ele>
        <time>2018-11-14T08:21:09Z</time>
      </trkpt>
      <trkpt lat="44.6748" lon="6.31555">
        <ele>1448</ele>
        <time>2018-11-14T08:22:09Z</time>
      </trkpt>
      <trkpt lat="44.67468" lon="6.31534">
        <ele>1455</ele>
        <time>2018-11-14T08:23:09Z</time>
      </trkpt>
      <trkpt lat="44.67463" lon="6.31501">
        <ele>1457</ele>
        <time>2018-11-14T08:24:09Z</time>
      </trkpt>
      <trkpt lat="44.67463" lon="6.31475">
        <ele>1457</ele>
        <time>2018-11-14T08:25:09Z</time>
      </trkpt>
      <trkpt lat="44.67456" lon="6.31448">
        <ele>1460</ele>
        <time>2018-11-14T08:26:09Z</time>
      </trkpt>
      <trkpt lat="44.67448" lon="6.31395">
        <ele>1462</ele>
        <time>2018-11-14T08:27:09Z</time>
      </trkpt>
      <trkpt lat="44.67454" lon="6.31356">
        <ele>1455</ele>
        <time>2018-11-14T08:28:09Z</time>
      </trkpt>
      <trkpt lat="44.67454" lon="6.31341">
        <ele>1454</ele>
        <time>2018-11-14T08:29:09Z</time>
      </trkpt>
      <trkpt lat="44.6746" lon="6.31307">
        <ele>1450</ele>
        <time>2018-11-14T08:30:09Z</time>
      </trkpt>
      <trkpt lat="44.67461" lon="6.31267">
        <ele>1448</ele>
        <time>2018-11-14T08:31:09Z</time>
      </trkpt>
      <trkpt lat="44.67454" lon="6.31206">
        <ele>1454</ele>
        <time>2018-11-14T08:32:09Z</time>
      </trkpt>
      <trkpt lat="44.67464" lon="6.31172">
        <ele>1453</ele>
        <time>2018-11-14T08:33:09Z</time>
      </trkpt>
      <trkpt lat="44.67472" lon="6.31123">
        <ele>1453</ele>
        <time>2018-11-14T08:34:09Z</time>
      </trkpt>
      <trkpt lat="44.6748" lon="6.31081">
        <ele>1452</ele>
        <time>2018-11-14T08:35:09Z</time>
      </trkpt>
      <trkpt lat="44.67486" lon="6.31001">
        <ele>1451</ele>
        <time>2018-11-14T08:36:09Z</time>
      </trkpt>
      <trkpt lat="44.67484" lon="6.30968">
        <ele>1450</ele>
        <time>2018-11-14T08:37:09Z</time>
      </trkpt>
      <trkpt lat="44.67493" lon="6.30918">
        <ele>1441</ele>
        <time>2018-11-14T08:38:09Z</time>
      </trkpt>
      <trkpt lat="44.67495" lon="6.30897">
        <ele>1438</ele>
        <time>2018-11-14T08:39:09Z</time>
      </trkpt>
      <trkpt lat="44.67489" lon="6.30876">
        <ele>1440</ele>
        <time>2018-11-14T08:40:09Z</time>
      </trkpt>
      <trkpt lat="44.67475" lon="6.30872">
        <ele>1447</ele>
        <time>2018-11-14T08:41:09Z</time>
      </trkpt>
      <trkpt lat="44.67465" lon="6.30854">
        <ele>1450</ele>
        <time>2018-11-14T08:42:09Z</time>
      </trkpt>
      <trkpt lat="44.67456" lon="6.30829">
        <ele>1453</ele>
        <time>2018-11-14T08:43:09Z</time>
      </trkpt>
      <trkpt lat="44.67457" lon="6.30814">
        <ele>1454</ele>
        <time>2018-11-14T08:44:09Z</time>
      </trkpt>
      <trkpt lat="44.67472" lon="6.30793">
        <ele>1449</ele>
        <time>2018-11-14T08:45:09Z</time>
      </trkpt>
      <trkpt lat="44.67501" lon="6.30769">
        <ele>1438</ele>
        <time>2018-11-14T08:46:09Z</time>
      </trkpt>
      <trkpt lat="44.67515" lon="6.30759">
        <ele>1434</ele>
        <time>2018-11-14T08:47:09Z</time>
      </trkpt>
      <trkpt lat="44.67531" lon="6.30725">
        <ele>1432</ele>
        <time>2018-11-14T08:48:09Z</time>
      </trkpt>
      <trkpt lat="44.67543" lon="6.30694">
        <ele>1431</ele>
        <time>2018-11-14T08:49:09Z</time>
      </trkpt>
      <trkpt lat="44.67554" lon="6.30639">
        <ele>1429</ele>
        <time>2018-11-14T08:50:09Z</time>
      </trkpt>
      <trkpt lat="44.67551" lon="6.30605">
        <ele>1431</ele>
        <time>2018-11-14T08:51:09Z</time>
      </trkpt>
      <trkpt lat="44.67557" lon="6.30579">
        <ele>1429</ele>
        <time>2018-11-14T08:52:09Z</time>
      </trkpt>
      <trkpt lat="44.67558" lon="6.30548">
        <ele>1433</ele>
        <time>2018-11-14T08:53:09Z</time>
      </trkpt>
      <trkpt lat="44.67557" lon="6.30526">
        <ele>1438</ele>
        <time>2018-11-14T08:54:09Z</time>
      </trkpt>
      <trkpt lat="44.67615" lon="6.30379">
        <ele>1435</ele>
        <time>2018-11-14T08:55:09Z</time>
      </trkpt>
      <trkpt lat="44.67622" lon="6.3034">
        <ele>1439</ele>
        <time>2018-11-14T08:56:09Z</time>
      </trkpt>
      <trkpt lat="44.67631" lon="6.30326">
        <ele>1436</ele>
        <time>2018-11-14T08:57:09Z</time>
      </trkpt>
      <trkpt lat="44.67632" lon="6.30312">
        <ele>1438</ele>
        <time>2018-11-14T08:58:09Z</time>
      </trkpt>
      <trkpt lat="44.67633" lon="6.30292">
        <ele>1442</ele>
        <time>2018-11-14T08:59:09Z</time>
      </trkpt>
      <trkpt lat="44.67643" lon="6.30271">
        <ele>1439</ele>
        <time>2018-11-14T09:00:09Z</time>
      </trkpt>
      <trkpt lat="44.67646" lon="6.3026">
        <ele>1439</ele>
        <time>2018-11-14T09:01:09Z</time>
      </trkpt>
      <trkpt lat="44.6765" lon="6.30233">
        <ele>1442</ele>
        <time>2018-11-14T09:02:09Z</time>
      </trkpt>
      <trkpt lat="44.67659" lon="6.30223">
        <ele>1436</ele>
        <time>2018-11-14T09:03:09Z</time>
      </trkpt>
      <trkpt lat="44.67664" lon="6.30199">
        <ele>1436</ele>
        <time>2018-11-14T09:04:09Z</time>
      </trkpt>
      <trkpt lat="44.67661" lon="6.30182">
        <ele>1444</ele>
        <time>2018-11-14T09:05:09Z</time>
      </trkpt>
      <trkpt lat="44.67678" lon="6.30135">
        <ele>1443</ele>
        <time>2018-11-14T09:06:09Z</time>
      </trkpt>
      <trkpt lat="44.67684" lon="6.3011">
        <ele>1446</ele>
        <time>2018-11-14T09:07:09Z</time>
      </trkpt>
      <trkpt lat="44.67684" lon="6.30088">
        <ele>1453</ele>
        <time>2018-11-14T09:08:09Z</time>
      </trkpt>
      <trkpt lat="44.67677" lon="6.30032">
        <ele>1468</ele>
        <time>2018-11-14T09:09:09Z</time>
      </trkpt>
      <trkpt lat="44.67679" lon="6.29999">
        <ele>1471</ele>
        <time>2018-11-14T09:10:09Z</time>
      </trkpt>
      <trkpt lat="44.67692" lon="6.29965">
        <ele>1459</ele>
        <time>2018-11-14T09:11:09Z</time>
      </trkpt>
      <trkpt lat="44.67696" lon="6.29945">
        <ele>1455</ele>
        <time>2018-11-14T09:12:09Z</time>
      </trkpt>
      <trkpt lat="44.67707" lon="6.29923">
        <ele>1446</ele>
        <time>2018-11-14T09:13:09Z</time>
      </trkpt>
      <trkpt lat="44.67705" lon="6.29902">
        <ele>1448</ele>
        <time>2018-11-14T09:14:09Z</time>
      </trkpt>
      <trkpt lat="44.6769" lon="6.29877">
        <ele>1459</ele>
        <time>2018-11-14T09:15:09Z</time>
      </trkpt>
      <trkpt lat="44.67687" lon="6.29855">
        <ele>1460</ele>
        <time>2018-11-14T09:16:09Z</time>
      </trkpt>
      <trkpt lat="44.67683" lon="6.29829">
        <ele>1462</ele>
        <time>2018-11-14T09:17:09Z</time>
      </trkpt>
      <trkpt lat="44.67685" lon="6.29811">
        <ele>1463</ele>
        <time>2018-11-14T09:18:09Z</time>
      </trkpt>
      <trkpt lat="44.67684" lon="6.29787">
        <ele>1467</ele>
        <time>2018-11-14T09:19:09Z</time>
      </trkpt>
      <trkpt lat="44.67691" lon="6.29768">
        <ele>1465</ele>
        <time>2018-11-14T09:20:09Z</time>
      </trkpt>
      <trkpt lat="44.67713" lon="6.29749">
        <ele>1455</ele>
        <time>2018-11-14T09:21:09Z</time>
      </trkpt>
      <trkpt lat="44.67719" lon="6.29725">
        <ele>1454</ele>
        <time>2018-11-14T09:22:09Z</time>
      </trkpt>
      <trkpt lat="44.6772" lon="6.29666">
        <ele>1460</ele>
        <time>2018-11-14T09:23:09Z</time>
      </trkpt>
      <trkpt lat="44.67712" lon="6.29617">
        <ele>1470</ele>
        <time>2018-11-14T09:24:09Z</time>
      </trkpt>
      <trkpt lat="44.67706" lon="6.29573">
        <ele>1478</ele>
        <time>2018-11-14T09:25:09Z</time>
      </trkpt>
      <trkpt lat="44.67706" lon="6.29552">
        <ele>1482</ele>
        <time>2018-11-14T09:26:09Z</time>
      </trkpt>
      <trkpt lat="44.6773" lon="6.29502">
        <ele>1474</ele>
        <time>2018-11-14T09:27:09Z</time>
      </trkpt>
      <trkpt lat="44.67743" lon="6.29457">
        <ele>1473</ele>
        <time>2018-11-14T09:28:09Z</time>
      </trkpt>
      <trkpt lat="44.67747" lon="6.29434">
        <ele>1474</ele>
        <time>2018-11-14T09:29:09Z</time>
      </trkpt>
      <trkpt lat="44.67764" lon="6.29377">
        <ele>1470</ele>
        <time>2018-11-14T09:30:09Z</time>
      </trkpt>
      <trkpt lat="44.67765" lon="6.29348">
        <ele>1473</ele>
        <time>2018-11-14T09:31:09Z</time>
      </trkpt>
      <trkpt lat="44.6777" lon="6.29318">
        <ele>1473</ele>
        <time>2018-11-14T09:32:09Z</time>
      </trkpt>
      <trkpt lat="44.67798" lon="6.29241">
        <ele>1464</ele>
        <time>2018-11-14T09:33:09Z</time>
      </trkpt>
      <trkpt lat="44.67806" lon="6.29189">
        <ele>1469</ele>
        <time>2018-11-14T09:34:09Z</time>
      </trkpt>
      <trkpt lat="44.6782" lon="6.29142">
        <ele>1470</ele>
        <time>2018-11-14T09:35:09Z</time>
      </trkpt>
      <trkpt lat="44.67838" lon="6.29102">
        <ele>1464</ele>
        <time>2018-11-14T09:36:09Z</time>
      </trkpt>
      <trkpt lat="44.67846" lon="6.29068">
        <ele>1458</ele>
        <time>2018-11-14T09:37:09Z</time>
      </trkpt>
      <trkpt lat="44.67846" lon="6.29035">
        <ele>1458</ele>
        <time>2018-11-14T09:38:09Z</time>
      </trkpt>
      <trkpt lat="44.67832" lon="6.29002">
        <ele>1470</ele>
        <time>2018-11-14T09:39:09Z</time>
      </trkpt>
      <trkpt lat="44.67828" lon="6.28976">
        <ele>1470</ele>
        <time>2018-11-14T09:40:09Z</time>
      </trkpt>
      <trkpt lat="44.67838" lon="6.28893">
        <ele>1464</ele>
        <time>2018-11-14T09:41:09Z</time>
      </trkpt>
      <trkpt lat="44.67854" lon="6.28821">
        <ele>1459</ele>
        <time>2018-11-14T09:42:09Z</time>
      </trkpt>
      <trkpt lat="44.67862" lon="6.28797">
        <ele>1457</ele>
        <time>2018-11-14T09:43:09Z</time>
      </trkpt>
      <trkpt lat="44.67867" lon="6.28778">
        <ele>1457</ele>
        <time>2018-11-14T09:44:09Z</time>
      </trkpt>
      <trkpt lat="44.67869" lon="6.28753">
        <ele>1459</ele>
        <time>2018-11-14T09:45:09Z</time>
      </trkpt>
      <trkpt lat="44.67878" lon="6.28735">
        <ele>1456</ele>
        <time>2018-11-14T09:46:09Z</time>
      </trkpt>
      <trkpt lat="44.67888" lon="6.28697">
        <ele>1456</ele>
        <time>2018-11-14T09:47:09Z</time>
      </trkpt>
      <trkpt lat="44.67895" lon="6.28654">
        <ele>1457</ele>
        <time>2018-11-14T09:48:09Z</time>
      </trkpt>
      <trkpt lat="44.67905" lon="6.28623">
        <ele>1455</ele>
        <time>2018-11-14T09:49:09Z</time>
      </trkpt>
      <trkpt lat="44.67909" lon="6.28582">
        <ele>1457</ele>
        <time>2018-11-14T09:50:09Z</time>
      </trkpt>
      <trkpt lat="44.67915" lon="6.28556">
        <ele>1456</ele>
        <time>2018-11-14T09:51:09Z</time>
      </trkpt>
      <trkpt lat="44.67914" lon="6.28538">
        <ele>1457</ele>
        <time>2018-11-14T09:52:09Z</time>
      </trkpt>
      <trkpt lat="44.67925" lon="6.28489">
        <ele>1452</ele>
        <time>2018-11-14T09:53:09Z</time>
      </trkpt>
      <trkpt lat="44.67942" lon="6.28423">
        <ele>1444</ele>
        <time>2018-11-14T09:54:09Z</time>
      </trkpt>
      <trkpt lat="44.67948" lon="6.28377">
        <ele>1442</ele>
        <time>2018-11-14T09:55:09Z</time>
      </trkpt>
      <trkpt lat="44.6794" lon="6.28346">
        <ele>1445</ele>
        <time>2018-11-14T09:56:09Z</time>
      </trkpt>
      <trkpt lat="44.67925" lon="6.28308">
        <ele>1450</ele>
        <time>2018-11-14T09:57:09Z</time>
      </trkpt>
      <trkpt lat="44.67926" lon="6.28278">
        <ele>1450</ele>
        <time>2018-11-14T09:58:09Z</time>
      </trkpt>
      <trkpt lat="44.67929" lon="6.28247">
        <ele>1449</ele>
        <time>2018-11-14T09:59:09Z</time>
      </trkpt>
      <trkpt lat="44.6794" lon="6.28195">
        <ele>1444</ele>
        <time>2018-11-14T10:00:09Z</time>
      </trkpt>
      <trkpt lat="44.67943" lon="6.28164">
        <ele>1442</ele>
        <time>2018-11-14T10:01:09Z</time>
      </trkpt>
      <trkpt lat="44.67936" lon="6.28125">
        <ele>1444</ele>
        <time>2018-11-14T10:02:09Z</time>
      </trkpt>
      <trkpt lat="44.67932" lon="6.28091">
        <ele>1444</ele>
        <time>2018-11-14T10:03:09Z</time>
      </trkpt>
      <trkpt lat="44.67931" lon="6.28039">
        <ele>1442</ele>
        <time>2018-11-14T10:04:09Z</time>
      </trkpt>
      <trkpt lat="44.67937" lon="6.27952">
        <ele>1433</ele>
        <time>2018-11-14T10:05:09Z</time>
      </trkpt>
      <trkpt lat="44.67938" lon="6.27904">
        <ele>1430</ele>
        <time>2018-11-14T10:06:09Z</time>
      </trkpt>
      <trkpt lat="44.67939" lon="6.27874">
        <ele>1428</ele>
        <time>2018-11-14T10:07:09Z</time>
      </trkpt>
      <trkpt lat="44.67925" lon="6.27823">
        <ele>1433</ele>
        <time>2018-11-14T10:08:09Z</time>
      </trkpt>
      <trkpt lat="44.67923" lon="6.27786">
        <ele>1434</ele>
        <time>2018-11-14T10:09:09Z</time>
      </trkpt>
      <trkpt lat="44.67928" lon="6.2777">
        <ele>1433</ele>
        <time>2018-11-14T10:10:09Z</time>
      </trkpt>
      <trkpt lat="44.6793" lon="6.27756">
        <ele>1433</ele>
        <time>2018-11-14T10:11:09Z</time>
      </trkpt>
      <trkpt lat="44.67932" lon="6.27744">
        <ele>1433</ele>
        <time>2018-11-14T10:12:09Z</time>
      </trkpt>
      <trkpt lat="44.67922" lon="6.27725">
        <ele>1438</ele>
        <time>2018-11-14T10:13:09Z</time>
      </trkpt>
      <trkpt lat="44.67918" lon="6.27698">
        <ele>1443</ele>
        <time>2018-11-14T10:14:09Z</time>
      </trkpt>
      <trkpt lat="44.67909" lon="6.27674">
        <ele>1448</ele>
        <time>2018-11-14T10:15:09Z</time>
      </trkpt>
      <trkpt lat="44.67909" lon="6.2764">
        <ele>1448</ele>
        <time>2018-11-14T10:16:09Z</time>
      </trkpt>
      <trkpt lat="44.67902" lon="6.27621">
        <ele>1450</ele>
        <time>2018-11-14T10:17:09Z</time>
      </trkpt>
      <trkpt lat="44.67904" lon="6.27607">
        <ele>1449</ele>
        <time>2018-11-14T10:18:09Z</time>
      </trkpt>
      <trkpt lat="44.67902" lon="6.27589">
        <ele>1449</ele>
        <time>2018-11-14T10:19:09Z</time>
      </trkpt>
      <trkpt lat="44.67894" lon="6.27571">
        <ele>1449</ele>
        <time>2018-11-14T10:20:09Z</time>
      </trkpt>
      <trkpt lat="44.6787" lon="6.27555">
        <ele>1450</ele>
        <time>2018-11-14T10:21:09Z</time>
      </trkpt>
      <trkpt lat="44.67858" lon="6.27554">
        <ele>1451</ele>
        <time>2018-11-14T10:22:09Z</time>
      </trkpt>
      <trkpt lat="44.67855" lon="6.27567">
        <ele>1452</ele>
        <time>2018-11-14T10:23:09Z</time>
      </trkpt>
      <trkpt lat="44.67845" lon="6.27585">
        <ele>1455</ele>
        <time>2018-11-14T10:24:09Z</time>
      </trkpt>
      <trkpt lat="44.67832" lon="6.27609">
        <ele>1458</ele>
        <time>2018-11-14T10:25:09Z</time>
      </trkpt>
      <trkpt lat="44.67809" lon="6.27574">
        <ele>1458</ele>
        <time>2018-11-14T10:26:09Z</time>
      </trkpt>
      <trkpt lat="44.6775" lon="6.2753">
        <ele>1464</ele>
        <time>2018-11-14T10:27:09Z</time>
      </trkpt>
      <trkpt lat="44.6773" lon="6.27512">
        <ele>1464</ele>
        <time>2018-11-14T10:28:09Z</time>
      </trkpt>
      <trkpt lat="44.67711" lon="6.27512">
        <ele>1465</ele>
        <time>2018-11-14T10:29:09Z</time>
      </trkpt>
      <trkpt lat="44.67698" lon="6.2753">
        <ele>1469</ele>
        <time>2018-11-14T10:30:09Z</time>
      </trkpt>
      <trkpt lat="44.67691" lon="6.27555">
        <ele>1473</ele>
        <time>2018-11-14T10:31:09Z</time>
      </trkpt>
      <trkpt lat="44.67687" lon="6.27579">
        <ele>1478</ele>
        <time>2018-11-14T10:32:09Z</time>
      </trkpt>
      <trkpt lat="44.67683" lon="6.27567">
        <ele>1476</ele>
        <time>2018-11-14T10:33:09Z</time>
      </trkpt>
      <trkpt lat="44.67653" lon="6.27552">
        <ele>1480</ele>
        <time>2018-11-14T10:34:09Z</time>
      </trkpt>
      <trkpt lat="44.67592" lon="6.27503">
        <ele>1483</ele>
        <time>2018-11-14T10:35:09Z</time>
      </trkpt>
      <trkpt lat="44.67572" lon="6.27491">
        <ele>1483</ele>
        <time>2018-11-14T10:36:09Z</time>
      </trkpt>
      <trkpt lat="44.67566" lon="6.27492">
        <ele>1484</ele>
        <time>2018-11-14T10:37:09Z</time>
      </trkpt>
      <trkpt lat="44.67572" lon="6.27507">
        <ele>1488</ele>
        <time>2018-11-14T10:38:09Z</time>
      </trkpt>
      <trkpt lat="44.67558" lon="6.27498">
        <ele>1487</ele>
        <time>2018-11-14T10:39:09Z</time>
      </trkpt>
      <trkpt lat="44.67531" lon="6.27495">
        <ele>1490</ele>
        <time>2018-11-14T10:40:09Z</time>
      </trkpt>
      <trkpt lat="44.67521" lon="6.27496">
        <ele>1492</ele>
        <time>2018-11-14T10:41:09Z</time>
      </trkpt>
      <trkpt lat="44.67502" lon="6.27492">
        <ele>1493</ele>
        <time>2018-11-14T10:42:09Z</time>
      </trkpt>
      <trkpt lat="44.67493" lon="6.27489">
        <ele>1493</ele>
        <time>2018-11-14T10:43:09Z</time>
      </trkpt>
      <trkpt lat="44.6748" lon="6.2749">
        <ele>1495</ele>
        <time>2018-11-14T10:44:09Z</time>
      </trkpt>
      <trkpt lat="44.67459" lon="6.27485">
        <ele>1496</ele>
        <time>2018-11-14T10:45:09Z</time>
      </trkpt>
      <trkpt lat="44.67463" lon="6.27504">
        <ele>1502</ele>
        <time>2018-11-14T10:46:09Z</time>
      </trkpt>
      <trkpt lat="44.67454" lon="6.27502">
        <ele>1502</ele>
        <time>2018-11-14T10:47:09Z</time>
      </trkpt>
      <trkpt lat="44.67446" lon="6.27507">
        <ele>1505</ele>
        <time>2018-11-14T10:48:09Z</time>
      </trkpt>
      <trkpt lat="44.67438" lon="6.27522">
        <ele>1510</ele>
        <time>2018-11-14T10:49:09Z</time>
      </trkpt>
      <trkpt lat="44.67426" lon="6.27533">
        <ele>1515</ele>
        <time>2018-11-14T10:50:09Z</time>
      </trkpt>
      <trkpt lat="44.67411" lon="6.27528">
        <ele>1514</ele>
        <time>2018-11-14T10:51:09Z</time>
      </trkpt>
      <trkpt lat="44.67394" lon="6.27521">
        <ele>1509</ele>
        <time>2018-11-14T10:52:09Z</time>
      </trkpt>
      <trkpt lat="44.6737" lon="6.27526">
        <ele>1508</ele>
        <time>2018-11-14T10:53:09Z</time>
      </trkpt>
      <trkpt lat="44.67358" lon="6.27522">
        <ele>1505</ele>
        <time>2018-11-14T10:54:09Z</time>
      </trkpt>
      <trkpt lat="44.6735" lon="6.27525">
        <ele>1505</ele>
        <time>2018-11-14T10:55:09Z</time>
      </trkpt>
      <trkpt lat="44.67346" lon="6.2754">
        <ele>1509</ele>
        <time>2018-11-14T10:56:09Z</time>
      </trkpt>
      <trkpt lat="44.67327" lon="6.27539">
        <ele>1507</ele>
        <time>2018-11-14T10:57:09Z</time>
      </trkpt>
      <trkpt lat="44.67311" lon="6.27537">
        <ele>1504</ele>
        <time>2018-11-14T10:58:09Z</time>
      </trkpt>
      <trkpt lat="44.67281" lon="6.27531">
        <ele>1500</ele>
        <time>2018-11-14T10:59:09Z</time>
      </trkpt>
      <trkpt lat="44.67248" lon="6.2753">
        <ele>1497</ele>
        <time>2018-11-14T11:00:09Z</time>
      </trkpt>
      <trkpt lat="44.67226" lon="6.27532">
        <ele>1499</ele>
        <time>2018-11-14T11:01:09Z</time>
      </trkpt>
      <trkpt lat="44.67221" lon="6.27538">
        <ele>1501</ele>
        <time>2018-11-14T11:02:09Z</time>
      </trkpt>
      <trkpt lat="44.67209" lon="6.27531">
        <ele>1499</ele>
        <time>2018-11-14T11:03:09Z</time>
      </trkpt>
      <trkpt lat="44.67179" lon="6.27521">
        <ele>1499</ele>
        <time>2018-11-14T11:04:09Z</time>
      </trkpt>
      <trkpt lat="44.67175" lon="6.27525">
        <ele>1500</ele>
        <time>2018-11-14T11:05:09Z</time>
      </trkpt>
      <trkpt lat="44.67179" lon="6.27537">
        <ele>1503</ele>
        <time>2018-11-14T11:06:09Z</time>
      </trkpt>
      <trkpt lat="44.67156" lon="6.27544">
        <ele>1507</ele>
        <time>2018-11-14T11:07:09Z</time>
      </trkpt>
      <trkpt lat="44.67137" lon="6.27549">
        <ele>1513</ele>
        <time>2018-11-14T11:08:09Z</time>
      </trkpt>
      <trkpt lat="44.6712" lon="6.27545">
        <ele>1516</ele>
        <time>2018-11-14T11:09:09Z</time>
      </trkpt>
      <trkpt lat="44.67107" lon="6.27551">
        <ele>1520</ele>
        <time>2018-11-14T11:10:09Z</time>
      </trkpt>
      <trkpt lat="44.67091" lon="6.2756">
        <ele>1525</ele>
        <time>2018-11-14T11:11:09Z</time>
      </trkpt>
      <trkpt lat="44.67074" lon="6.27592">
        <ele>1535</ele>
        <time>2018-11-14T11:12:09Z</time>
      </trkpt>
      <trkpt lat="44.67061" lon="6.27609">
        <ele>1543</ele>
        <time>2018-11-14T11:13:09Z</time>
      </trkpt>
      <trkpt lat="44.67045" lon="6.27617">
        <ele>1550</ele>
        <time>2018-11-14T11:14:09Z</time>
      </trkpt>
      <trkpt lat="44.67036" lon="6.27617">
        <ele>1552</ele>
        <time>2018-11-14T11:15:09Z</time>
      </trkpt>
      <trkpt lat="44.6703" lon="6.27639">
        <ele>1561</ele>
        <time>2018-11-14T11:16:09Z</time>
      </trkpt>
      <trkpt lat="44.67009" lon="6.27647">
        <ele>1569</ele>
        <time>2018-11-14T11:17:09Z</time>
      </trkpt>
      <trkpt lat="44.6699" lon="6.27642">
        <ele>1572</ele>
        <time>2018-11-14T11:18:09Z</time>
      </trkpt>
      <trkpt lat="44.6698" lon="6.27636">
        <ele>1572</ele>
        <time>2018-11-14T11:19:09Z</time>
      </trkpt>
      <trkpt lat="44.66946" lon="6.27639">
        <ele>1580</ele>
        <time>2018-11-14T11:20:09Z</time>
      </trkpt>
      <trkpt lat="44.66932" lon="6.27639">
        <ele>1583</ele>
        <time>2018-11-14T11:21:09Z</time>
      </trkpt>
      <trkpt lat="44.66903" lon="6.27647">
        <ele>1594</ele>
        <time>2018-11-14T11:22:09Z</time>
      </trkpt>
      <trkpt lat="44.66877" lon="6.2765">
        <ele>1603</ele>
        <time>2018-11-14T11:23:09Z</time>
      </trkpt>
      <trkpt lat="44.66861" lon="6.27641">
        <ele>1606</ele>
        <time>2018-11-14T11:24:09Z</time>
      </trkpt>
      <trkpt lat="44.66853" lon="6.27648">
        <ele>1611</ele>
        <time>2018-11-14T11:25:09Z</time>
      </trkpt>
      <trkpt lat="44.66834" lon="6.27649">
        <ele>1617</ele>
        <time>2018-11-14T11:26:09Z</time>
      </trkpt>
      <trkpt lat="44.66803" lon="6.27648">
        <ele>1625</ele>
        <time>2018-11-14T11:27:09Z</time>
      </trkpt>
      <trkpt lat="44.66785" lon="6.27633">
        <ele>1625</ele>
        <time>2018-11-14T11:28:09Z</time>
      </trkpt>
      <trkpt lat="44.66771" lon="6.27601">
        <ele>1617</ele>
        <time>2018-11-14T11:29:09Z</time>
      </trkpt>
      <trkpt lat="44.66747" lon="6.27576">
        <ele>1615</ele>
        <time>2018-11-14T11:30:09Z</time>
      </trkpt>
      <trkpt lat="44.66714" lon="6.27586">
        <ele>1620</ele>
        <time>2018-11-14T11:31:09Z</time>
      </trkpt>
      <trkpt lat="44.66685" lon="6.27583">
        <ele>1623</ele>
        <time>2018-11-14T11:32:09Z</time>
      </trkpt>
      <trkpt lat="44.66672" lon="6.2757">
        <ele>1625</ele>
        <time>2018-11-14T11:33:09Z</time>
      </trkpt>
      <trkpt lat="44.66672" lon="6.27515">
        <ele>1629</ele>
        <time>2018-11-14T11:34:09Z</time>
      </trkpt>
      <trkpt lat="44.66698" lon="6.27482">
        <ele>1627</ele>
        <time>2018-11-14T11:35:09Z</time>
      </trkpt>
      <trkpt lat="44.66744" lon="6.27447">
        <ele>1619</ele>
        <time>2018-11-14T11:36:09Z</time>
      </trkpt>
      <trkpt lat="44.66756" lon="6.27392">
        <ele>1632</ele>
        <time>2018-11-14T11:37:09Z</time>
      </trkpt>
      <trkpt lat="44.66773" lon="6.27386">
        <ele>1632</ele>
        <time>2018-11-14T11:38:09Z</time>
      </trkpt>
      <trkpt lat="44.66814" lon="6.27385">
        <ele>1624</ele>
        <time>2018-11-14T11:39:09Z</time>
      </trkpt>
      <trkpt lat="44.66868" lon="6.27367">
        <ele>1621</ele>
        <time>2018-11-14T11:40:09Z</time>
      </trkpt>
      <trkpt lat="44.66906" lon="6.27304">
        <ele>1634</ele>
        <time>2018-11-14T11:41:09Z</time>
      </trkpt>
      <trkpt lat="44.66931" lon="6.27271">
        <ele>1640</ele>
        <time>2018-11-14T11:42:09Z</time>
      </trkpt>
      <trkpt lat="44.66959" lon="6.27243">
        <ele>1641</ele>
        <time>2018-11-14T11:43:09Z</time>
      </trkpt>
      <trkpt lat="44.66982" lon="6.27201">
        <ele>1641</ele>
        <time>2018-11-14T11:44:09Z</time>
      </trkpt>
      <trkpt lat="44.6699" lon="6.27179">
        <ele>1642</ele>
        <time>2018-11-14T11:45:09Z</time>
      </trkpt>
      <trkpt lat="44.66992" lon="6.27162">
        <ele>1643</ele>
        <time>2018-11-14T11:46:09Z</time>
      </trkpt>
      <trkpt lat="44.66987" lon="6.27141">
        <ele>1644</ele>
        <time>2018-11-14T11:47:09Z</time>
      </trkpt>
      <trkpt lat="44.6697" lon="6.27088">
        <ele>1652</ele>
        <time>2018-11-14T11:48:09Z</time>
      </trkpt>
      <trkpt lat="44.66963" lon="6.27039">
        <ele>1650</ele>
        <time>2018-11-14T11:49:09Z</time>
      </trkpt>
      <trkpt lat="44.66918" lon="6.26971">
        <ele>1663</ele>
        <time>2018-11-14T11:50:09Z</time>
      </trkpt>
      <trkpt lat="44.6687" lon="6.26928">
        <ele>1668</ele>
        <time>2018-11-14T11:51:09Z</time>
      </trkpt>
      <trkpt lat="44.66836" lon="6.26911">
        <ele>1674</ele>
        <time>2018-11-14T11:52:09Z</time>
      </trkpt>
      <trkpt lat="44.66783" lon="6.26874">
        <ele>1676</ele>
        <time>2018-11-14T11:53:09Z</time>
      </trkpt>
      <trkpt lat="44.66753" lon="6.26854">
        <ele>1676</ele>
        <time>2018-11-14T11:54:09Z</time>
      </trkpt>
      <trkpt lat="44.66706" lon="6.26845">
        <ele>1683</ele>
        <time>2018-11-14T11:55:09Z</time>
      </trkpt>
      <trkpt lat="44.66689" lon="6.26837">
        <ele>1683</ele>
        <time>2018-11-14T11:56:09Z</time>
      </trkpt>
      <trkpt lat="44.66663" lon="6.26819">
        <ele>1685</ele>
        <time>2018-11-14T11:57:09Z</time>
      </trkpt>
      <trkpt lat="44.66639" lon="6.26797">
        <ele>1690</ele>
        <time>2018-11-14T11:58:09Z</time>
      </trkpt>
      <trkpt lat="44.66603" lon="6.2677">
        <ele>1702</ele>
        <time>2018-11-14T11:59:09Z</time>
      </trkpt>
      <trkpt lat="44.6659" lon="6.26751">
        <ele>1706</ele>
        <time>2018-11-14T12:00:09Z</time>
      </trkpt>
      <trkpt lat="44.66595" lon="6.26719">
        <ele>1706</ele>
        <time>2018-11-14T12:01:09Z</time>
      </trkpt>
      <trkpt lat="44.6661" lon="6.26673">
        <ele>1700</ele>
        <time>2018-11-14T12:02:09Z</time>
      </trkpt>
      <trkpt lat="44.66621" lon="6.26598">
        <ele>1697</ele>
        <time>2018-11-14T12:03:09Z</time>
      </trkpt>
      <trkpt lat="44.6661" lon="6.26565">
        <ele>1700</ele>
        <time>2018-11-14T12:04:09Z</time>
      </trkpt>
      <trkpt lat="44.66587" lon="6.26547">
        <ele>1706</ele>
        <time>2018-11-14T12:05:09Z</time>
      </trkpt>
      <trkpt lat="44.66555" lon="6.26509">
        <ele>1710</ele>
        <time>2018-11-14T12:06:09Z</time>
      </trkpt>
      <trkpt lat="44.66538" lon="6.26488">
        <ele>1711</ele>
        <time>2018-11-14T12:07:09Z</time>
      </trkpt>
      <trkpt lat="44.66491" lon="6.26444">
        <ele>1717</ele>
        <time>2018-11-14T12:08:09Z</time>
      </trkpt>
      <trkpt lat="44.66468" lon="6.26427">
        <ele>1723</ele>
        <time>2018-11-14T12:09:09Z</time>
      </trkpt>
      <trkpt lat="44.66432" lon="6.26405">
        <ele>1738</ele>
        <time>2018-11-14T12:10:09Z</time>
      </trkpt>
      <trkpt lat="44.66431" lon="6.26382">
        <ele>1737</ele>
        <time>2018-11-14T12:11:09Z</time>
      </trkpt>
      <trkpt lat="44.66437" lon="6.26362">
        <ele>1732</ele>
        <time>2018-11-14T12:12:09Z</time>
      </trkpt>
      <trkpt lat="44.66462" lon="6.26332">
        <ele>1717</ele>
        <time>2018-11-14T12:13:09Z</time>
      </trkpt>
      <trkpt lat="44.66472" lon="6.26309">
        <ele>1713</ele>
        <time>2018-11-14T12:14:09Z</time>
      </trkpt>
      <trkpt lat="44.66472" lon="6.26277">
        <ele>1715</ele>
        <time>2018-11-14T12:15:09Z</time>
      </trkpt>
      <trkpt lat="44.66466" lon="6.26265">
        <ele>1719</ele>
        <time>2018-11-14T12:16:09Z</time>
      </trkpt>
      <trkpt lat="44.66461" lon="6.2624">
        <ele>1721</ele>
        <time>2018-11-14T12:17:09Z</time>
      </trkpt>
      <trkpt lat="44.66466" lon="6.26217">
        <ele>1719</ele>
        <time>2018-11-14T12:18:09Z</time>
      </trkpt>
      <trkpt lat="44.66478" lon="6.26197">
        <ele>1716</ele>
        <time>2018-11-14T12:19:09Z</time>
      </trkpt>
      <trkpt lat="44.66499" lon="6.26152">
        <ele>1712</ele>
        <time>2018-11-14T12:20:09Z</time>
      </trkpt>
      <trkpt lat="44.66486" lon="6.26129">
        <ele>1709</ele>
        <time>2018-11-14T12:21:09Z</time>
      </trkpt>
      <trkpt lat="44.6644" lon="6.26151">
        <ele>1718</ele>
        <time>2018-11-14T12:22:09Z</time>
      </trkpt>
      <trkpt lat="44.66419" lon="6.26167">
        <ele>1726</ele>
        <time>2018-11-14T12:23:09Z</time>
      </trkpt>
      <trkpt lat="44.6636" lon="6.26195">
        <ele>1735</ele>
        <time>2018-11-14T12:24:09Z</time>
      </trkpt>
      <trkpt lat="44.66299" lon="6.26207">
        <ele>1743</ele>
        <time>2018-11-14T12:25:09Z</time>
      </trkpt>
      <trkpt lat="44.66259" lon="6.26205">
        <ele>1742</ele>
        <time>2018-11-14T12:26:09Z</time>
      </trkpt>
      <trkpt lat="44.66233" lon="6.26204">
        <ele>1744</ele>
        <time>2018-11-14T12:27:09Z</time>
      </trkpt>
      <trkpt lat="44.66219" lon="6.26209">
        <ele>1748</ele>
        <time>2018-11-14T12:28:09Z</time>
      </trkpt>
      <trkpt lat="44.66197" lon="6.26205">
        <ele>1749</ele>
        <time>2018-11-14T12:29:09Z</time>
      </trkpt>
      <trkpt lat="44.66175" lon="6.262">
        <ele>1749</ele>
        <time>2018-11-14T12:30:09Z</time>
      </trkpt>
      <trkpt lat="44.66163" lon="6.26193">
        <ele>1748</ele>
        <time>2018-11-14T12:31:09Z</time>
      </trkpt>
      <trkpt lat="44.66153" lon="6.26196">
        <ele>1752</ele>
        <time>2018-11-14T12:32:09Z</time>
      </trkpt>
      <trkpt lat="44.66145" lon="6.26187">
        <ele>1751</ele>
        <time>2018-11-14T12:33:09Z</time>
      </trkpt>
      <trkpt lat="44.66142" lon="6.26161">
        <ele>1742</ele>
        <time>2018-11-14T12:34:09Z</time>
      </trkpt>
      <trkpt lat="44.66132" lon="6.26141">
        <ele>1740</ele>
        <time>2018-11-14T12:35:09Z</time>
      </trkpt>
      <trkpt lat="44.66113" lon="6.26139">
        <ele>1743</ele>
        <time>2018-11-14T12:36:09Z</time>
      </trkpt>
      <trkpt lat="44.66073" lon="6.2611">
        <ele>1746</ele>
        <time>2018-11-14T12:37:09Z</time>
      </trkpt>
      <trkpt lat="44.66043" lon="6.26098">
        <ele>1753</ele>
        <time>2018-11-14T12:38:09Z</time>
      </trkpt>
      <trkpt lat="44.66008" lon="6.26103">
        <ele>1768</ele>
        <time>2018-11-14T12:39:09Z</time>
      </trkpt>
      <trkpt lat="44.65992" lon="6.26091">
        <ele>1769</ele>
        <time>2018-11-14T12:40:09Z</time>
      </trkpt>
      <trkpt lat="44.65987" lon="6.2608">
        <ele>1766</ele>
        <time>2018-11-14T12:41:09Z</time>
      </trkpt>
      <trkpt lat="44.6598" lon="6.26068">
        <ele>1766</ele>
        <time>2018-11-14T12:42:09Z</time>
      </trkpt>
      <trkpt lat="44.65953" lon="6.26054">
        <ele>1772</ele>
        <time>2018-11-14T12:43:09Z</time>
      </trkpt>
      <trkpt lat="44.65923" lon="6.26027">
        <ele>1777</ele>
        <time>2018-11-14T12:44:09Z</time>
      </trkpt>
      <trkpt lat="44.65902" lon="6.25978">
        <ele>1775</ele>
        <time>2018-11-14T12:45:09Z</time>
      </trkpt>
      <trkpt lat="44.65887" lon="6.25969">
        <ele>1778</ele>
        <time>2018-11-14T12:46:09Z</time>
      </trkpt>
      <trkpt lat="44.65814" lon="6.25977">
        <ele>1791</ele>
        <time>2018-11-14T12:47:09Z</time>
      </trkpt>
      <trkpt lat="44.65788" lon="6.25988">
        <ele>1794</ele>
        <time>2018-11-14T12:48:09Z</time>
      </trkpt>
      <trkpt lat="44.65777" lon="6.25984">
        <ele>1795</ele>
        <time>2018-11-14T12:49:09Z</time>
      </trkpt>
      <trkpt lat="44.65753" lon="6.25986">
        <ele>1798</ele>
        <time>2018-11-14T12:50:09Z</time>
      </trkpt>
      <trkpt lat="44.65726" lon="6.25982">
        <ele>1801</ele>
        <time>2018-11-14T12:51:09Z</time>
      </trkpt>
      <trkpt lat="44.65697" lon="6.25966">
        <ele>1804</ele>
        <time>2018-11-14T12:52:09Z</time>
      </trkpt>
      <trkpt lat="44.65654" lon="6.25963">
        <ele>1810</ele>
        <time>2018-11-14T12:53:09Z</time>
      </trkpt>
      <trkpt lat="44.6563" lon="6.25957">
        <ele>1814</ele>
        <time>2018-11-14T12:54:09Z</time>
      </trkpt>
      <trkpt lat="44.65613" lon="6.25953">
        <ele>1818</ele>
        <time>2018-11-14T12:55:09Z</time>
      </trkpt>
      <trkpt lat="44.65596" lon="6.25955">
        <ele>1821</ele>
        <time>2018-11-14T12:56:09Z</time>
      </trkpt>
      <trkpt lat="44.65587" lon="6.25946">
        <ele>1823</ele>
        <time>2018-11-14T12:57:09Z</time>
      </trkpt>
      <trkpt lat="44.6559" lon="6.25907">
        <ele>1822</ele>
        <time>2018-11-14T12:58:09Z</time>
      </trkpt>
      <trkpt lat="44.65593" lon="6.25893">
        <ele>1822</ele>
        <time>2018-11-14T12:59:09Z</time>
      </trkpt>
      <trkpt lat="44.65605" lon="6.25856">
        <ele>1824</ele>
        <time>2018-11-14T13:00:09Z</time>
      </trkpt>
      <trkpt lat="44.65634" lon="6.25806">
        <ele>1824</ele>
        <time>2018-11-14T13:01:09Z</time>
      </trkpt>
      <trkpt lat="44.65649" lon="6.25786">
        <ele>1823</ele>
        <time>2018-11-14T13:02:09Z</time>
      </trkpt>
      <trkpt lat="44.65661" lon="6.25754">
        <ele>1825</ele>
        <time>2018-11-14T13:03:09Z</time>
      </trkpt>
      <trkpt lat="44.65682" lon="6.257">
        <ele>1837</ele>
        <time>2018-11-14T13:04:09Z</time>
      </trkpt>
      <trkpt lat="44.65723" lon="6.25694">
        <ele>1837</ele>
        <time>2018-11-14T13:05:09Z</time>
      </trkpt>
      <trkpt lat="44.65749" lon="6.25699">
        <ele>1836</ele>
        <time>2018-11-14T13:06:09Z</time>
      </trkpt>
      <trkpt lat="44.65789" lon="6.25722">
        <ele>1834</ele>
        <time>2018-11-14T13:07:09Z</time>
      </trkpt>
      <trkpt lat="44.65842" lon="6.25715">
        <ele>1837</ele>
        <time>2018-11-14T13:08:09Z</time>
      </trkpt>
      <trkpt lat="44.65845" lon="6.25714">
        <ele>1836</ele>
        <time>2018-11-14T13:09:09Z</time>
      </trkpt>
      <trkpt lat="44.6587" lon="6.25697">
        <ele>1833</ele>
        <time>2018-11-14T13:10:09Z</time>
      </trkpt>
      <trkpt lat="44.65845" lon="6.25669">
        <ele>1843</ele>
        <time>2018-11-14T13:11:09Z</time>
      </trkpt>
      <trkpt lat="44.65817" lon="6.25649">
        <ele>1848</ele>
        <time>2018-11-14T13:12:09Z</time>
      </trkpt>
      <trkpt lat="44.6575" lon="6.25604">
        <ele>1851</ele>
        <time>2018-11-14T13:13:09Z</time>
      </trkpt>
      <trkpt lat="44.65731" lon="6.25595">
        <ele>1854</ele>
        <time>2018-11-14T13:14:09Z</time>
      </trkpt>
      <trkpt lat="44.657" lon="6.25588">
        <ele>1859</ele>
        <time>2018-11-14T13:15:09Z</time>
      </trkpt>
      <trkpt lat="44.65683" lon="6.25584">
        <ele>1861</ele>
        <time>2018-11-14T13:16:09Z</time>
      </trkpt>
      <trkpt lat="44.65671" lon="6.25588">
        <ele>1862</ele>
        <time>2018-11-14T13:17:09Z</time>
      </trkpt>
      <trkpt lat="44.65649" lon="6.2563">
        <ele>1856</ele>
        <time>2018-11-14T13:18:09Z</time>
      </trkpt>
      <trkpt lat="44.65626" lon="6.25679">
        <ele>1850</ele>
        <time>2018-11-14T13:19:09Z</time>
      </trkpt>
      <trkpt lat="44.65594" lon="6.25682">
        <ele>1856</ele>
        <time>2018-11-14T13:20:09Z</time>
      </trkpt>
      <trkpt lat="44.65563" lon="6.25654">
        <ele>1864</ele>
        <time>2018-11-14T13:21:09Z</time>
      </trkpt>
      <trkpt lat="44.65529" lon="6.25632">
        <ele>1869</ele>
        <time>2018-11-14T13:22:09Z</time>
      </trkpt>
      <trkpt lat="44.65495" lon="6.25589">
        <ele>1871</ele>
        <time>2018-11-14T13:23:09Z</time>
      </trkpt>
      <trkpt lat="44.65495" lon="6.25569">
        <ele>1873</ele>
        <time>2018-11-14T13:24:09Z</time>
      </trkpt>
      <trkpt lat="44.65495" lon="6.25569">
        <ele>1873</ele>
        <time>2018-11-14T13:25:09Z</time>
      </trkpt>
      <trkpt lat="44.65495" lon="6.25568">
        <ele>1874</ele>
        <time>2018-11-14T13:26:09Z</time>
      </trkpt>
      <trkpt lat="44.65508" lon="6.25569">
        <ele>1874</ele>
        <time>2018-11-14T13:27:09Z</time>
      </trkpt>
      <trkpt lat="44.65537" lon="6.25567">
        <ele>1875</ele>
        <time>2018-11-14T13:28:09Z</time>
      </trkpt>
      <trkpt lat="44.65568" lon="6.25566">
        <ele>1877</ele>
        <time>2018-11-14T13:29:09Z</time>
      </trkpt>
      <trkpt lat="44.65607" lon="6.25565">
        <ele>1875</ele>
        <time>2018-11-14T13:30:09Z</time>
      </trkpt>
      <trkpt lat="44.65628" lon="6.25531">
        <ele>1883</ele>
        <time>2018-11-14T13:31:09Z</time>
      </trkpt>
      <trkpt lat="44.65629" lon="6.25511">
        <ele>1888</ele>
        <time>2018-11-14T13:32:09Z</time>
      </trkpt>
      <trkpt lat="44.6566" lon="6.25489">
        <ele>1895</ele>
        <time>2018-11-14T13:33:09Z</time>
      </trkpt>
      <trkpt lat="44.65703" lon="6.25468">
        <ele>1897</ele>
        <time>2018-11-14T13:34:09Z</time>
      </trkpt>
      <trkpt lat="44.65738" lon="6.25461">
        <ele>1894</ele>
        <time>2018-11-14T13:35:09Z</time>
      </trkpt>
      <trkpt lat="44.65772" lon="6.25456">
        <ele>1893</ele>
        <time>2018-11-14T13:36:09Z</time>
      </trkpt>
      <trkpt lat="44.65783" lon="6.25458">
        <ele>1892</ele>
        <time>2018-11-14T13:37:09Z</time>
      </trkpt>
      <trkpt lat="44.65824" lon="6.25461">
        <ele>1891</ele>
        <time>2018-11-14T13:38:09Z</time>
      </trkpt>
      <trkpt lat="44.65854" lon="6.25455">
        <ele>1889</ele>
        <time>2018-11-14T13:39:09Z</time>
      </trkpt>
      <trkpt lat="44.65862" lon="6.25452">
        <ele>1888</ele>
        <time>2018-11-14T13:40:09Z</time>
      </trkpt>
      <trkpt lat="44.65866" lon="6.25444">
        <ele>1889</ele>
        <time>2018-11-14T13:41:09Z</time>
      </trkpt>
      <trkpt lat="44.65858" lon="6.25435">
        <ele>1892</ele>
        <time>2018-11-14T13:42:09Z</time>
      </trkpt>
      <trkpt lat="44.65849" lon="6.25421">
        <ele>1895</ele>
        <time>2018-11-14T13:43:09Z</time>
      </trkpt>
      <trkpt lat="44.65785" lon="6.25355">
        <ele>1894</ele>
        <time>2018-11-14T13:44:09Z</time>
      </trkpt>
      <trkpt lat="44.65773" lon="6.25344">
        <ele>1895</ele>
        <time>2018-11-14T13:45:09Z</time>
      </trkpt>
      <trkpt lat="44.65734" lon="6.25279">
        <ele>1888</ele>
        <time>2018-11-14T13:46:09Z</time>
      </trkpt>
      <trkpt lat="44.6569" lon="6.25196">
        <ele>1879</ele>
        <time>2018-11-14T13:47:09Z</time>
      </trkpt>
      <trkpt lat="44.65655" lon="6.25102">
        <ele>1874</ele>
        <time>2018-11-14T13:48:09Z</time>
      </trkpt>
      <trkpt lat="44.65651" lon="6.25018">
        <ele>1865</ele>
        <time>2018-11-14T13:49:09Z</time>
      </trkpt>
      <trkpt lat="44.65662" lon="6.24927">
        <ele>1855</ele>
        <time>2018-11-14T13:50:09Z</time>
      </trkpt>
      <trkpt lat="44.65672" lon="6.24895">
        <ele>1851</ele>
        <time>2018-11-14T13:51:09Z</time>
      </trkpt>
      <trkpt lat="44.65691" lon="6.24857">
        <ele>1841</ele>
        <time>2018-11-14T13:52:09Z</time>
      </trkpt>
      <trkpt lat="44.65702" lon="6.24801">
        <ele>1840</ele>
        <time>2018-11-14T13:53:09Z</time>
      </trkpt>
      <trkpt lat="44.65721" lon="6.24746">
        <ele>1836</ele>
        <time>2018-11-14T13:54:09Z</time>
      </trkpt>
      <trkpt lat="44.65748" lon="6.24706">
        <ele>1825</ele>
        <time>2018-11-14T13:55:09Z</time>
      </trkpt>
      <trkpt lat="44.65779" lon="6.24648">
        <ele>1811</ele>
        <time>2018-11-14T13:56:09Z</time>
      </trkpt>
      <trkpt lat="44.65769" lon="6.24592">
        <ele>1821</ele>
        <time>2018-11-14T13:57:09Z</time>
      </trkpt>
      <trkpt lat="44.65764" lon="6.24562">
        <ele>1823</ele>
        <time>2018-11-14T13:58:09Z</time>
      </trkpt>
      <trkpt lat="44.65764" lon="6.24509">
        <ele>1818</ele>
        <time>2018-11-14T13:59:09Z</time>
      </trkpt>
      <trkpt lat="44.65758" lon="6.24482">
        <ele>1816</ele>
        <time>2018-11-14T14:00:09Z</time>
      </trkpt>
      <trkpt lat="44.65722" lon="6.24515">
        <ele>1823</ele>
        <time>2018-11-14T14:01:09Z</time>
      </trkpt>
      <trkpt lat="44.65693" lon="6.24562">
        <ele>1838</ele>
        <time>2018-11-14T14:02:09Z</time>
      </trkpt>
      <trkpt lat="44.65679" lon="6.24571">
        <ele>1843</ele>
        <time>2018-11-14T14:03:09Z</time>
      </trkpt>
      <trkpt lat="44.65664" lon="6.24578">
        <ele>1848</ele>
        <time>2018-11-14T14:04:09Z</time>
      </trkpt>
      <trkpt lat="44.65609" lon="6.24573">
        <ele>1841</ele>
        <time>2018-11-14T14:05:09Z</time>
      </trkpt>
      <trkpt lat="44.65576" lon="6.24568">
        <ele>1835</ele>
        <time>2018-11-14T14:06:09Z</time>
      </trkpt>
      <trkpt lat="44.65564" lon="6.2457">
        <ele>1834</ele>
        <time>2018-11-14T14:07:09Z</time>
      </trkpt>
      <trkpt lat="44.6555" lon="6.24569">
        <ele>1832</ele>
        <time>2018-11-14T14:08:09Z</time>
      </trkpt>
      <trkpt lat="44.65538" lon="6.24568">
        <ele>1830</ele>
        <time>2018-11-14T14:09:09Z</time>
      </trkpt>
      <trkpt lat="44.65529" lon="6.24565">
        <ele>1827</ele>
        <time>2018-11-14T14:10:09Z</time>
      </trkpt>
      <trkpt lat="44.65529" lon="6.24564">
        <ele>1827</ele>
        <time>2018-11-14T14:11:09Z</time>
      </trkpt>
      <trkpt lat="44.65532" lon="6.24552">
        <ele>1823</ele>
        <time>2018-11-14T14:12:09Z</time>
      </trkpt>
      <trkpt lat="44.65549" lon="6.24538">
        <ele>1820</ele>
        <time>2018-11-14T14:13:09Z</time>
      </trkpt>
      <trkpt lat="44.65563" lon="6.24523">
        <ele>1814</ele>
        <time>2018-11-14T14:14:09Z</time>
      </trkpt>
      <trkpt lat="44.65599" lon="6.24507">
        <ele>1808</ele>
        <time>2018-11-14T14:15:09Z</time>
      </trkpt>
      <trkpt lat="44.65609" lon="6.24514">
        <ele>1812</ele>
        <time>2018-11-14T14:16:09Z</time>
      </trkpt>
      <trkpt lat="44.65626" lon="6.24503">
        <ele>1809</ele>
        <time>2018-11-14T14:17:09Z</time>
      </trkpt>
      <trkpt lat="44.65637" lon="6.24494">
        <ele>1805</ele>
        <time>2018-11-14T14:18:09Z</time>
      </trkpt>
      <trkpt lat="44.65647" lon="6.24492">
        <ele>1805</ele>
        <time>2018-11-14T14:19:09Z</time>
      </trkpt>
      <trkpt lat="44.6566" lon="6.24472">
        <ele>1797</ele>
        <time>2018-11-14T14:20:09Z</time>
      </trkpt>
      <trkpt lat="44.65665" lon="6.24501">
        <ele>1811</ele>
        <time>2018-11-14T14:21:09Z</time>
      </trkpt>
      <trkpt lat="44.65677" lon="6.24494">
        <ele>1810</ele>
        <time>2018-11-14T14:22:09Z</time>
      </trkpt>
      <trkpt lat="44.65697" lon="6.24471">
        <ele>1804</ele>
        <time>2018-11-14T14:23:09Z</time>
      </trkpt>
      <trkpt lat="44.65733" lon="6.24408">
        <ele>1794</ele>
        <time>2018-11-14T14:24:09Z</time>
      </trkpt>
      <trkpt lat="44.65768" lon="6.24365">
        <ele>1789</ele>
        <time>2018-11-14T14:25:09Z</time>
      </trkpt>
      <trkpt lat="44.65802" lon="6.24327">
        <ele>1786</ele>
        <time>2018-11-14T14:26:09Z</time>
      </trkpt>
      <trkpt lat="44.65836" lon="6.24293">
        <ele>1779</ele>
        <time>2018-11-14T14:27:09Z</time>
      </trkpt>
      <trkpt lat="44.65852" lon="6.24276">
        <ele>1768</ele>
        <time>2018-11-14T14:28:09Z</time>
      </trkpt>
      <trkpt lat="44.65864" lon="6.24253">
        <ele>1759</ele>
        <time>2018-11-14T14:29:09Z</time>
      </trkpt>
      <trkpt lat="44.65878" lon="6.24201">
        <ele>1740</ele>
        <time>2018-11-14T14:30:09Z</time>
      </trkpt>
      <trkpt lat="44.65892" lon="6.24167">
        <ele>1732</ele>
        <time>2018-11-14T14:31:09Z</time>
      </trkpt>
      <trkpt lat="44.65879" lon="6.24173">
        <ele>1732</ele>
        <time>2018-11-14T14:32:09Z</time>
      </trkpt>
      <trkpt lat="44.65847" lon="6.24222">
        <ele>1748</ele>
        <time>2018-11-14T14:33:09Z</time>
      </trkpt>
      <trkpt lat="44.65791" lon="6.24249">
        <ele>1750</ele>
        <time>2018-11-14T14:34:09Z</time>
      </trkpt>
      <trkpt lat="44.65723" lon="6.24286">
        <ele>1746</ele>
        <time>2018-11-14T14:35:09Z</time>
      </trkpt>
      <trkpt lat="44.65683" lon="6.24285">
        <ele>1732</ele>
        <time>2018-11-14T14:36:09Z</time>
      </trkpt>
      <trkpt lat="44.65662" lon="6.243">
        <ele>1731</ele>
        <time>2018-11-14T14:37:09Z</time>
      </trkpt>
      <trkpt lat="44.65641" lon="6.24343">
        <ele>1742</ele>
        <time>2018-11-14T14:38:09Z</time>
      </trkpt>
      <trkpt lat="44.65606" lon="6.24376">
        <ele>1750</ele>
        <time>2018-11-14T14:39:09Z</time>
      </trkpt>
      <trkpt lat="44.65567" lon="6.24313">
        <ele>1725</ele>
        <time>2018-11-14T14:40:09Z</time>
      </trkpt>
      <trkpt lat="44.65535" lon="6.2429">
        <ele>1719</ele>
        <time>2018-11-14T14:41:09Z</time>
      </trkpt>
      <trkpt lat="44.65501" lon="6.24271">
        <ele>1712</ele>
        <time>2018-11-14T14:42:09Z</time>
      </trkpt>
      <trkpt lat="44.65482" lon="6.24268">
        <ele>1710</ele>
        <time>2018-11-14T14:43:09Z</time>
      </trkpt>
      <trkpt lat="44.65448" lon="6.24278">
        <ele>1715</ele>
        <time>2018-11-14T14:44:09Z</time>
      </trkpt>
      <trkpt lat="44.65422" lon="6.24252">
        <ele>1704</ele>
        <time>2018-11-14T14:45:09Z</time>
      </trkpt>
      <trkpt lat="44.65395" lon="6.24241">
        <ele>1709</ele>
        <time>2018-11-14T14:46:09Z</time>
      </trkpt>
      <trkpt lat="44.65371" lon="6.24212">
        <ele>1710</ele>
        <time>2018-11-14T14:47:09Z</time>
      </trkpt>
      <trkpt lat="44.65353" lon="6.24166">
        <ele>1705</ele>
        <time>2018-11-14T14:48:09Z</time>
      </trkpt>
      <trkpt lat="44.65332" lon="6.24144">
        <ele>1707</ele>
        <time>2018-11-14T14:49:09Z</time>
      </trkpt>
      <trkpt lat="44.6531" lon="6.24111">
        <ele>1703</ele>
        <time>2018-11-14T14:50:09Z</time>
      </trkpt>
      <trkpt lat="44.6529" lon="6.24065">
        <ele>1690</ele>
        <time>2018-11-14T14:51:09Z</time>
      </trkpt>
      <trkpt lat="44.65264" lon="6.2405">
        <ele>1689</ele>
        <time>2018-11-14T14:52:09Z</time>
      </trkpt>
      <trkpt lat="44.65248" lon="6.24047">
        <ele>1691</ele>
        <time>2018-11-14T14:53:09Z</time>
      </trkpt>
      <trkpt lat="44.65231" lon="6.24039">
        <ele>1694</ele>
        <time>2018-11-14T14:54:09Z</time>
      </trkpt>
      <trkpt lat="44.65227" lon="6.24021">
        <ele>1688</ele>
        <time>2018-11-14T14:55:09Z</time>
      </trkpt>
      <trkpt lat="44.65227" lon="6.23966">
        <ele>1676</ele>
        <time>2018-11-14T14:56:09Z</time>
      </trkpt>
      <trkpt lat="44.65243" lon="6.23919">
        <ele>1665</ele>
        <time>2018-11-14T14:57:09Z</time>
      </trkpt>
      <trkpt lat="44.65246" lon="6.23869">
        <ele>1660</ele>
        <time>2018-11-14T14:58:09Z</time>
      </trkpt>
      <trkpt lat="44.65239" lon="6.23828">
        <ele>1659</ele>
        <time>2018-11-14T14:59:09Z</time>
      </trkpt>
      <trkpt lat="44.65221" lon="6.23768">
        <ele>1660</ele>
        <time>2018-11-14T15:00:09Z</time>
      </trkpt>
      <trkpt lat="44.65216" lon="6.23719">
        <ele>1658</ele>
        <time>2018-11-14T15:01:09Z</time>
      </trkpt>
      <trkpt lat="44.65207" lon="6.23671">
        <ele>1656</ele>
        <time>2018-11-14T15:02:09Z</time>
      </trkpt>
      <trkpt lat="44.65176" lon="6.23566">
        <ele>1655</ele>
        <time>2018-11-14T15:03:09Z</time>
      </trkpt>
      <trkpt lat="44.65176" lon="6.23565">
        <ele>1655</ele>
        <time>2018-11-14T15:04:09Z</time>
      </trkpt>
      <trkpt lat="44.65182" lon="6.23512">
        <ele>1652</ele>
        <time>2018-11-14T15:05:09Z</time>
      </trkpt>
      <trkpt lat="44.65206" lon="6.23483">
        <ele>1645</ele>
        <time>2018-11-14T15:06:09Z</time>
      </trkpt>
      <trkpt lat="44.65222" lon="6.23432">
        <ele>1639</ele>
        <time>2018-11-14T15:07:09Z</time>
      </trkpt>
      <trkpt lat="44.65232" lon="6.23381">
        <ele>1636</ele>
        <time>2018-11-14T15:08:09Z</time>
      </trkpt>
      <trkpt lat="44.65232" lon="6.23332">
        <ele>1637</ele>
        <time>2018-11-14T15:09:09Z</time>
      </trkpt>
      <trkpt lat="44.65227" lon="6.23276">
        <ele>1634</ele>
        <time>2018-11-14T15:10:09Z</time>
      </trkpt>
      <trkpt lat="44.65197" lon="6.23212">
        <ele>1640</ele>
        <time>2018-11-14T15:11:09Z</time>
      </trkpt>
      <trkpt lat="44.6519" lon="6.23162">
        <ele>1638</ele>
        <time>2018-11-14T15:12:09Z</time>
      </trkpt>
      <trkpt lat="44.65186" lon="6.23104">
        <ele>1638</ele>
        <time>2018-11-14T15:13:09Z</time>
      </trkpt>
      <trkpt lat="44.65181" lon="6.23056">
        <ele>1638</ele>
        <time>2018-11-14T15:14:09Z</time>
      </trkpt>
      <trkpt lat="44.65197" lon="6.23025">
        <ele>1634</ele>
        <time>2018-11-14T15:15:09Z</time>
      </trkpt>
      <trkpt lat="44.65204" lon="6.22991">
        <ele>1632</ele>
        <time>2018-11-14T15:16:09Z</time>
      </trkpt>
      <trkpt lat="44.65203" lon="6.22974">
        <ele>1632</ele>
        <time>2018-11-14T15:17:09Z</time>
      </trkpt>
      <trkpt lat="44.65196" lon="6.22956">
        <ele>1633</ele>
        <time>2018-11-14T15:18:09Z</time>
      </trkpt>
      <trkpt lat="44.6515" lon="6.22895">
        <ele>1628</ele>
        <time>2018-11-14T15:19:09Z</time>
      </trkpt>
      <trkpt lat="44.65109" lon="6.2286">
        <ele>1616</ele>
        <time>2018-11-14T15:20:09Z</time>
      </trkpt>
      <trkpt lat="44.65098" lon="6.2286">
        <ele>1614</ele>
        <time>2018-11-14T15:21:09Z</time>
      </trkpt>
      <trkpt lat="44.65025" lon="6.22896">
        <ele>1628</ele>
        <time>2018-11-14T15:22:09Z</time>
      </trkpt>
      <trkpt lat="44.64997" lon="6.22892">
        <ele>1628</ele>
        <time>2018-11-14T15:23:09Z</time>
      </trkpt>
      <trkpt lat="44.64969" lon="6.22863">
        <ele>1621</ele>
        <time>2018-11-14T15:24:09Z</time>
      </trkpt>
      <trkpt lat="44.64969" lon="6.22845">
        <ele>1614</ele>
        <time>2018-11-14T15:25:09Z</time>
      </trkpt>
      <trkpt lat="44.64974" lon="6.22842">
        <ele>1612</ele>
        <time>2018-11-14T15:26:09Z</time>
      </trkpt>
      <trkpt lat="44.64974" lon="6.22842">
        <ele>1612</ele>
        <time>2018-11-14T15:27:09Z</time>
      </trkpt>
      <trkpt lat="44.6501" lon="6.22877">
        <ele>1621</ele>
        <time>2018-11-14T15:28:09Z</time>
      </trkpt>
      <trkpt lat="44.65029" lon="6.22873">
        <ele>1619</ele>
        <time>2018-11-14T15:29:09Z</time>
      </trkpt>
      <trkpt lat="44.65072" lon="6.22837">
        <ele>1604</ele>
        <time>2018-11-14T15:30:09Z</time>
      </trkpt>
      <trkpt lat="44.65085" lon="6.2281">
        <ele>1596</ele>
        <time>2018-11-14T15:31:09Z</time>
      </trkpt>
      <trkpt lat="44.65095" lon="6.22804">
        <ele>1596</ele>
        <time>2018-11-14T15:32:09Z</time>
      </trkpt>
      <trkpt lat="44.65128" lon="6.228">
        <ele>1601</ele>
        <time>2018-11-14T15:33:09Z</time>
      </trkpt>
      <trkpt lat="44.65161" lon="6.2275">
        <ele>1592</ele>
        <time>2018-11-14T15:34:09Z</time>
      </trkpt>
      <trkpt lat="44.65181" lon="6.22714">
        <ele>1585</ele>
        <time>2018-11-14T15:35:09Z</time>
      </trkpt>
      <trkpt lat="44.6522" lon="6.22651">
        <ele>1581</ele>
        <time>2018-11-14T15:36:09Z</time>
      </trkpt>
      <trkpt lat="44.6523" lon="6.22609">
        <ele>1574</ele>
        <time>2018-11-14T15:37:09Z</time>
      </trkpt>
      <trkpt lat="44.65257" lon="6.22569">
        <ele>1570</ele>
        <time>2018-11-14T15:38:09Z</time>
      </trkpt>
      <trkpt lat="44.6528" lon="6.22518">
        <ele>1551</ele>
        <time>2018-11-14T15:39:09Z</time>
      </trkpt>
      <trkpt lat="44.6531" lon="6.22506">
        <ele>1547</ele>
        <time>2018-11-14T15:40:09Z</time>
      </trkpt>
      <trkpt lat="44.65311" lon="6.22503">
        <ele>1546</ele>
        <time>2018-11-14T15:41:09Z</time>
      </trkpt>
      <trkpt lat="44.65307" lon="6.22502">
        <ele>1546</ele>
        <time>2018-11-14T15:42:09Z</time>
      </trkpt>
      <trkpt lat="44.65299" lon="6.22501">
        <ele>1545</ele>
        <time>2018-11-14T15:43:09Z</time>
      </trkpt>
      <trkpt lat="44.65271" lon="6.22502">
        <ele>1546</ele>
        <time>2018-11-14T15:44:09Z</time>
      </trkpt>
      <trkpt lat="44.65231" lon="6.22525">
        <ele>1547</ele>
        <time>2018-11-14T15:45:09Z</time>
      </trkpt>
      <trkpt lat="44.65205" lon="6.22555">
        <ele>1546</ele>
        <time>2018-11-14T15:46:09Z</time>
      </trkpt>
      <trkpt lat="44.65175" lon="6.22605">
        <ele>1548</ele>
        <time>2018-11-14T15:47:09Z</time>
      </trkpt>
      <trkpt lat="44.65136" lon="6.22645">
        <ele>1549</ele>
        <time>2018-11-14T15:48:09Z</time>
      </trkpt>
      <trkpt lat="44.65106" lon="6.22657">
        <ele>1546</ele>
        <time>2018-11-14T15:49:09Z</time>
      </trkpt>
      <trkpt lat="44.65096" lon="6.22647">
        <ele>1540</ele>
        <time>2018-11-14T16:00:09Z</time>
      </trkpt>
      <trkpt lat="44.65097" lon="6.22631">
        <ele>1535</ele>
        <time>2018-11-14T16:01:09Z</time>
      </trkpt>
      <trkpt lat="44.65104" lon="6.22621">
        <ele>1533</ele>
        <time>2018-11-14T16:02:09Z</time>
      </trkpt>
      <trkpt lat="44.65125" lon="6.22618">
        <ele>1538</ele>
        <time>2018-11-14T16:03:09Z</time>
      </trkpt>
      <trkpt lat="44.65135" lon="6.22605">
        <ele>1536</ele>
        <time>2018-11-14T16:04:09Z</time>
      </trkpt>
      <trkpt lat="44.65132" lon="6.22591">
        <ele>1531</ele>
        <time>2018-11-14T16:05:09Z</time>
      </trkpt>
      <trkpt lat="44.65107" lon="6.22589">
        <ele>1523</ele>
        <time>2018-11-14T16:06:09Z</time>
      </trkpt>
      <trkpt lat="44.65083" lon="6.22597">
        <ele>1520</ele>
        <time>2018-11-14T16:07:09Z</time>
      </trkpt>
      <trkpt lat="44.65072" lon="6.22596">
        <ele>1523</ele>
        <time>2018-11-14T16:08:09Z</time>
      </trkpt>
      <trkpt lat="44.65076" lon="6.22575">
        <ele>1516</ele>
        <time>2018-11-14T16:09:09Z</time>
      </trkpt>
      <trkpt lat="44.65082" lon="6.22557">
        <ele>1510</ele>
        <time>2018-11-14T16:10:09Z</time>
      </trkpt>
      <trkpt lat="44.65074" lon="6.22531">
        <ele>1507</ele>
        <time>2018-11-14T16:11:09Z</time>
      </trkpt>
      <trkpt lat="44.65044" lon="6.22497">
        <ele>1511</ele>
        <time>2018-11-14T16:16:09Z</time>
      </trkpt>
      <trkpt lat="44.65008" lon="6.22424">
        <ele>1502</ele>
        <time>2018-11-14T16:17:09Z</time>
      </trkpt>
      <trkpt lat="44.65002" lon="6.22394">
        <ele>1499</ele>
        <time>2018-11-14T16:18:09Z</time>
      </trkpt>
      <trkpt lat="44.65011" lon="6.2235">
        <ele>1489</ele>
        <time>2018-11-14T16:19:09Z</time>
      </trkpt>
      <trkpt lat="44.65003" lon="6.22308">
        <ele>1483</ele>
        <time>2018-11-14T16:20:09Z</time>
      </trkpt>
      <trkpt lat="44.64973" lon="6.22286">
        <ele>1488</ele>
        <time>2018-11-14T16:21:09Z</time>
      </trkpt>
      <trkpt lat="44.64938" lon="6.22266">
        <ele>1492</ele>
        <time>2018-11-14T16:22:09Z</time>
      </trkpt>
      <trkpt lat="44.649" lon="6.22246">
        <ele>1490</ele>
        <time>2018-11-14T16:23:09Z</time>
      </trkpt>
      <trkpt lat="44.64867" lon="6.22221">
        <ele>1479</ele>
        <time>2018-11-14T16:24:09Z</time>
      </trkpt>
      <trkpt lat="44.64774" lon="6.22122">
        <ele>1464</ele>
        <time>2018-11-14T16:25:09Z</time>
      </trkpt>
      <trkpt lat="44.64735" lon="6.22063">
        <ele>1458</ele>
        <time>2018-11-14T16:26:09Z</time>
      </trkpt>
      <trkpt lat="44.64702" lon="6.2198">
        <ele>1438</ele>
        <time>2018-11-14T16:27:09Z</time>
      </trkpt>
      <trkpt lat="44.6468" lon="6.21948">
        <ele>1436</ele>
        <time>2018-11-14T16:28:09Z</time>
      </trkpt>
      <trkpt lat="44.6467" lon="6.21925">
        <ele>1432</ele>
        <time>2018-11-14T16:29:09Z</time>
      </trkpt>
      <trkpt lat="44.6464" lon="6.21835">
        <ele>1425</ele>
        <time>2018-11-14T16:30:09Z</time>
      </trkpt>
      <trkpt lat="44.64641" lon="6.21817">
        <ele>1423</ele>
        <time>2018-11-14T16:31:09Z</time>
      </trkpt>
      <trkpt lat="44.64652" lon="6.21797">
        <ele>1414</ele>
        <time>2018-11-14T16:32:09Z</time>
      </trkpt>
      <trkpt lat="44.64654" lon="6.21778">
        <ele>1412</ele>
        <time>2018-11-14T16:33:09Z</time>
      </trkpt>
      <trkpt lat="44.64673" lon="6.21758">
        <ele>1402</ele>
        <time>2018-11-14T16:34:09Z</time>
      </trkpt>
      <trkpt lat="44.64685" lon="6.21785">
        <ele>1400</ele>
        <time>2018-11-14T16:35:09Z</time>
      </trkpt>
      <trkpt lat="44.64698" lon="6.21831">
        <ele>1399</ele>
        <time>2018-11-14T16:36:09Z</time>
      </trkpt>
      <trkpt lat="44.64724" lon="6.21828">
        <ele>1393</ele>
        <time>2018-11-14T16:37:09Z</time>
      </trkpt>
      <trkpt lat="44.64745" lon="6.21785">
        <ele>1384</ele>
        <time>2018-11-14T16:38:09Z</time>
      </trkpt>
      <trkpt lat="44.64753" lon="6.21703">
        <ele>1376</ele>
        <time>2018-11-14T16:39:09Z</time>
      </trkpt>
      <trkpt lat="44.64751" lon="6.21622">
        <ele>1374</ele>
        <time>2018-11-14T16:40:09Z</time>
      </trkpt>
      <trkpt lat="44.64779" lon="6.21503">
        <ele>1361</ele>
        <time>2018-11-14T16:41:09Z</time>
      </trkpt>
      <trkpt lat="44.64774" lon="6.21464">
        <ele>1358</ele>
        <time>2018-11-14T16:42:09Z</time>
      </trkpt>
      <trkpt lat="44.64755" lon="6.21404">
        <ele>1360</ele>
        <time>2018-11-14T16:43:09Z</time>
      </trkpt>
      <trkpt lat="44.64754" lon="6.21301">
        <ele>1346</ele>
        <time>2018-11-14T16:44:09Z</time>
      </trkpt>
      <trkpt lat="44.64743" lon="6.21235">
        <ele>1337</ele>
        <time>2018-11-14T16:45:09Z</time>
      </trkpt>
      <trkpt lat="44.64741" lon="6.21147">
        <ele>1321</ele>
        <time>2018-11-14T16:46:09Z</time>
      </trkpt>
      <trkpt lat="44.64749" lon="6.2107">
        <ele>1310</ele>
      </trkpt>
      <trkpt lat="44.64761" lon="6.21035">
        <ele>1306</ele>
      </trkpt>
      <trkpt lat="44.64745" lon="6.20989">
        <ele>1305</ele>
      </trkpt>
      <trkpt lat="44.64716" lon="6.20931">
        <ele>1300</ele>
      </trkpt>
      <trkpt lat="44.64707" lon="6.20921">
        <ele>1299</ele>
      </trkpt>
      <trkpt lat="44.64686" lon="6.2088">
        <ele>1298</ele>
      </trkpt>
      <trkpt lat="44.64659" lon="6.20823">
        <ele>1298</ele>
      </trkpt>
      <trkpt lat="44.64652" lon="6.20777">
        <ele>1295</ele>
      </trkpt>
      <trkpt lat="44.64653" lon="6.20765">
        <ele>1294</ele>
      </trkpt>
      <trkpt lat="44.64653" lon="6.20705">
        <ele>1288</ele>
      </trkpt>
      <trkpt lat="44.64635" lon="6.20609">
        <ele>1280</ele>
      </trkpt>
      <trkpt lat="44.64634" lon="6.20602">
        <ele>1280</ele>
      </trkpt>
      <trkpt lat="44.64633" lon="6.2056">
        <ele>1276</ele>
      </trkpt>
      <trkpt lat="44.64633" lon="6.20547">
        <ele>1275</ele>
      </trkpt>
      <trkpt lat="44.64607" lon="6.2048">
        <ele>1273</ele>
      </trkpt>
      <trkpt lat="44.64573" lon="6.20427">
        <ele>1273</ele>
      </trkpt>
      <trkpt lat="44.64552" lon="6.20409">
        <ele>1274</ele>
      </trkpt>
      <trkpt lat="44.64537" lon="6.20391">
        <ele>1273</ele>
      </trkpt>
      <trkpt lat="44.64544" lon="6.20385">
        <ele>1271</ele>
      </trkpt>
      <trkpt lat="44.64554" lon="6.20388">
        <ele>1270</ele>
      </trkpt>
      <trkpt lat="44.64607" lon="6.20445">
        <ele>1269</ele>
      </trkpt>
      <trkpt lat="44.6464" lon="6.20507">
        <ele>1270</ele>
      </trkpt>
      <trkpt lat="44.64667" lon="6.2054">
        <ele>1269</ele>
      </trkpt>
      <trkpt lat="44.6468" lon="6.20558">
        <ele>1267</ele>
      </trkpt>
      <trkpt lat="44.64707" lon="6.20615">
        <ele>1268</ele>
      </trkpt>
      <trkpt lat="44.64711" lon="6.2061">
        <ele>1266</ele>
      </trkpt>
    </trkseg>
  </trk>
</gpx>